Time,TemperatureF,DewpointF,PressureIn,WindDirection,WindDirectionDegrees,WindSpeedMPH,WindSpeedGustMPH,Humidity,HourlyPrecipIn,Conditions,Clouds,dailyrainin,SoftwareType,DateUTC
2013-02-21 00:00:00,60.5,60.0,29.68,ESE,112,8.5,8.5,98,0.00,,---,0.00,VWS V14.01,2013-02-21 06:00:00,
2013-02-21 00:01:00,60.9,60.3,29.71,ESE,112,10.3,11.0,98,0.00,,---,0.00,VWS V14.01,2013-02-21 06:01:00,
2013-02-21 00:02:00,60.5,60.0,29.71,SSE,158,6.5,9.6,98,0.00,,---,0.00,VWS V14.01,2013-02-21 06:02:00,
2013-02-21 00:03:00,60.5,60.0,29.71,East,90,3.6,6.5,98,0.00,,---,0.00,VWS V14.01,2013-02-21 06:03:00,
2013-02-21 00:04:00,60.7,60.1,29.71,ESE,112,9.6,9.6,98,0.00,,---,0.00,VWS V14.01,2013-02-21 06:04:00,
2013-02-21 00:05:00,60.7,60.1,29.71,East,90,4.3,9.6,98,0.00,,---,0.00,VWS V14.01,2013-02-21 06:05:00,
2013-02-21 00:06:00,61.0,60.5,29.68,SE,135,10.7,10.7,98,0.00,,---,0.00,VWS V14.01,2013-02-21 06:06:00,
2013-02-21 00:07:00,60.7,60.1,29.71,ESE,112,6.5,7.6,98,0.00,,---,0.00,VWS V14.01,2013-02-21 06:07:00,
2013-02-21 00:08:00,60.7,60.1,29.71,ESE,112,4.3,6.5,98,0.00,,---,0.00,VWS V14.01,2013-02-21 06:08:00,
2013-02-21 00:09:00,60.7,60.1,29.71,SE,135,7.8,12.5,98,0.00,,---,0.00,VWS V14.01,2013-02-21 06:09:00,
2013-02-21 00:10:00,60.9,60.3,29.71,ESE,112,11.4,11.4,98,0.00,,---,0.00,VWS V14.01,2013-02-21 06:10:00,
2013-02-21 00:11:00,61.2,60.7,29.68,SE,135,5.4,6.5,98,0.00,,---,0.00,VWS V14.01,2013-02-21 06:11:00,
2013-02-21 00:12:00,60.9,60.3,29.71,ESE,112,6.0,6.0,98,0.00,,---,0.00,VWS V14.01,2013-02-21 06:12:00,
2013-02-21 00:13:00,60.9,60.3,29.71,ESE,112,7.8,11.0,98,0.00,,---,0.00,VWS V14.01,2013-02-21 06:13:00,
2013-02-21 00:14:00,60.9,60.3,29.71,East,90,9.2,9.2,98,0.00,,---,0.00,VWS V14.01,2013-02-21 06:14:00,
2013-02-21 00:15:00,61.0,60.5,29.71,SE,135,2.9,9.2,98,0.00,,---,0.00,VWS V14.01,2013-02-21 06:15:00,
2013-02-21 00:16:00,61.4,60.8,29.68,SSE,158,5.8,6.5,98,0.00,,---,0.00,VWS V14.01,2013-02-21 06:16:00,
2013-02-21 00:17:00,61.0,60.5,29.68,East,90,7.8,10.3,98,0.00,,---,0.00,VWS V14.01,2013-02-21 06:17:00,
2013-02-21 00:18:00,61.0,60.5,29.68,East,90,5.8,10.7,98,0.00,,---,0.00,VWS V14.01,2013-02-21 06:18:00,
2013-02-21 00:19:00,61.0,60.5,29.68,SE,135,8.7,8.7,98,0.00,,---,0.00,VWS V14.01,2013-02-21 06:19:00,
2013-02-21 00:20:00,61.0,60.5,29.68,East,90,3.4,8.7,98,0.00,,---,0.00,VWS V14.01,2013-02-21 06:20:00,
2013-02-21 00:21:00,61.4,60.8,29.65,East,90,5.4,6.3,98,0.00,,---,0.00,VWS V14.01,2013-02-21 06:21:00,
2013-02-21 00:22:00,61.2,60.7,29.68,ESE,112,5.6,11.0,98,0.00,,---,0.00,VWS V14.01,2013-02-21 06:22:00,
2013-02-21 00:23:00,61.2,60.7,29.68,SE,135,5.4,6.5,98,0.00,,---,0.00,VWS V14.01,2013-02-21 06:23:00,
2013-02-21 00:24:00,61.2,60.7,29.68,NE,45,3.4,6.3,98,0.00,,---,0.00,VWS V14.01,2013-02-21 06:24:00,
2013-02-21 00:25:00,61.2,60.7,29.68,South,180,2.7,4.7,98,0.00,,---,0.00,VWS V14.01,2013-02-21 06:25:00,
2013-02-21 00:26:00,61.8,61.2,29.65,SSE,158,6.0,6.9,98,0.00,,---,0.00,VWS V14.01,2013-02-21 06:26:00,
2013-02-21 00:27:00,61.4,60.8,29.68,East,90,3.6,9.6,98,0.00,,---,0.00,VWS V14.01,2013-02-21 06:27:00,
2013-02-21 00:29:00,61.4,60.8,29.68,East,90,8.1,9.6,98,0.00,,---,0.00,VWS V14.01,2013-02-21 06:29:00,
2013-02-21 00:31:00,61.8,61.2,29.65,ESE,112,10.1,10.1,98,0.00,,---,0.00,VWS V14.01,2013-02-21 06:31:00,
2013-02-21 00:32:00,61.4,60.8,29.65,ENE,68,5.8,10.1,98,0.00,,---,0.00,VWS V14.01,2013-02-21 06:32:00,
2013-02-21 00:34:00,61.4,60.8,29.65,SSE,158,8.7,12.1,98,0.00,,---,0.00,VWS V14.01,2013-02-21 06:34:00,
2013-02-21 00:35:00,61.4,60.8,29.65,ENE,68,3.8,8.7,98,0.00,,---,0.00,VWS V14.01,2013-02-21 06:35:00,
2013-02-21 00:36:00,62.1,61.5,29.68,East,90,9.4,9.4,98,0.00,,---,0.00,VWS V14.01,2013-02-21 06:36:00,
2013-02-21 00:37:00,61.6,61.0,29.65,SE,135,2.9,11.0,98,0.00,,---,0.00,VWS V14.01,2013-02-21 06:37:00,
2013-02-21 00:38:00,61.8,61.2,29.65,SE,135,7.4,7.4,98,0.00,,---,0.00,VWS V14.01,2013-02-21 06:38:00,
2013-02-21 00:39:00,61.8,61.2,29.65,SE,135,7.2,8.7,98,0.00,,---,0.00,VWS V14.01,2013-02-21 06:39:00,
2013-02-21 00:40:00,61.8,61.2,29.65,East,90,7.8,8.7,98,0.00,,---,0.00,VWS V14.01,2013-02-21 06:40:00,
2013-02-21 00:41:00,62.5,61.6,29.68,East,90,10.3,10.3,97,0.00,,---,0.00,VWS V14.01,2013-02-21 06:41:00,
2013-02-21 00:42:00,61.8,61.2,29.65,ESE,112,3.1,6.3,98,0.00,,---,0.00,VWS V14.01,2013-02-21 06:42:00,
2013-02-21 00:43:00,61.9,61.1,29.65,SE,135,6.5,10.1,97,0.00,,---,0.00,VWS V14.01,2013-02-21 06:43:00,
2013-02-21 00:44:00,61.9,61.1,29.65,ESE,112,4.3,10.3,97,0.00,,---,0.00,VWS V14.01,2013-02-21 06:44:00,
2013-02-21 00:45:00,61.9,61.1,29.65,SSE,158,6.3,9.8,97,0.00,,---,0.00,VWS V14.01,2013-02-21 06:45:00,
2013-02-21 00:46:00,62.8,62.0,29.68,ESE,112,6.5,7.6,97,0.00,,---,0.00,VWS V14.01,2013-02-21 06:46:00,
2013-02-21 00:47:00,62.1,61.2,29.68,East,90,7.4,10.1,97,0.00,,---,0.00,VWS V14.01,2013-02-21 06:47:00,
2013-02-21 00:48:00,62.3,61.7,29.68,SE,135,5.8,9.4,98,0.00,,---,0.00,VWS V14.01,2013-02-21 06:48:00,
2013-02-21 00:49:00,62.3,61.7,29.68,East,90,6.5,10.5,98,0.00,,---,0.00,VWS V14.01,2013-02-21 06:49:00,
2013-02-21 00:50:00,62.3,61.4,29.68,South,180,8.7,8.7,97,0.00,,---,0.00,VWS V14.01,2013-02-21 06:50:00,
2013-02-21 00:51:00,63.0,62.1,29.68,South,180,6.0,7.4,97,0.00,,---,0.00,VWS V14.01,2013-02-21 06:51:00,
2013-02-21 00:52:00,62.3,61.4,29.68,SSE,158,5.4,5.6,97,0.00,,---,0.00,VWS V14.01,2013-02-21 06:52:00,
2013-02-21 00:53:00,62.5,61.6,29.68,SSE,158,6.0,10.3,97,0.00,,---,0.00,VWS V14.01,2013-02-21 06:53:00,
2013-02-21 00:54:00,62.5,61.6,29.68,SSE,158,7.8,10.3,97,0.00,,---,0.00,VWS V14.01,2013-02-21 06:54:00,
2013-02-21 00:55:00,62.5,61.6,29.68,ESE,112,8.1,13.6,97,0.00,,---,0.00,VWS V14.01,2013-02-21 06:55:00,
2013-02-21 00:56:00,63.0,62.1,29.68,East,90,2.9,11.0,97,0.00,,---,0.00,VWS V14.01,2013-02-21 06:56:00,
2013-02-21 00:57:00,62.8,62.2,29.68,SSE,158,5.4,10.1,98,0.00,,---,0.00,VWS V14.01,2013-02-21 06:57:00,
2013-02-21 00:58:00,62.8,62.0,29.68,East,90,10.1,10.1,97,0.00,,---,0.00,VWS V14.01,2013-02-21 06:58:00,
2013-02-21 00:59:00,62.8,62.0,29.68,ESE,112,9.6,10.1,97,0.00,,---,0.00,VWS V14.01,2013-02-21 06:59:00,
2013-02-21 01:00:00,62.8,62.0,29.68,SE,135,6.0,12.8,97,0.00,,---,0.00,VWS V14.01,2013-02-21 07:00:00,
2013-02-21 01:01:00,63.2,62.0,29.68,ESE,112,6.3,10.5,96,0.00,,---,0.00,VWS V14.01,2013-02-21 07:01:00,
2013-02-21 01:02:00,62.8,62.0,29.68,SSE,158,7.4,12.5,97,0.00,,---,0.00,VWS V14.01,2013-02-21 07:02:00,
2013-02-21 01:03:00,63.0,62.1,29.68,SE,135,5.6,7.4,97,0.00,,---,0.00,VWS V14.01,2013-02-21 07:03:00,
2013-02-21 01:04:00,63.0,62.1,29.68,SE,135,7.6,9.8,97,0.00,,---,0.00,VWS V14.01,2013-02-21 07:04:00,
2013-02-21 01:05:00,63.0,62.1,29.68,ESE,112,6.3,8.1,97,0.00,,---,0.00,VWS V14.01,2013-02-21 07:05:00,
2013-02-21 01:06:00,63.3,62.2,29.65,SE,135,12.3,12.8,96,0.00,,---,0.00,VWS V14.01,2013-02-21 07:06:00,
2013-02-21 01:07:00,63.0,62.1,29.68,SE,135,8.1,8.7,97,0.00,,---,0.00,VWS V14.01,2013-02-21 07:07:00,
2013-02-21 01:08:00,63.0,62.1,29.68,SSE,158,8.1,11.0,97,0.00,,---,0.00,VWS V14.01,2013-02-21 07:08:00,
2013-02-21 01:09:00,63.0,62.1,29.68,SE,135,9.4,12.1,97,0.00,,---,0.00,VWS V14.01,2013-02-21 07:09:00,
2013-02-21 01:10:00,63.0,62.1,29.68,SSW,202,11.0,11.4,97,0.00,,---,0.00,VWS V14.01,2013-02-21 07:10:00,
2013-02-21 01:11:00,63.9,62.1,29.65,SSE,158,10.3,10.3,94,0.00,,---,0.00,VWS V14.01,2013-02-21 07:11:00,
2013-02-21 01:12:00,63.2,62.0,29.68,SSE,158,10.3,12.3,96,0.00,,---,0.00,VWS V14.01,2013-02-21 07:12:00,
2013-02-21 01:13:00,63.2,62.0,29.68,SE,135,6.0,10.5,96,0.00,,---,0.00,VWS V14.01,2013-02-21 07:13:00,
2013-02-21 01:14:00,63.2,62.0,29.68,SSE,158,8.5,8.5,96,0.00,,---,0.00,VWS V14.01,2013-02-21 07:14:00,
2013-02-21 01:15:00,63.2,62.0,29.68,ESE,112,6.3,10.5,96,0.00,,---,0.00,VWS V14.01,2013-02-21 07:15:00,
2013-02-21 01:16:00,64.2,62.2,29.65,SE,135,7.8,10.5,93,0.00,,---,0.00,VWS V14.01,2013-02-21 07:16:00,
2013-02-21 01:17:00,63.2,62.0,29.65,South,180,12.8,14.5,96,0.00,,---,0.00,VWS V14.01,2013-02-21 07:17:00,
2013-02-21 01:18:00,63.5,62.4,29.65,SE,135,8.5,12.8,96,0.00,,---,0.00,VWS V14.01,2013-02-21 07:18:00,
2013-02-21 01:19:00,63.5,62.1,29.65,SE,135,8.7,8.7,95,0.00,,---,0.00,VWS V14.01,2013-02-21 07:19:00,
2013-02-21 01:20:00,63.5,62.1,29.65,SE,135,13.2,17.2,95,0.00,,---,0.00,VWS V14.01,2013-02-21 07:20:00,
2013-02-21 01:21:00,64.2,62.2,29.62,SSE,158,6.5,9.6,93,0.00,,---,0.00,VWS V14.01,2013-02-21 07:21:00,
2013-02-21 01:22:00,63.9,62.4,29.65,South,180,9.8,9.8,95,0.00,,---,0.00,VWS V14.01,2013-02-21 07:22:00,
2013-02-21 01:23:00,63.9,62.1,29.65,SE,135,7.4,10.3,94,0.00,,---,0.00,VWS V14.01,2013-02-21 07:23:00,
2013-02-21 01:24:00,63.9,62.1,29.65,SE,135,14.5,14.5,94,0.00,,---,0.00,VWS V14.01,2013-02-21 07:24:00,
2013-02-21 01:25:00,64.1,62.3,29.65,SE,135,16.1,16.1,94,0.00,,---,0.00,VWS V14.01,2013-02-21 07:25:00,
2013-02-21 01:26:00,64.4,62.3,29.62,SSE,158,5.4,6.0,93,0.00,,---,0.00,VWS V14.01,2013-02-21 07:26:00,
2013-02-21 01:27:00,64.2,62.2,29.65,SSE,158,10.1,10.1,93,0.00,,---,0.00,VWS V14.01,2013-02-21 07:27:00,
2013-02-21 01:28:00,64.2,62.2,29.65,SE,135,6.3,10.5,93,0.00,,---,0.00,VWS V14.01,2013-02-21 07:28:00,
2013-02-21 01:29:00,64.2,62.2,29.65,SE,135,7.4,10.5,93,0.00,,---,0.00,VWS V14.01,2013-02-21 07:29:00,
2013-02-21 01:30:00,64.2,62.2,29.65,South,180,8.1,13.0,93,0.00,,---,0.00,VWS V14.01,2013-02-21 07:30:00,
2013-02-21 01:31:00,64.6,62.2,29.62,South,180,4.3,12.8,92,0.00,,---,0.00,VWS V14.01,2013-02-21 07:31:00,
2013-02-21 01:32:00,64.2,62.2,29.62,SSE,158,5.4,10.5,93,0.00,,---,0.00,VWS V14.01,2013-02-21 07:32:00,
2013-02-21 01:33:00,64.4,62.3,29.62,SSE,158,5.4,9.6,93,0.00,,---,0.00,VWS V14.01,2013-02-21 07:33:00,
2013-02-21 01:34:00,64.4,62.3,29.62,ESE,112,7.8,7.8,93,0.00,,---,0.00,VWS V14.01,2013-02-21 07:34:00,
2013-02-21 01:35:00,64.4,62.3,29.62,ESE,112,7.8,7.8,93,0.00,,---,0.00,VWS V14.01,2013-02-21 07:35:00,
2013-02-21 01:36:00,64.6,62.2,29.65,SSE,158,6.0,8.5,92,0.00,,---,0.00,VWS V14.01,2013-02-21 07:36:00,
2013-02-21 01:37:00,64.4,62.0,29.62,South,180,5.6,8.5,92,0.00,,---,0.00,VWS V14.01,2013-02-21 07:37:00,
2013-02-21 01:38:00,64.4,62.3,29.62,SE,135,7.8,7.8,93,0.00,,---,0.00,VWS V14.01,2013-02-21 07:38:00,
2013-02-21 01:39:00,64.4,62.0,29.62,SE,135,5.6,9.8,92,0.00,,---,0.00,VWS V14.01,2013-02-21 07:39:00,
2013-02-21 01:40:00,64.4,62.0,29.62,ESE,112,6.3,6.3,92,0.00,,---,0.00,VWS V14.01,2013-02-21 07:40:00,
2013-02-21 01:41:00,64.6,61.9,29.65,SSE,158,7.4,10.1,91,0.00,,---,0.00,VWS V14.01,2013-02-21 07:41:00,
2013-02-21 01:42:00,64.4,62.0,29.62,SE,135,12.8,12.8,92,0.00,,---,0.00,VWS V14.01,2013-02-21 07:42:00,
2013-02-21 01:43:00,64.6,62.2,29.62,South,180,9.6,12.8,92,0.00,,---,0.00,VWS V14.01,2013-02-21 07:43:00,
2013-02-21 01:44:00,64.6,62.2,29.62,SSE,158,10.1,11.4,92,0.00,,---,0.00,VWS V14.01,2013-02-21 07:44:00,
2013-02-21 01:45:00,64.6,62.2,29.62,South,180,8.1,10.1,92,0.00,,---,0.00,VWS V14.01,2013-02-21 07:45:00,
2013-02-21 01:46:00,64.9,62.3,29.65,South,180,6.3,10.5,91,0.00,,---,0.00,VWS V14.01,2013-02-21 07:46:00,
2013-02-21 01:47:00,64.6,62.2,29.65,SE,135,6.0,15.4,92,0.00,,---,0.00,VWS V14.01,2013-02-21 07:47:00,
2013-02-21 01:48:00,64.6,62.2,29.65,South,180,6.5,8.5,92,0.00,,---,0.00,VWS V14.01,2013-02-21 07:48:00,
2013-02-21 01:49:00,64.6,62.2,29.65,ESE,112,10.5,10.5,92,0.00,,---,0.00,VWS V14.01,2013-02-21 07:49:00,
2013-02-21 01:50:00,64.6,61.9,29.65,SSE,158,11.0,13.0,91,0.00,,---,0.00,VWS V14.01,2013-02-21 07:50:00,
2013-02-21 01:51:00,64.8,62.1,29.65,SSE,158,14.8,14.8,91,0.00,,---,0.00,VWS V14.01,2013-02-21 07:51:00,
2013-02-21 01:52:00,64.8,62.1,29.65,ESE,112,7.4,7.6,91,0.00,,---,0.00,VWS V14.01,2013-02-21 07:52:00,
2013-02-21 01:53:00,64.6,61.9,29.65,SSE,158,7.4,10.1,91,0.00,,---,0.00,VWS V14.01,2013-02-21 07:53:00,
2013-02-21 01:54:00,64.6,61.9,29.65,South,180,8.7,10.3,91,0.00,,---,0.00,VWS V14.01,2013-02-21 07:54:00,
2013-02-21 01:55:00,64.8,62.1,29.65,SE,135,8.5,14.8,91,0.00,,---,0.00,VWS V14.01,2013-02-21 07:55:00,
2013-02-21 01:56:00,65.1,62.1,29.65,SSW,202,12.3,12.3,90,0.00,,---,0.00,VWS V14.01,2013-02-21 07:56:00,
2013-02-21 01:57:00,64.9,62.3,29.65,SSE,158,5.8,9.6,91,0.00,,---,0.00,VWS V14.01,2013-02-21 07:57:00,
2013-02-21 01:58:00,64.9,62.3,29.65,SE,135,6.5,10.5,91,0.00,,---,0.00,VWS V14.01,2013-02-21 07:58:00,
2013-02-21 01:59:00,64.9,62.3,29.65,South,180,8.7,8.7,91,0.00,,---,0.00,VWS V14.01,2013-02-21 07:59:00,
2013-02-21 02:00:00,64.9,62.3,29.65,SE,135,5.6,8.7,91,0.00,,---,0.00,VWS V14.01,2013-02-21 08:00:00,
2013-02-21 02:01:00,65.3,62.0,29.65,SSE,158,12.1,12.1,89,0.00,,---,0.00,VWS V14.01,2013-02-21 08:01:00,
2013-02-21 02:02:00,64.9,62.3,29.65,SE,135,7.2,8.1,91,0.00,,---,0.00,VWS V14.01,2013-02-21 08:02:00,
2013-02-21 02:03:00,64.8,62.1,29.65,SSE,158,14.8,14.8,91,0.00,,---,0.00,VWS V14.01,2013-02-21 08:03:00,
2013-02-21 02:04:00,64.9,62.0,29.65,South,180,14.1,14.8,90,0.00,,---,0.00,VWS V14.01,2013-02-21 08:04:00,
2013-02-21 02:05:00,64.9,62.0,29.65,SE,135,10.1,14.1,90,0.00,,---,0.00,VWS V14.01,2013-02-21 08:05:00,
2013-02-21 02:06:00,65.3,62.0,29.65,SE,135,12.8,12.8,89,0.00,,---,0.00,VWS V14.01,2013-02-21 08:06:00,
2013-02-21 02:07:00,65.1,62.1,29.65,SE,135,8.1,15.2,90,0.00,,---,0.00,VWS V14.01,2013-02-21 08:07:00,
2013-02-21 02:08:00,65.1,62.1,29.65,SSE,158,8.7,12.3,90,0.00,,---,0.00,VWS V14.01,2013-02-21 08:08:00,
2013-02-21 02:09:00,65.3,62.0,29.65,SSE,158,5.8,13.2,89,0.00,,---,0.00,VWS V14.01,2013-02-21 08:09:00,
2013-02-21 02:10:00,65.3,62.0,29.65,SE,135,15.4,15.4,89,0.00,,---,0.00,VWS V14.01,2013-02-21 08:10:00,
2013-02-21 02:11:00,65.3,62.0,29.65,SE,135,12.8,12.8,89,0.00,,---,0.00,VWS V14.01,2013-02-21 08:11:00,
2013-02-21 02:12:00,65.3,62.0,29.65,SE,135,8.1,10.1,89,0.00,,---,0.00,VWS V14.01,2013-02-21 08:12:00,
2013-02-21 02:13:00,65.3,62.0,29.65,SSE,158,12.1,12.1,89,0.00,,---,0.00,VWS V14.01,2013-02-21 08:13:00,
2013-02-21 02:14:00,65.3,62.0,29.65,SSE,158,5.4,12.1,89,0.00,,---,0.00,VWS V14.01,2013-02-21 08:14:00,
2013-02-21 02:15:00,65.3,62.0,29.65,South,180,3.8,13.0,89,0.00,,---,0.00,VWS V14.01,2013-02-21 08:15:00,
2013-02-21 02:16:00,65.5,61.8,29.65,SE,135,4.9,7.8,88,0.00,,---,0.00,VWS V14.01,2013-02-21 08:16:00,
2013-02-21 02:17:00,65.3,62.0,29.65,SSE,158,7.2,10.1,89,0.00,,---,0.00,VWS V14.01,2013-02-21 08:17:00,
2013-02-21 02:18:00,65.3,62.0,29.65,SE,135,12.8,12.8,89,0.00,,---,0.00,VWS V14.01,2013-02-21 08:18:00,
2013-02-21 02:19:00,65.3,62.0,29.65,SSE,158,5.6,12.8,89,0.00,,---,0.00,VWS V14.01,2013-02-21 08:19:00,
2013-02-21 02:20:00,65.3,62.0,29.65,SE,135,4.3,6.0,89,0.00,,---,0.00,VWS V14.01,2013-02-21 08:20:00,
2013-02-21 02:21:00,65.5,61.8,29.65,SE,135,10.1,10.1,88,0.00,,---,0.00,VWS V14.01,2013-02-21 08:21:00,
2013-02-21 02:22:00,65.3,62.0,29.65,SSE,158,6.0,10.7,89,0.00,,---,0.00,VWS V14.01,2013-02-21 08:22:00,
2013-02-21 02:23:00,65.3,62.0,29.65,SE,135,12.8,12.8,89,0.00,,---,0.00,VWS V14.01,2013-02-21 08:23:00,
2013-02-21 02:24:00,65.5,61.8,29.65,SE,135,8.5,12.8,88,0.00,,---,0.00,VWS V14.01,2013-02-21 08:24:00,
2013-02-21 02:25:00,65.5,61.8,29.65,SSE,158,10.3,13.0,88,0.00,,---,0.00,VWS V14.01,2013-02-21 08:25:00,
2013-02-21 02:26:00,65.5,61.8,29.65,ESE,112,5.4,9.8,88,0.00,,---,0.00,VWS V14.01,2013-02-21 08:26:00,
2013-02-21 02:27:00,65.5,61.8,29.65,ESE,112,7.8,10.1,88,0.00,,---,0.00,VWS V14.01,2013-02-21 08:27:00,
2013-02-21 02:28:00,65.5,61.8,29.65,SE,135,4.9,7.8,88,0.00,,---,0.00,VWS V14.01,2013-02-21 08:28:00,
2013-02-21 02:29:00,65.5,61.8,29.65,SSE,158,5.8,7.4,88,0.00,,---,0.00,VWS V14.01,2013-02-21 08:29:00,
2013-02-21 02:30:00,65.5,61.8,29.65,SE,135,5.6,8.1,88,0.00,,---,0.00,VWS V14.01,2013-02-21 08:30:00,
2013-02-21 02:31:00,65.7,61.7,29.65,SE,135,7.8,7.8,87,0.00,,---,0.00,VWS V14.01,2013-02-21 08:31:00,
2013-02-21 02:32:00,65.5,61.8,29.65,SE,135,7.8,12.5,88,0.00,,---,0.00,VWS V14.01,2013-02-21 08:32:00,
2013-02-21 02:33:00,65.5,61.8,29.65,SE,135,10.1,10.1,88,0.00,,---,0.00,VWS V14.01,2013-02-21 08:33:00,
2013-02-21 02:34:00,65.7,62.0,29.65,SE,135,10.3,10.3,88,0.00,,---,0.00,VWS V14.01,2013-02-21 08:34:00,
2013-02-21 02:35:00,65.7,62.0,29.65,ESE,112,7.8,10.3,88,0.00,,---,0.00,VWS V14.01,2013-02-21 08:35:00,
2013-02-21 02:36:00,65.7,61.7,29.65,SE,135,7.8,12.8,87,0.00,,---,0.00,VWS V14.01,2013-02-21 08:36:00,
2013-02-21 02:37:00,65.7,62.0,29.65,ESE,112,5.6,5.6,88,0.00,,---,0.00,VWS V14.01,2013-02-21 08:37:00,
2013-02-21 02:38:00,65.5,61.8,29.65,ESE,112,5.4,9.8,88,0.00,,---,0.00,VWS V14.01,2013-02-21 08:38:00,
2013-02-21 02:39:00,65.5,61.8,29.65,South,180,8.5,8.5,88,0.00,,---,0.00,VWS V14.01,2013-02-21 08:39:00,
2013-02-21 02:40:00,65.5,61.8,29.65,South,180,13.6,13.6,88,0.00,,---,0.00,VWS V14.01,2013-02-21 08:40:00,
2013-02-21 02:41:00,65.7,61.7,29.65,SE,135,8.7,8.7,87,0.00,,---,0.00,VWS V14.01,2013-02-21 08:41:00,
2013-02-21 02:42:00,65.7,61.7,29.65,SE,135,5.4,10.5,87,0.00,,---,0.00,VWS V14.01,2013-02-21 08:42:00,
2013-02-21 02:43:00,65.7,61.7,29.65,SE,135,7.8,7.8,87,0.00,,---,0.00,VWS V14.01,2013-02-21 08:43:00,
2013-02-21 02:44:00,65.7,61.7,29.65,South,180,9.8,9.8,87,0.00,,---,0.00,VWS V14.01,2013-02-21 08:44:00,
2013-02-21 02:45:00,65.7,61.7,29.65,SSE,158,8.5,9.8,87,0.00,,---,0.00,VWS V14.01,2013-02-21 08:45:00,
2013-02-21 02:46:00,65.8,61.9,29.65,SE,135,11.0,11.0,87,0.00,,---,0.00,VWS V14.01,2013-02-21 08:46:00,
2013-02-21 02:47:00,65.7,61.7,29.65,SE,135,5.8,10.7,87,0.00,,---,0.00,VWS V14.01,2013-02-21 08:47:00,
2013-02-21 02:48:00,65.7,61.7,29.65,SE,135,7.8,12.8,87,0.00,,---,0.00,VWS V14.01,2013-02-21 08:48:00,
2013-02-21 02:49:00,65.7,61.7,29.65,South,180,8.5,8.7,87,0.00,,---,0.00,VWS V14.01,2013-02-21 08:49:00,
2013-02-21 02:50:00,65.7,61.7,29.65,SSE,158,15.4,15.4,87,0.00,,---,0.00,VWS V14.01,2013-02-21 08:50:00,
2013-02-21 02:51:00,65.7,61.7,29.65,SE,135,5.6,9.8,87,0.00,,---,0.00,VWS V14.01,2013-02-21 08:51:00,
2013-02-21 02:52:00,65.8,61.9,29.65,South,180,8.5,10.5,87,0.00,,---,0.00,VWS V14.01,2013-02-21 08:52:00,
2013-02-21 02:53:00,65.7,61.7,29.65,SE,135,8.7,8.7,87,0.00,,---,0.00,VWS V14.01,2013-02-21 08:53:00,
2013-02-21 02:54:00,65.7,61.7,29.65,SE,135,10.1,10.3,87,0.00,,---,0.00,VWS V14.01,2013-02-21 08:54:00,
2013-02-21 02:55:00,65.7,61.7,29.65,SSE,158,6.0,14.5,87,0.00,,---,0.00,VWS V14.01,2013-02-21 08:55:00,
2013-02-21 02:56:00,65.7,62.0,29.65,SSE,158,12.5,12.5,88,0.00,,---,0.00,VWS V14.01,2013-02-21 08:56:00,
2013-02-21 02:57:00,65.8,61.9,29.65,SE,135,6.0,17.2,87,0.00,,---,0.00,VWS V14.01,2013-02-21 08:57:00,
2013-02-21 02:58:00,65.8,61.9,29.65,SE,135,11.0,11.0,87,0.00,,---,0.00,VWS V14.01,2013-02-21 08:58:00,
2013-02-21 02:59:00,65.7,61.7,29.65,SE,135,6.5,11.0,87,0.00,,---,0.00,VWS V14.01,2013-02-21 08:59:00,
2013-02-21 03:00:00,65.7,61.7,29.65,ESE,112,13.0,13.0,87,0.00,,---,0.00,VWS V14.01,2013-02-21 09:00:00,
2013-02-21 03:01:00,65.7,61.7,29.65,SE,135,8.7,8.7,87,0.00,,---,0.00,VWS V14.01,2013-02-21 09:01:00,
2013-02-21 03:02:00,65.7,61.7,29.65,South,180,6.3,10.1,87,0.00,,---,0.00,VWS V14.01,2013-02-21 09:02:00,
2013-02-21 03:03:00,65.7,61.7,29.65,SE,135,5.6,9.8,87,0.00,,---,0.00,VWS V14.01,2013-02-21 09:03:00,
2013-02-21 03:04:00,65.7,61.7,29.65,SSE,158,3.6,9.6,87,0.00,,---,0.00,VWS V14.01,2013-02-21 09:04:00,
2013-02-21 03:05:00,65.7,62.0,29.65,South,180,6.3,8.5,88,0.00,,---,0.00,VWS V14.01,2013-02-21 09:05:00,
2013-02-21 03:06:00,65.8,61.9,29.68,SSE,158,9.6,11.9,87,0.00,,---,0.00,VWS V14.01,2013-02-21 09:06:00,
2013-02-21 03:07:00,65.7,62.0,29.65,SE,135,7.8,12.8,88,0.00,,---,0.00,VWS V14.01,2013-02-21 09:07:00,
2013-02-21 03:08:00,65.7,62.0,29.65,SSE,158,12.5,12.5,88,0.00,,---,0.00,VWS V14.01,2013-02-21 09:08:00,
2013-02-21 03:09:00,65.7,62.0,29.65,SE,135,7.8,12.5,88,0.00,,---,0.00,VWS V14.01,2013-02-21 09:09:00,
2013-02-21 03:10:00,65.7,62.0,29.65,SE,135,7.2,7.8,88,0.00,,---,0.00,VWS V14.01,2013-02-21 09:10:00,
2013-02-21 03:11:00,66.0,62.0,29.68,SSE,158,9.6,9.6,87,0.00,,---,0.00,VWS V14.01,2013-02-21 09:11:00,
2013-02-21 03:12:00,65.7,61.7,29.65,South,180,10.5,10.5,87,0.00,,---,0.00,VWS V14.01,2013-02-21 09:12:00,
2013-02-21 03:13:00,65.7,61.7,29.65,SE,135,8.7,10.5,87,0.00,,---,0.00,VWS V14.01,2013-02-21 09:13:00,
2013-02-21 03:14:00,65.7,61.7,29.65,South,180,6.9,14.8,87,0.00,,---,0.00,VWS V14.01,2013-02-21 09:14:00,
2013-02-21 03:15:00,65.8,61.9,29.65,SE,135,7.8,8.5,87,0.00,,---,0.00,VWS V14.01,2013-02-21 09:15:00,
2013-02-21 03:16:00,66.0,61.7,29.68,SE,135,10.1,10.1,86,0.00,,---,0.00,VWS V14.01,2013-02-21 09:16:00,
2013-02-21 03:17:00,65.8,61.9,29.68,SE,135,10.7,11.0,87,0.00,,---,0.00,VWS V14.01,2013-02-21 09:17:00,
2013-02-21 03:18:00,65.8,61.9,29.68,SSE,158,9.6,11.9,87,0.00,,---,0.00,VWS V14.01,2013-02-21 09:18:00,
2013-02-21 03:19:00,65.8,61.9,29.68,South,180,8.7,14.3,87,0.00,,---,0.00,VWS V14.01,2013-02-21 09:19:00,
2013-02-21 03:20:00,65.8,61.9,29.68,SSE,158,7.4,12.1,87,0.00,,---,0.00,VWS V14.01,2013-02-21 09:20:00,
2013-02-21 03:21:00,66.0,61.7,29.65,SSE,158,4.3,4.3,86,0.00,,---,0.00,VWS V14.01,2013-02-21 09:21:00,
2013-02-21 03:22:00,65.8,61.9,29.68,SSE,158,7.8,9.6,87,0.00,,---,0.00,VWS V14.01,2013-02-21 09:22:00,
2013-02-21 03:23:00,66.0,62.0,29.68,SSE,158,9.6,12.1,87,0.00,,---,0.00,VWS V14.01,2013-02-21 09:23:00,
2013-02-21 03:24:00,66.0,62.0,29.68,SE,135,8.7,9.6,87,0.00,,---,0.00,VWS V14.01,2013-02-21 09:24:00,
2013-02-21 03:25:00,66.0,61.7,29.68,South,180,9.4,12.8,86,0.00,,---,0.00,VWS V14.01,2013-02-21 09:25:00,
2013-02-21 03:26:00,66.0,61.7,29.65,SSE,158,4.0,5.6,86,0.00,,---,0.00,VWS V14.01,2013-02-21 09:26:00,
2013-02-21 03:27:00,66.0,61.7,29.68,SE,135,11.0,11.0,86,0.00,,---,0.00,VWS V14.01,2013-02-21 09:27:00,
2013-02-21 03:28:00,66.0,61.7,29.68,SE,135,10.1,12.8,86,0.00,,---,0.00,VWS V14.01,2013-02-21 09:28:00,
2013-02-21 03:29:00,66.0,61.7,29.68,SE,135,8.7,10.3,86,0.00,,---,0.00,VWS V14.01,2013-02-21 09:29:00,
2013-02-21 03:30:00,66.0,61.7,29.68,South,180,7.2,8.7,86,0.00,,---,0.00,VWS V14.01,2013-02-21 09:30:00,
2013-02-21 03:31:00,66.0,61.7,29.65,SSE,158,13.0,13.0,86,0.00,,---,0.00,VWS V14.01,2013-02-21 09:31:00,
2013-02-21 03:32:00,66.0,61.7,29.65,SE,135,6.3,11.0,86,0.00,,---,0.00,VWS V14.01,2013-02-21 09:32:00,
2013-02-21 03:33:00,66.0,61.7,29.65,SSE,158,4.3,10.1,86,0.00,,---,0.00,VWS V14.01,2013-02-21 09:33:00,
2013-02-21 03:34:00,66.0,61.7,29.65,SSE,158,9.6,10.1,86,0.00,,---,0.00,VWS V14.01,2013-02-21 09:34:00,
2013-02-21 03:35:00,66.0,61.7,29.65,SE,135,7.8,10.3,86,0.00,,---,0.00,VWS V14.01,2013-02-21 09:35:00,
2013-02-21 03:36:00,66.0,61.7,29.62,East,90,8.5,11.2,86,0.00,,---,0.00,VWS V14.01,2013-02-21 09:36:00,
2013-02-21 03:37:00,66.0,61.7,29.65,SSE,158,5.4,10.3,86,0.00,,---,0.00,VWS V14.01,2013-02-21 09:37:00,
2013-02-21 03:38:00,66.0,61.7,29.65,SE,135,5.6,8.5,86,0.00,,---,0.00,VWS V14.01,2013-02-21 09:38:00,
2013-02-21 03:39:00,66.0,61.7,29.65,SE,135,10.5,13.0,86,0.00,,---,0.00,VWS V14.01,2013-02-21 09:39:00,
2013-02-21 03:40:00,66.0,61.7,29.65,South,180,10.5,10.5,86,0.00,,---,0.00,VWS V14.01,2013-02-21 09:40:00,
2013-02-21 03:41:00,65.8,61.5,29.62,SE,135,5.8,5.8,86,0.00,,---,0.00,VWS V14.01,2013-02-21 09:41:00,
2013-02-21 03:42:00,66.0,61.7,29.65,SSE,158,10.3,14.8,86,0.00,,---,0.00,VWS V14.01,2013-02-21 09:42:00,
2013-02-21 03:43:00,66.0,61.7,29.65,SSE,158,13.0,14.3,86,0.00,,---,0.00,VWS V14.01,2013-02-21 09:43:00,
2013-02-21 03:44:00,66.0,61.7,29.65,SSE,158,6.0,13.0,86,0.00,,---,0.00,VWS V14.01,2013-02-21 09:44:00,
2013-02-21 03:45:00,66.0,61.7,29.65,SW,225,10.1,13.0,86,0.00,,---,0.00,VWS V14.01,2013-02-21 09:45:00,
2013-02-21 03:46:00,65.8,61.5,29.62,SSE,158,5.8,5.8,86,0.00,,---,0.00,VWS V14.01,2013-02-21 09:46:00,
2013-02-21 03:47:00,66.2,61.9,29.62,SE,135,5.8,17.9,86,0.00,,---,0.00,VWS V14.01,2013-02-21 09:47:00,
2013-02-21 03:48:00,66.2,61.9,29.62,SE,135,11.2,11.2,86,0.00,,---,0.00,VWS V14.01,2013-02-21 09:48:00,
2013-02-21 03:49:00,66.0,61.7,29.62,SSE,158,9.6,11.2,86,0.00,,---,0.00,VWS V14.01,2013-02-21 09:49:00,
2013-02-21 03:50:00,66.0,61.7,29.62,SSE,158,6.3,9.6,86,0.00,,---,0.00,VWS V14.01,2013-02-21 09:50:00,
2013-02-21 03:51:00,65.8,61.5,29.65,SE,135,5.8,5.8,86,0.00,,---,0.00,VWS V14.01,2013-02-21 09:51:00,
2013-02-21 03:52:00,66.0,61.7,29.62,ESE,112,4.7,12.3,86,0.00,,---,0.00,VWS V14.01,2013-02-21 09:52:00,
2013-02-21 03:53:00,65.8,61.5,29.62,SE,135,5.8,8.7,86,0.00,,---,0.00,VWS V14.01,2013-02-21 09:53:00,
2013-02-21 03:54:00,65.8,61.5,29.62,SE,135,5.6,5.8,86,0.00,,---,0.00,VWS V14.01,2013-02-21 09:54:00,
2013-02-21 03:55:00,65.8,61.5,29.62,South,180,8.7,8.7,86,0.00,,---,0.00,VWS V14.01,2013-02-21 09:55:00,
2013-02-21 03:56:00,66.0,61.7,29.65,ESE,112,9.2,10.5,86,0.00,,---,0.00,VWS V14.01,2013-02-21 09:56:00,
2013-02-21 03:57:00,65.8,61.5,29.62,South,180,8.7,8.7,86,0.00,,---,0.00,VWS V14.01,2013-02-21 09:57:00,
2013-02-21 03:58:00,65.8,61.5,29.62,SSE,158,5.8,8.7,86,0.00,,---,0.00,VWS V14.01,2013-02-21 09:58:00,
2013-02-21 03:59:00,65.8,61.5,29.62,South,180,4.9,10.3,86,0.00,,---,0.00,VWS V14.01,2013-02-21 09:59:00,
2013-02-21 04:00:00,65.8,61.5,29.62,East,90,8.1,8.5,86,0.00,,---,0.00,VWS V14.01,2013-02-21 10:00:00,
2013-02-21 04:01:00,66.2,61.9,29.65,SSE,158,5.6,6.5,86,0.00,,---,0.00,VWS V14.01,2013-02-21 10:01:00,
2013-02-21 04:02:00,65.8,61.5,29.65,SE,135,10.1,10.1,86,0.00,,---,0.00,VWS V14.01,2013-02-21 10:02:00,
2013-02-21 04:03:00,65.8,61.5,29.65,SE,135,5.8,10.1,86,0.00,,---,0.00,VWS V14.01,2013-02-21 10:03:00,
2013-02-21 04:04:00,65.8,61.5,29.65,SSE,158,12.8,12.8,86,0.00,,---,0.00,VWS V14.01,2013-02-21 10:04:00,
2013-02-21 04:05:00,66.0,61.7,29.65,South,180,7.8,12.8,86,0.00,,---,0.00,VWS V14.01,2013-02-21 10:05:00,
2013-02-21 04:06:00,66.0,61.7,29.62,SSW,202,3.8,3.8,86,0.00,,---,0.00,VWS V14.01,2013-02-21 10:06:00,
2013-02-21 04:07:00,66.0,61.7,29.65,SE,135,10.1,10.1,86,0.00,,---,0.00,VWS V14.01,2013-02-21 10:07:00,
2013-02-21 04:08:00,66.0,61.7,29.65,SE,135,10.5,12.5,86,0.00,,---,0.00,VWS V14.01,2013-02-21 10:08:00,
2013-02-21 04:09:00,66.0,61.7,29.65,ESE,112,8.1,14.3,86,0.00,,---,0.00,VWS V14.01,2013-02-21 10:09:00,
2013-02-21 04:10:00,66.2,61.9,29.65,South,180,7.4,14.1,86,0.00,,---,0.00,VWS V14.01,2013-02-21 10:10:00,
2013-02-21 04:11:00,65.8,61.5,29.62,SSE,158,2.5,2.7,86,0.00,,---,0.00,VWS V14.01,2013-02-21 10:11:00,
2013-02-21 04:12:00,66.2,61.9,29.65,SSE,158,6.3,7.8,86,0.00,,---,0.00,VWS V14.01,2013-02-21 10:12:00,
2013-02-21 04:13:00,66.2,61.9,29.65,SSE,158,6.5,8.7,86,0.00,,---,0.00,VWS V14.01,2013-02-21 10:13:00,
2013-02-21 04:14:00,66.2,61.9,29.65,South,180,5.8,7.8,86,0.00,,---,0.00,VWS V14.01,2013-02-21 10:14:00,
2013-02-21 04:15:00,66.2,61.9,29.65,ENE,68,2.5,5.8,86,0.00,,---,0.00,VWS V14.01,2013-02-21 10:15:00,
2013-02-21 04:16:00,65.8,61.5,29.62,SE,135,3.8,6.0,86,0.00,,---,0.00,VWS V14.01,2013-02-21 10:16:00,
2013-02-21 04:17:00,66.0,61.7,29.62,SSE,158,5.4,6.3,86,0.00,,---,0.00,VWS V14.01,2013-02-21 10:17:00,
2013-02-21 04:18:00,66.0,61.7,29.62,SE,135,3.4,8.1,86,0.00,,---,0.00,VWS V14.01,2013-02-21 10:18:00,
2013-02-21 04:19:00,66.0,61.7,29.62,SE,135,3.1,3.8,86,0.00,,---,0.00,VWS V14.01,2013-02-21 10:19:00,
2013-02-21 04:20:00,66.0,61.7,29.62,SSE,158,0.9,4.9,86,0.00,,---,0.00,VWS V14.01,2013-02-21 10:20:00,
2013-02-21 04:21:00,66.0,61.7,29.62,ESE,112,4.0,4.0,86,0.00,,---,0.00,VWS V14.01,2013-02-21 10:21:00,
2013-02-21 04:22:00,66.0,61.7,29.62,ESE,112,2.9,5.6,86,0.00,,---,0.00,VWS V14.01,2013-02-21 10:22:00,
2013-02-21 04:23:00,65.8,61.5,29.62,SSE,158,2.7,4.0,86,0.00,,---,0.00,VWS V14.01,2013-02-21 10:23:00,
2013-02-21 04:24:00,65.8,61.5,29.62,SE,135,9.2,9.2,86,0.00,,---,0.00,VWS V14.01,2013-02-21 10:24:00,
2013-02-21 04:25:00,65.8,61.5,29.62,East,90,6.5,9.2,86,0.00,,---,0.00,VWS V14.01,2013-02-21 10:25:00,
2013-02-21 04:26:00,65.8,61.5,29.62,East,90,8.5,8.5,86,0.00,,---,0.00,VWS V14.01,2013-02-21 10:26:00,
2013-02-21 04:27:00,65.8,61.5,29.62,SE,135,3.1,6.0,86,0.00,,---,0.00,VWS V14.01,2013-02-21 10:27:00,
2013-02-21 04:28:00,65.8,61.5,29.62,SE,135,6.0,6.3,86,0.00,,---,0.00,VWS V14.01,2013-02-21 10:28:00,
2013-02-21 04:29:00,65.8,61.5,29.62,ESE,112,4.0,6.0,86,0.00,,---,0.00,VWS V14.01,2013-02-21 10:29:00,
2013-02-21 04:30:00,65.8,61.5,29.62,SE,135,3.8,4.9,86,0.00,,---,0.00,VWS V14.01,2013-02-21 10:30:00,
2013-02-21 04:31:00,65.8,61.5,29.62,SE,135,5.4,8.1,86,0.00,,---,0.00,VWS V14.01,2013-02-21 10:31:00,
2013-02-21 04:32:00,65.8,61.5,29.62,SE,135,3.4,6.0,86,0.00,,---,0.00,VWS V14.01,2013-02-21 10:32:00,
2013-02-21 04:33:00,66.0,61.7,29.62,East,90,3.8,5.8,86,0.00,,---,0.00,VWS V14.01,2013-02-21 10:33:00,
2013-02-21 04:34:00,66.0,61.7,29.62,South,180,2.5,4.7,86,0.00,,---,0.00,VWS V14.01,2013-02-21 10:34:00,
2013-02-21 04:35:00,65.8,61.5,29.62,SSE,158,2.0,3.8,86,0.00,,---,0.00,VWS V14.01,2013-02-21 10:35:00,
2013-02-21 04:36:00,65.8,61.5,29.62,SE,135,4.7,5.6,86,0.00,,---,0.00,VWS V14.01,2013-02-21 10:36:00,
2013-02-21 04:37:00,65.8,61.5,29.62,NE,45,2.0,2.7,86,0.00,,---,0.00,VWS V14.01,2013-02-21 10:37:00,
2013-02-21 04:38:00,65.8,61.5,29.62,ESE,112,3.8,3.8,86,0.00,,---,0.00,VWS V14.01,2013-02-21 10:38:00,
2013-02-21 04:39:00,65.8,61.5,29.62,SE,135,8.5,8.5,86,0.00,,---,0.00,VWS V14.01,2013-02-21 10:39:00,
2013-02-21 04:40:00,65.8,61.5,29.62,SE,135,3.1,8.5,86,0.00,,---,0.00,VWS V14.01,2013-02-21 10:40:00,
2013-02-21 04:41:00,65.8,61.5,29.62,South,180,3.8,3.8,86,0.00,,---,0.00,VWS V14.01,2013-02-21 10:41:00,
2013-02-21 04:42:00,65.8,61.5,29.62,ESE,112,2.2,3.1,86,0.00,,---,0.00,VWS V14.01,2013-02-21 10:42:00,
2013-02-21 04:43:00,65.8,61.5,29.62,SE,135,6.0,6.3,86,0.00,,---,0.00,VWS V14.01,2013-02-21 10:43:00,
2013-02-21 04:44:00,65.8,61.5,29.62,ESE,112,5.6,6.3,86,0.00,,---,0.00,VWS V14.01,2013-02-21 10:44:00,
2013-02-21 04:45:00,65.8,61.5,29.62,SSE,158,5.4,5.8,86,0.00,,---,0.00,VWS V14.01,2013-02-21 10:45:00,
2013-02-21 04:46:00,66.0,61.7,29.62,ESE,112,5.4,6.0,86,0.00,,---,0.00,VWS V14.01,2013-02-21 10:46:00,
2013-02-21 04:47:00,65.8,61.5,29.62,ENE,68,2.5,2.5,86,0.00,,---,0.00,VWS V14.01,2013-02-21 10:47:00,
2013-02-21 04:48:00,66.0,61.7,29.62,East,90,2.7,2.7,86,0.00,,---,0.00,VWS V14.01,2013-02-21 10:48:00,
2013-02-21 04:49:00,65.8,61.5,29.62,ESE,112,3.8,3.8,86,0.00,,---,0.00,VWS V14.01,2013-02-21 10:49:00,
2013-02-21 04:50:00,65.8,61.5,29.62,SSW,202,2.9,4.9,86,0.00,,---,0.00,VWS V14.01,2013-02-21 10:50:00,
2013-02-21 04:51:00,65.8,61.5,29.62,SSE,158,3.8,3.8,86,0.00,,---,0.00,VWS V14.01,2013-02-21 10:51:00,
2013-02-21 04:52:00,65.7,61.4,29.62,SSE,158,4.3,4.3,86,0.00,,---,0.00,VWS V14.01,2013-02-21 10:52:00,
2013-02-21 04:53:00,65.8,61.5,29.62,East,90,3.1,3.4,86,0.00,,---,0.00,VWS V14.01,2013-02-21 10:53:00,
2013-02-21 04:54:00,65.8,61.5,29.62,SE,135,2.0,3.1,86,0.00,,---,0.00,VWS V14.01,2013-02-21 10:54:00,
2013-02-21 04:55:00,65.8,61.5,29.62,ESE,112,4.9,4.9,86,0.00,,---,0.00,VWS V14.01,2013-02-21 10:55:00,
2013-02-21 04:56:00,65.8,61.5,29.62,SE,135,2.2,4.9,86,0.00,,---,0.00,VWS V14.01,2013-02-21 10:56:00,
2013-02-21 04:57:00,65.7,61.4,29.62,SE,135,1.3,2.7,86,0.00,,---,0.00,VWS V14.01,2013-02-21 10:57:00,
2013-02-21 04:58:00,65.8,61.5,29.62,SE,135,1.3,3.6,86,0.00,,---,0.00,VWS V14.01,2013-02-21 10:58:00,
2013-02-21 04:59:00,65.8,61.5,29.62,ENE,68,3.6,3.6,86,0.00,,---,0.00,VWS V14.01,2013-02-21 10:59:00,
2013-02-21 05:00:00,65.7,61.4,29.62,ENE,68,0.9,3.6,86,0.00,,---,0.00,VWS V14.01,2013-02-21 11:00:00,
2013-02-21 05:01:00,65.7,61.4,29.62,ESE,112,2.9,2.9,86,0.00,,---,0.00,VWS V14.01,2013-02-21 11:01:00,
2013-02-21 05:02:00,65.7,61.4,29.62,South,180,0.0,0.9,86,0.00,,---,0.00,VWS V14.01,2013-02-21 11:02:00,
2013-02-21 05:03:00,65.7,61.4,29.62,SE,135,3.4,5.8,86,0.00,,---,0.00,VWS V14.01,2013-02-21 11:03:00,
2013-02-21 05:04:00,65.7,61.4,29.62,East,90,2.5,4.3,86,0.00,,---,0.00,VWS V14.01,2013-02-21 11:04:00,
2013-02-21 05:05:00,65.7,61.4,29.62,SE,135,5.6,5.6,86,0.00,,---,0.00,VWS V14.01,2013-02-21 11:05:00,
2013-02-21 05:06:00,65.7,61.4,29.62,East,90,2.7,6.5,86,0.00,,---,0.00,VWS V14.01,2013-02-21 11:06:00,
2013-02-21 05:07:00,65.7,61.4,29.65,West,270,0.0,2.0,86,0.00,,---,0.00,VWS V14.01,2013-02-21 11:07:00,
2013-02-21 05:08:00,65.7,61.4,29.62,SE,135,2.7,2.9,86,0.00,,---,0.00,VWS V14.01,2013-02-21 11:08:00,
2013-02-21 05:09:00,65.7,61.4,29.62,SE,135,0.9,2.7,86,0.00,,---,0.00,VWS V14.01,2013-02-21 11:09:00,
2013-02-21 05:10:00,65.7,61.4,29.62,SE,135,1.6,1.6,86,0.00,,---,0.00,VWS V14.01,2013-02-21 11:10:00,
2013-02-21 05:11:00,65.7,61.4,29.62,SSW,202,3.4,3.4,86,0.00,,---,0.00,VWS V14.01,2013-02-21 11:11:00,
2013-02-21 05:12:00,65.8,61.9,29.65,SSW,202,4.3,6.5,87,0.00,,---,0.00,VWS V14.01,2013-02-21 11:12:00,
2013-02-21 05:13:00,65.7,61.4,29.62,South,180,0.9,2.2,86,0.00,,---,0.00,VWS V14.01,2013-02-21 11:13:00,
2013-02-21 05:14:00,65.7,61.4,29.62,SE,135,0.0,0.9,86,0.00,,---,0.00,VWS V14.01,2013-02-21 11:14:00,
2013-02-21 05:15:00,65.7,61.4,29.62,SE,135,0.0,0.0,86,0.00,,---,0.00,VWS V14.01,2013-02-21 11:15:00,
2013-02-21 05:16:00,65.7,61.4,29.65,ESE,112,1.3,1.3,86,0.00,,---,0.00,VWS V14.01,2013-02-21 11:16:00,
2013-02-21 05:17:00,66.0,62.0,29.65,SSE,158,3.6,3.6,87,0.00,,---,0.00,VWS V14.01,2013-02-21 11:17:00,
2013-02-21 05:18:00,65.7,61.4,29.65,West,270,2.0,2.2,86,0.00,,---,0.00,VWS V14.01,2013-02-21 11:18:00,
2013-02-21 05:19:00,65.7,61.4,29.65,ESE,112,0.0,2.0,86,0.00,,---,0.00,VWS V14.01,2013-02-21 11:19:00,
2013-02-21 05:20:00,65.7,61.4,29.65,SSW,202,1.1,1.1,86,0.00,,---,0.00,VWS V14.01,2013-02-21 11:20:00,
2013-02-21 05:21:00,65.7,61.4,29.65,South,180,0.9,3.8,86,0.00,,---,0.00,VWS V14.01,2013-02-21 11:21:00,
2013-02-21 05:22:00,66.0,62.0,29.65,SW,225,6.5,6.5,87,0.00,,---,0.00,VWS V14.01,2013-02-21 11:22:00,
2013-02-21 05:23:00,65.8,61.9,29.65,South,180,6.5,6.5,87,0.00,,---,0.00,VWS V14.01,2013-02-21 11:23:00,
2013-02-21 05:24:00,65.8,61.9,29.65,SSW,202,4.9,6.5,87,0.00,,---,0.00,VWS V14.01,2013-02-21 11:24:00,
2013-02-21 05:25:00,65.8,61.9,29.65,South,180,2.0,4.9,87,0.00,,---,0.00,VWS V14.01,2013-02-21 11:25:00,
2013-02-21 05:26:00,65.8,61.9,29.65,SSW,202,6.3,6.3,87,0.00,,---,0.00,VWS V14.01,2013-02-21 11:26:00,
2013-02-21 05:27:00,66.0,61.7,29.65,South,180,6.5,6.5,86,0.00,,---,0.00,VWS V14.01,2013-02-21 11:27:00,
2013-02-21 05:28:00,66.0,62.0,29.65,SSE,158,2.9,4.7,87,0.00,,---,0.00,VWS V14.01,2013-02-21 11:28:00,
2013-02-21 05:29:00,66.0,62.0,29.65,SSE,158,2.5,3.6,87,0.00,,---,0.00,VWS V14.01,2013-02-21 11:29:00,
2013-02-21 05:30:00,66.0,62.0,29.65,SSE,158,3.6,3.8,87,0.00,,---,0.00,VWS V14.01,2013-02-21 11:30:00,
2013-02-21 05:31:00,66.0,62.0,29.65,SW,225,2.5,3.6,87,0.00,,---,0.00,VWS V14.01,2013-02-21 11:31:00,
2013-02-21 05:32:00,66.2,61.9,29.65,SSW,202,6.3,8.7,86,0.00,,---,0.00,VWS V14.01,2013-02-21 11:32:00,
2013-02-21 05:33:00,66.0,62.0,29.65,SSW,202,3.6,4.9,87,0.00,,---,0.00,VWS V14.01,2013-02-21 11:33:00,
2013-02-21 05:34:00,66.0,62.0,29.65,SSW,202,6.0,6.5,87,0.00,,---,0.00,VWS V14.01,2013-02-21 11:34:00,
2013-02-21 05:35:00,66.0,62.0,29.65,South,180,3.6,6.0,87,0.00,,---,0.00,VWS V14.01,2013-02-21 11:35:00,
2013-02-21 05:36:00,66.0,61.7,29.65,SE,135,3.4,5.4,86,0.00,,---,0.00,VWS V14.01,2013-02-21 11:36:00,
2013-02-21 05:37:00,66.4,62.1,29.65,South,180,5.8,6.5,86,0.00,,---,0.00,VWS V14.01,2013-02-21 11:37:00,
2013-02-21 05:38:00,66.0,61.7,29.65,SSW,202,5.4,5.4,86,0.00,,---,0.00,VWS V14.01,2013-02-21 11:38:00,
2013-02-21 05:39:00,66.0,61.7,29.65,South,180,4.3,6.5,86,0.00,,---,0.00,VWS V14.01,2013-02-21 11:39:00,
2013-02-21 05:40:00,66.0,61.7,29.65,South,180,8.1,8.1,86,0.00,,---,0.00,VWS V14.01,2013-02-21 11:40:00,
2013-02-21 05:41:00,66.2,61.9,29.65,South,180,9.0,9.0,86,0.00,,---,0.00,VWS V14.01,2013-02-21 11:41:00,
2013-02-21 05:42:00,66.2,61.9,29.65,South,180,6.0,9.2,86,0.00,,---,0.00,VWS V14.01,2013-02-21 11:42:00,
2013-02-21 05:43:00,66.2,61.9,29.65,SSW,202,8.7,10.7,86,0.00,,---,0.00,VWS V14.01,2013-02-21 11:43:00,
2013-02-21 05:44:00,66.2,61.9,29.65,South,180,6.0,8.7,86,0.00,,---,0.00,VWS V14.01,2013-02-21 11:44:00,
2013-02-21 05:45:00,66.4,62.1,29.65,South,180,11.4,12.3,86,0.00,,---,0.00,VWS V14.01,2013-02-21 11:45:00,
2013-02-21 05:46:00,66.4,62.1,29.65,South,180,7.4,17.2,86,0.00,,---,0.00,VWS V14.01,2013-02-21 11:46:00,
2013-02-21 05:47:00,66.0,62.0,29.65,SSE,158,10.3,11.0,87,0.00,,---,0.00,VWS V14.01,2013-02-21 11:47:00,
2013-02-21 05:48:00,66.4,62.1,29.65,SSE,158,6.5,10.3,86,0.00,,---,0.00,VWS V14.01,2013-02-21 11:48:00,
2013-02-21 05:49:00,66.4,62.1,29.65,SSE,158,7.8,7.8,86,0.00,,---,0.00,VWS V14.01,2013-02-21 11:49:00,
2013-02-21 05:50:00,66.4,62.1,29.65,SSE,158,5.8,7.8,86,0.00,,---,0.00,VWS V14.01,2013-02-21 11:50:00,
2013-02-21 05:51:00,66.2,61.9,29.65,SSE,158,4.9,9.6,86,0.00,,---,0.00,VWS V14.01,2013-02-21 11:51:00,
2013-02-21 05:52:00,65.8,61.9,29.65,SE,135,10.1,10.1,87,0.00,,---,0.00,VWS V14.01,2013-02-21 11:52:00,
2013-02-21 05:53:00,66.2,61.9,29.65,SSE,158,9.2,12.5,86,0.00,,---,0.00,VWS V14.01,2013-02-21 11:53:00,
2013-02-21 05:54:00,66.2,61.9,29.65,SSE,158,6.5,9.2,86,0.00,,---,0.00,VWS V14.01,2013-02-21 11:54:00,
2013-02-21 05:55:00,66.0,61.7,29.65,SSE,158,7.2,12.3,86,0.00,,---,0.00,VWS V14.01,2013-02-21 11:55:00,
2013-02-21 05:56:00,66.0,61.7,29.65,SE,135,8.1,10.3,86,0.00,,---,0.00,VWS V14.01,2013-02-21 11:56:00,
2013-02-21 05:57:00,65.7,61.7,29.65,ESE,112,6.3,7.6,87,0.00,,---,0.00,VWS V14.01,2013-02-21 11:57:00,
2013-02-21 05:58:00,66.0,62.0,29.65,SE,135,7.6,11.0,87,0.00,,---,0.00,VWS V14.01,2013-02-21 11:58:00,
2013-02-21 05:59:00,65.8,61.9,29.65,SE,135,4.9,11.0,87,0.00,,---,0.00,VWS V14.01,2013-02-21 11:59:00,
2013-02-21 06:00:00,65.8,61.9,29.65,SE,135,10.1,10.1,87,0.00,,---,0.00,VWS V14.01,2013-02-21 12:00:00,
2013-02-21 06:01:00,65.8,61.9,29.65,SSW,202,5.6,11.0,87,0.00,,---,0.00,VWS V14.01,2013-02-21 12:01:00,
2013-02-21 06:02:00,65.5,61.5,29.65,SE,135,6.5,6.5,87,0.00,,---,0.00,VWS V14.01,2013-02-21 12:02:00,
2013-02-21 06:03:00,65.8,61.9,29.65,SSE,158,6.3,7.4,87,0.00,,---,0.00,VWS V14.01,2013-02-21 12:03:00,
2013-02-21 06:04:00,65.8,61.9,29.65,SSE,158,10.3,10.3,87,0.00,,---,0.00,VWS V14.01,2013-02-21 12:04:00,
2013-02-21 06:05:00,65.8,61.9,29.65,SSE,158,6.3,10.7,87,0.00,,---,0.00,VWS V14.01,2013-02-21 12:05:00,
2013-02-21 06:06:00,65.8,61.9,29.65,SSE,158,5.4,6.3,87,0.00,,---,0.00,VWS V14.01,2013-02-21 12:06:00,
2013-02-21 06:07:00,65.5,61.8,29.62,SSE,158,3.6,7.4,88,0.00,,---,0.00,VWS V14.01,2013-02-21 12:07:00,
2013-02-21 06:08:00,65.7,61.7,29.65,SSE,158,4.9,10.1,87,0.00,,---,0.00,VWS V14.01,2013-02-21 12:08:00,
2013-02-21 06:09:00,65.7,61.7,29.65,SSE,158,5.6,7.6,87,0.00,,---,0.00,VWS V14.01,2013-02-21 12:09:00,
2013-02-21 06:10:00,65.7,61.7,29.65,SSE,158,8.5,9.8,87,0.00,,---,0.00,VWS V14.01,2013-02-21 12:10:00,
2013-02-21 06:11:00,65.7,61.7,29.65,South,180,7.6,8.5,87,0.00,,---,0.00,VWS V14.01,2013-02-21 12:11:00,
2013-02-21 06:12:00,65.3,61.7,29.62,ESE,112,5.4,5.6,88,0.00,,---,0.00,VWS V14.01,2013-02-21 12:12:00,
2013-02-21 06:13:00,65.5,61.5,29.65,SE,135,4.5,8.5,87,0.00,,---,0.00,VWS V14.01,2013-02-21 12:13:00,
2013-02-21 06:14:00,65.5,61.5,29.65,SSE,158,4.3,6.5,87,0.00,,---,0.00,VWS V14.01,2013-02-21 12:14:00,
2013-02-21 06:15:00,65.5,61.5,29.65,South,180,4.3,4.7,87,0.00,,---,0.00,VWS V14.01,2013-02-21 12:15:00,
2013-02-21 06:16:00,65.5,61.8,29.62,South,180,3.8,6.5,88,0.00,,---,0.00,VWS V14.01,2013-02-21 12:16:00,
2013-02-21 06:17:00,65.1,61.5,29.62,ENE,68,3.1,4.0,88,0.00,,---,0.00,VWS V14.01,2013-02-21 12:17:00,
2013-02-21 06:18:00,65.5,61.8,29.62,SSE,158,4.3,4.3,88,0.00,,---,0.00,VWS V14.01,2013-02-21 12:18:00,
2013-02-21 06:19:00,65.5,61.8,29.62,SSE,158,3.6,7.4,88,0.00,,---,0.00,VWS V14.01,2013-02-21 12:19:00,
2013-02-21 06:20:00,65.5,61.8,29.62,South,180,6.0,7.8,88,0.00,,---,0.00,VWS V14.01,2013-02-21 12:20:00,
2013-02-21 06:21:00,65.5,61.8,29.62,SE,135,2.7,6.0,88,0.00,,---,0.00,VWS V14.01,2013-02-21 12:21:00,
2013-02-21 06:22:00,65.3,62.0,29.65,NW,315,3.8,3.8,89,0.00,,---,0.00,VWS V14.01,2013-02-21 12:22:00,
2013-02-21 06:23:00,65.3,61.7,29.62,South,180,5.6,7.4,88,0.00,,---,0.00,VWS V14.01,2013-02-21 12:23:00,
2013-02-21 06:24:00,65.3,61.7,29.62,East,90,4.3,5.6,88,0.00,,---,0.00,VWS V14.01,2013-02-21 12:24:00,
2013-02-21 06:25:00,65.3,61.7,29.62,South,180,2.5,5.4,88,0.00,,---,0.00,VWS V14.01,2013-02-21 12:25:00,
2013-02-21 06:26:00,65.3,61.7,29.62,ENE,68,2.7,2.9,88,0.00,,---,0.00,VWS V14.01,2013-02-21 12:26:00,
2013-02-21 06:27:00,65.3,61.7,29.65,NW,315,2.9,2.9,88,0.00,,---,0.00,VWS V14.01,2013-02-21 12:27:00,
2013-02-21 06:28:00,65.1,61.5,29.62,East,90,2.5,4.0,88,0.00,,---,0.00,VWS V14.01,2013-02-21 12:28:00,
2013-02-21 06:29:00,65.3,62.0,29.62,ENE,68,3.1,4.0,89,0.00,,---,0.00,VWS V14.01,2013-02-21 12:29:00,
2013-02-21 06:30:00,65.1,61.8,29.62,ESE,112,2.2,3.4,89,0.00,,---,0.00,VWS V14.01,2013-02-21 12:30:00,
2013-02-21 06:31:00,65.1,61.5,29.62,SSE,158,5.6,5.6,88,0.00,,---,0.00,VWS V14.01,2013-02-21 12:31:00,
2013-02-21 06:32:00,65.5,61.8,29.65,West,270,0.0,2.0,88,0.00,,---,0.00,VWS V14.01,2013-02-21 12:32:00,
2013-02-21 06:33:00,65.1,61.8,29.65,WNW,292,2.7,2.7,89,0.00,,---,0.00,VWS V14.01,2013-02-21 12:33:00,
2013-02-21 06:35:00,65.3,62.0,29.65,NNW,338,3.6,4.0,89,0.00,,---,0.00,VWS V14.01,2013-02-21 12:35:00,
2013-02-21 06:37:00,65.3,61.7,29.68,NW,315,0.0,0.0,88,0.00,,---,0.00,VWS V14.01,2013-02-21 12:37:00,
2013-02-21 06:38:00,65.3,61.7,29.65,NW,315,2.2,2.5,88,0.00,,---,0.00,VWS V14.01,2013-02-21 12:38:00,
2013-02-21 06:40:00,65.3,62.0,29.65,NW,315,3.1,3.4,89,0.00,,---,0.00,VWS V14.01,2013-02-21 12:40:00,
2013-02-21 06:42:00,65.3,61.7,29.68,ESE,112,0.0,1.6,88,0.00,,---,0.00,VWS V14.01,2013-02-21 12:42:00,
2013-02-21 06:43:00,65.5,61.8,29.65,WNW,292,2.0,3.6,88,0.00,,---,0.00,VWS V14.01,2013-02-21 12:43:00,
2013-02-21 06:44:00,65.5,61.8,29.65,West,270,0.0,2.0,88,0.00,,---,0.00,VWS V14.01,2013-02-21 12:44:00,
2013-02-21 06:45:00,65.5,61.8,29.65,NW,315,1.6,1.6,88,0.00,,---,0.00,VWS V14.01,2013-02-21 12:45:00,
2013-02-21 06:46:00,65.5,61.8,29.68,NW,315,0.0,1.6,88,0.00,,---,0.00,VWS V14.01,2013-02-21 12:46:00,
2013-02-21 06:47:00,65.3,61.7,29.68,ESE,112,0.0,0.0,88,0.00,,---,0.00,VWS V14.01,2013-02-21 12:47:00,
2013-02-21 06:48:00,65.3,61.7,29.68,NW,315,0.0,0.0,88,0.00,,---,0.00,VWS V14.01,2013-02-21 12:48:00,
2013-02-21 06:49:00,65.3,61.7,29.68,NW,315,0.0,0.0,88,0.00,,---,0.00,VWS V14.01,2013-02-21 12:49:00,
2013-02-21 06:50:00,65.3,61.7,29.68,WNW,292,0.0,0.0,88,0.00,,---,0.00,VWS V14.01,2013-02-21 12:50:00,
2013-02-21 06:51:00,65.3,61.7,29.68,WSW,248,1.3,2.5,88,0.00,,---,0.00,VWS V14.01,2013-02-21 12:51:00,
2013-02-21 06:52:00,65.1,61.5,29.71,South,180,1.6,1.6,88,0.00,,---,0.00,VWS V14.01,2013-02-21 12:52:00,
2013-02-21 06:53:00,65.3,61.7,29.68,ESE,112,0.0,1.1,88,0.00,,---,0.00,VWS V14.01,2013-02-21 12:53:00,
2013-02-21 06:54:00,65.3,61.7,29.68,ESE,112,0.0,1.6,88,0.00,,---,0.00,VWS V14.01,2013-02-21 12:54:00,
2013-02-21 06:55:00,65.3,61.7,29.68,ESE,112,0.0,0.0,88,0.00,,---,0.00,VWS V14.01,2013-02-21 12:55:00,
2013-02-21 06:56:00,65.3,61.7,29.68,ESE,112,0.0,0.0,88,0.00,,---,0.00,VWS V14.01,2013-02-21 12:56:00,
2013-02-21 06:57:00,64.9,61.3,29.71,SSE,158,0.0,0.0,88,0.00,,---,0.00,VWS V14.01,2013-02-21 12:57:00,
2013-02-21 06:58:00,65.3,61.7,29.68,ESE,112,0.0,0.0,88,0.00,,---,0.00,VWS V14.01,2013-02-21 12:58:00,
2013-02-21 06:59:00,65.3,61.7,29.68,ESE,112,0.0,0.0,88,0.00,,---,0.00,VWS V14.01,2013-02-21 12:59:00,
2013-02-21 07:00:00,65.3,61.7,29.68,ESE,112,1.1,1.3,88,0.00,,---,0.00,VWS V14.01,2013-02-21 13:00:00,
2013-02-21 07:01:00,65.3,61.7,29.71,ESE,112,1.3,2.5,88,0.00,,---,0.00,VWS V14.01,2013-02-21 13:01:00,
2013-02-21 07:02:00,64.8,61.1,29.71,South,180,3.1,3.6,88,0.00,,---,0.00,VWS V14.01,2013-02-21 13:02:00,
2013-02-21 07:03:00,65.1,61.5,29.71,South,180,0.9,0.9,88,0.00,,---,0.00,VWS V14.01,2013-02-21 13:03:00,
2013-02-21 07:04:00,65.1,61.5,29.71,South,180,1.6,1.6,88,0.00,,---,0.00,VWS V14.01,2013-02-21 13:04:00,
2013-02-21 07:05:00,65.1,61.5,29.71,SSE,158,2.0,2.0,88,0.00,,---,0.00,VWS V14.01,2013-02-21 13:05:00,
2013-02-21 07:06:00,65.1,61.5,29.71,SSE,158,1.6,2.2,88,0.00,,---,0.00,VWS V14.01,2013-02-21 13:06:00,
2013-02-21 07:07:00,64.8,61.5,29.71,SSW,202,1.3,3.4,89,0.00,,---,0.00,VWS V14.01,2013-02-21 13:07:00,
2013-02-21 07:08:00,64.9,61.3,29.71,SSE,158,0.0,2.9,88,0.00,,---,0.00,VWS V14.01,2013-02-21 13:08:00,
2013-02-21 07:09:00,64.9,61.3,29.71,SSE,158,0.0,0.0,88,0.00,,---,0.00,VWS V14.01,2013-02-21 13:09:00,
2013-02-21 07:10:00,64.9,61.3,29.71,SSW,202,0.0,0.0,88,0.00,,---,0.00,VWS V14.01,2013-02-21 13:10:00,
2013-02-21 07:11:00,64.9,61.3,29.71,SE,135,1.3,2.0,88,0.00,,---,0.00,VWS V14.01,2013-02-21 13:11:00,
2013-02-21 07:12:00,64.6,61.3,29.71,South,180,1.6,1.6,89,0.00,,---,0.00,VWS V14.01,2013-02-21 13:12:00,
2013-02-21 07:13:00,64.8,61.1,29.71,South,180,3.1,3.8,88,0.00,,---,0.00,VWS V14.01,2013-02-21 13:13:00,
2013-02-21 07:14:00,64.8,61.1,29.71,South,180,3.1,3.6,88,0.00,,---,0.00,VWS V14.01,2013-02-21 13:14:00,
2013-02-21 07:15:00,64.8,61.1,29.71,South,180,2.7,3.1,88,0.00,,---,0.00,VWS V14.01,2013-02-21 13:15:00,
2013-02-21 07:16:00,64.8,61.1,29.71,South,180,2.0,2.7,88,0.00,,---,0.00,VWS V14.01,2013-02-21 13:16:00,
2013-02-21 07:17:00,64.4,61.1,29.71,South,180,2.5,2.7,89,0.00,,---,0.00,VWS V14.01,2013-02-21 13:17:00,
2013-02-21 07:18:00,64.8,61.5,29.71,South,180,3.4,3.6,89,0.00,,---,0.00,VWS V14.01,2013-02-21 13:18:00,
2013-02-21 07:19:00,64.8,61.5,29.71,SSW,202,1.3,3.4,89,0.00,,---,0.00,VWS V14.01,2013-02-21 13:19:00,
2013-02-21 07:20:00,64.8,61.5,29.71,South,180,0.9,1.6,89,0.00,,---,0.00,VWS V14.01,2013-02-21 13:20:00,
2013-02-21 07:21:00,64.6,61.3,29.71,South,180,1.6,2.0,89,0.00,,---,0.00,VWS V14.01,2013-02-21 13:21:00,
2013-02-21 07:22:00,64.8,61.8,29.68,NW,315,8.1,8.1,90,0.00,,---,0.00,VWS V14.01,2013-02-21 13:22:00,
2013-02-21 07:23:00,64.6,61.3,29.71,South,180,2.0,2.7,89,0.00,,---,0.00,VWS V14.01,2013-02-21 13:23:00,
2013-02-21 07:24:00,64.6,61.3,29.71,South,180,1.6,2.2,89,0.00,,---,0.00,VWS V14.01,2013-02-21 13:24:00,
2013-02-21 07:25:00,64.6,61.3,29.71,South,180,1.6,2.0,89,0.00,,---,0.00,VWS V14.01,2013-02-21 13:25:00,
2013-02-21 07:26:00,64.6,61.3,29.71,South,180,1.3,3.1,89,0.00,,---,0.00,VWS V14.01,2013-02-21 13:26:00,
2013-02-21 07:27:00,62.3,42.4,29.68,NNW,338,8.5,8.5,48,0.00,,---,0.00,VWS V14.01,2013-02-21 13:27:00,
2013-02-21 07:28:00,64.4,61.1,29.71,South,180,2.0,2.5,89,0.00,,---,0.00,VWS V14.01,2013-02-21 13:28:00,
2013-02-21 07:29:00,64.4,61.1,29.71,South,180,2.5,2.7,89,0.00,,---,0.00,VWS V14.01,2013-02-21 13:29:00,
2013-02-21 07:30:00,64.4,61.1,29.71,South,180,3.4,4.3,89,0.00,,---,0.00,VWS V14.01,2013-02-21 13:30:00,
2013-02-21 07:31:00,64.4,61.1,29.68,SSW,202,2.2,3.4,89,0.00,,---,0.00,VWS V14.01,2013-02-21 13:31:00,
2013-02-21 07:32:00,60.0,39.7,29.68,WNW,292,23.5,23.5,47,0.00,,---,0.00,VWS V14.01,2013-02-21 13:32:00,
2013-02-21 07:33:00,64.6,61.3,29.68,WNW,292,4.9,4.9,89,0.00,,---,0.00,VWS V14.01,2013-02-21 13:33:00,
2013-02-21 07:34:00,64.8,61.8,29.68,NW,315,8.1,8.1,90,0.00,,---,0.00,VWS V14.01,2013-02-21 13:34:00,
2013-02-21 07:35:00,64.8,62.1,29.68,NW,315,19.9,19.9,91,0.00,,---,0.00,VWS V14.01,2013-02-21 13:35:00,
2013-02-21 07:36:00,63.7,52.2,29.68,NW,315,12.8,26.2,66,0.00,,---,0.00,VWS V14.01,2013-02-21 13:36:00,
2013-02-21 07:37:00,59.3,39.6,29.76,West,270,13.6,13.6,48,0.00,,---,0.00,VWS V14.01,2013-02-21 13:37:00,
2013-02-21 07:38:00,62.3,42.4,29.68,WNW,292,17.7,25.1,48,0.00,,---,0.00,VWS V14.01,2013-02-21 13:38:00,
2013-02-21 07:39:00,62.3,42.4,29.68,WNW,292,6.3,22.2,48,0.00,,---,0.00,VWS V14.01,2013-02-21 13:39:00,
2013-02-21 07:40:00,62.3,42.4,29.68,WNW,292,6.3,19.0,48,0.00,,---,0.00,VWS V14.01,2013-02-21 13:40:00,
2013-02-21 07:41:00,61.2,40.8,29.68,NW,315,27.7,27.7,47,0.00,,---,0.00,VWS V14.01,2013-02-21 13:41:00,
2013-02-21 07:42:00,58.7,40.2,29.76,WNW,292,14.5,14.5,50,0.00,,---,0.00,VWS V14.01,2013-02-21 13:42:00,
2013-02-21 07:43:00,60.5,40.2,29.68,NW,315,19.5,22.8,47,0.00,,---,0.00,VWS V14.01,2013-02-21 13:43:00,
2013-02-21 07:44:00,60.0,39.7,29.68,WNW,292,23.5,28.0,47,0.00,,---,0.00,VWS V14.01,2013-02-21 13:44:00,
2013-02-21 07:45:00,59.8,40.1,29.68,NW,315,16.8,23.5,48,0.00,,---,0.00,VWS V14.01,2013-02-21 13:45:00,
2013-02-21 07:46:00,59.8,40.1,29.76,NW,315,13.0,16.8,48,0.00,,---,0.00,VWS V14.01,2013-02-21 13:46:00,
2013-02-21 07:47:00,58.6,39.5,29.76,NW,315,15.9,15.9,49,0.00,,---,0.00,VWS V14.01,2013-02-21 13:47:00,
2013-02-21 07:48:00,59.3,39.6,29.76,NW,315,8.7,26.6,48,0.00,,---,0.00,VWS V14.01,2013-02-21 13:48:00,
2013-02-21 07:49:00,59.3,39.6,29.76,NW,315,12.8,22.4,48,0.00,,---,0.00,VWS V14.01,2013-02-21 13:49:00,
2013-02-21 07:50:00,59.1,40.0,29.76,West,270,5.6,13.6,49,0.00,,---,0.00,VWS V14.01,2013-02-21 13:50:00,
2013-02-21 07:51:00,59.1,40.0,29.76,WNW,292,7.8,13.0,49,0.00,,---,0.00,VWS V14.01,2013-02-21 13:51:00,
2013-02-21 07:52:00,58.4,39.3,29.76,West,270,16.1,16.1,49,0.00,,---,0.00,VWS V14.01,2013-02-21 13:52:00,
2013-02-21 07:53:00,58.7,39.7,29.76,NW,315,17.7,17.7,49,0.00,,---,0.00,VWS V14.01,2013-02-21 13:53:00,
2013-02-21 07:54:00,58.7,40.2,29.76,WNW,292,14.5,17.7,50,0.00,,---,0.00,VWS V14.01,2013-02-21 13:54:00,
2013-02-21 07:55:00,58.7,39.7,29.76,NW,315,10.5,14.5,49,0.00,,---,0.00,VWS V14.01,2013-02-21 13:55:00,
2013-02-21 07:56:00,58.7,39.7,29.76,NNW,338,15.9,22.6,49,0.00,,---,0.00,VWS V14.01,2013-02-21 13:56:00,
2013-02-21 07:57:00,58.0,40.0,29.76,West,270,17.9,17.9,51,0.00,,---,0.00,VWS V14.01,2013-02-21 13:57:00,
2013-02-21 07:58:00,58.6,39.5,29.76,West,270,11.0,18.6,49,0.00,,---,0.00,VWS V14.01,2013-02-21 13:58:00,
2013-02-21 07:59:00,58.6,39.5,29.76,WNW,292,13.9,13.9,49,0.00,,---,0.00,VWS V14.01,2013-02-21 13:59:00,
2013-02-21 08:00:00,58.6,39.5,29.76,WNW,292,7.8,15.9,49,0.00,,---,0.00,VWS V14.01,2013-02-21 14:00:00,
2013-02-21 08:01:00,58.4,39.3,29.76,West,270,11.0,12.8,49,0.00,,---,0.00,VWS V14.01,2013-02-21 14:01:00,
2013-02-21 08:02:00,57.7,40.2,29.76,NW,315,9.8,12.5,52,0.00,,---,0.00,VWS V14.01,2013-02-21 14:02:00,
2013-02-21 08:03:00,58.4,39.3,29.76,WNW,292,13.9,17.2,49,0.00,,---,0.00,VWS V14.01,2013-02-21 14:03:00,
2013-02-21 08:04:00,58.4,39.3,29.76,NNW,338,10.7,13.9,49,0.00,,---,0.00,VWS V14.01,2013-02-21 14:04:00,
2013-02-21 08:05:00,58.2,39.7,29.76,WNW,292,10.3,16.1,50,0.00,,---,0.00,VWS V14.01,2013-02-21 14:05:00,
2013-02-21 08:06:00,58.2,39.7,29.76,West,270,14.3,14.3,50,0.00,,---,0.00,VWS V14.01,2013-02-21 14:06:00,
2013-02-21 08:07:00,57.9,40.8,29.79,West,270,13.2,13.2,53,0.00,,---,0.00,VWS V14.01,2013-02-21 14:07:00,
2013-02-21 08:08:00,58.2,39.7,29.76,North,0,14.3,14.3,50,0.00,,---,0.00,VWS V14.01,2013-02-21 14:08:00,
2013-02-21 08:09:00,58.0,40.0,29.76,NW,315,10.5,17.5,51,0.00,,---,0.00,VWS V14.01,2013-02-21 14:09:00,
2013-02-21 08:10:00,58.0,40.0,29.76,NW,315,10.7,17.9,51,0.00,,---,0.00,VWS V14.01,2013-02-21 14:10:00,
2013-02-21 08:11:00,58.0,40.0,29.76,West,270,13.2,13.2,51,0.00,,---,0.00,VWS V14.01,2013-02-21 14:11:00,
2013-02-21 08:12:00,58.6,41.0,29.79,NW,315,8.7,8.7,52,0.00,,---,0.00,VWS V14.01,2013-02-21 14:12:00,
2013-02-21 08:13:00,57.9,39.9,29.76,NW,315,7.8,14.5,51,0.00,,---,0.00,VWS V14.01,2013-02-21 14:13:00,
2013-02-21 08:14:00,57.9,39.9,29.76,NW,315,12.5,17.5,51,0.00,,---,0.00,VWS V14.01,2013-02-21 14:14:00,
2013-02-21 08:15:00,57.7,40.2,29.76,WNW,292,4.9,12.5,52,0.00,,---,0.00,VWS V14.01,2013-02-21 14:15:00,
2013-02-21 08:16:00,57.9,40.4,29.76,WNW,292,4.0,12.8,52,0.00,,---,0.00,VWS V14.01,2013-02-21 14:16:00,
2013-02-21 08:17:00,59.3,41.2,29.79,WNW,292,17.5,17.5,51,0.00,,---,0.00,VWS V14.01,2013-02-21 14:17:00,
2013-02-21 08:18:00,57.7,40.7,29.79,West,270,10.3,10.3,53,0.00,,---,0.00,VWS V14.01,2013-02-21 14:18:00,
2013-02-21 08:19:00,57.9,40.8,29.79,WNW,292,12.1,14.1,53,0.00,,---,0.00,VWS V14.01,2013-02-21 14:19:00,
2013-02-21 08:20:00,57.9,40.4,29.79,West,270,6.3,13.2,52,0.00,,---,0.00,VWS V14.01,2013-02-21 14:20:00,
2013-02-21 08:21:00,57.9,40.4,29.79,West,270,6.0,13.2,52,0.00,,---,0.00,VWS V14.01,2013-02-21 14:21:00,
2013-02-21 08:22:00,58.2,41.2,29.79,WNW,292,4.9,12.5,53,0.00,,---,0.00,VWS V14.01,2013-02-21 14:22:00,
2013-02-21 08:23:00,59.1,41.0,29.82,WNW,292,8.5,9.8,51,0.00,,---,0.00,VWS V14.01,2013-02-21 14:23:00,
2013-02-21 08:24:00,58.6,41.0,29.79,NNW,338,6.5,8.7,52,0.00,,---,0.00,VWS V14.01,2013-02-21 14:24:00,
2013-02-21 08:26:00,58.6,41.0,29.79,West,270,9.4,10.5,52,0.00,,---,0.00,VWS V14.01,2013-02-21 14:26:00,
2013-02-21 08:28:00,58.9,40.8,29.82,West,270,8.1,10.3,51,0.00,,---,0.00,VWS V14.01,2013-02-21 14:28:00,
2013-02-21 08:30:00,59.3,41.2,29.79,WNW,292,13.9,17.5,51,0.00,,---,0.00,VWS V14.01,2013-02-21 14:30:00,
2013-02-21 08:31:00,59.3,41.2,29.82,NW,315,8.5,15.9,51,0.00,,---,0.00,VWS V14.01,2013-02-21 14:31:00,
2013-02-21 08:32:00,59.3,41.2,29.82,West,270,10.5,12.8,51,0.00,,---,0.00,VWS V14.01,2013-02-21 14:32:00,
2013-02-21 08:33:00,58.2,40.2,29.82,WSW,248,5.4,6.0,51,0.00,,---,0.00,VWS V14.01,2013-02-21 14:33:00,
2013-02-21 08:35:00,59.1,41.0,29.82,NW,315,12.5,12.5,51,0.00,,---,0.00,VWS V14.01,2013-02-21 14:35:00,
2013-02-21 08:37:00,58.7,40.2,29.82,WSW,248,6.9,17.0,50,0.00,,---,0.00,VWS V14.01,2013-02-21 14:37:00,
2013-02-21 08:38:00,57.7,40.2,29.82,NW,315,2.9,4.9,52,0.00,,---,0.00,VWS V14.01,2013-02-21 14:38:00,
2013-02-21 08:39:00,58.9,40.8,29.82,WNW,292,5.4,6.5,51,0.00,,---,0.00,VWS V14.01,2013-02-21 14:39:00,
2013-02-21 08:41:00,58.7,40.7,29.82,NW,315,9.8,11.2,51,0.00,,---,0.00,VWS V14.01,2013-02-21 14:41:00,
2013-02-21 08:42:00,58.6,40.0,29.82,NW,315,7.6,14.8,50,0.00,,---,0.00,VWS V14.01,2013-02-21 14:42:00,
2013-02-21 08:43:00,58.7,40.7,29.82,WNW,292,11.0,13.4,51,0.00,,---,0.00,VWS V14.01,2013-02-21 14:43:00,
2013-02-21 08:44:00,58.2,40.2,29.82,NNW,338,6.0,12.1,51,0.00,,---,0.00,VWS V14.01,2013-02-21 14:44:00,
2013-02-21 08:45:00,58.0,40.0,29.82,WSW,248,6.0,6.0,51,0.00,,---,0.00,VWS V14.01,2013-02-21 14:45:00,
2013-02-21 08:46:00,58.0,40.0,29.82,NW,315,6.7,6.7,51,0.00,,---,0.00,VWS V14.01,2013-02-21 14:46:00,
2013-02-21 08:47:00,57.9,40.4,29.82,NW,315,3.4,7.2,52,0.00,,---,0.00,VWS V14.01,2013-02-21 14:47:00,
2013-02-21 08:48:00,59.8,40.6,29.82,WNW,292,8.1,12.1,49,0.00,,---,0.00,VWS V14.01,2013-02-21 14:48:00,
2013-02-21 08:49:00,57.7,40.2,29.82,NW,315,3.4,6.0,52,0.00,,---,0.00,VWS V14.01,2013-02-21 14:49:00,
2013-02-21 08:50:00,57.7,40.2,29.82,NW,315,6.0,8.7,52,0.00,,---,0.00,VWS V14.01,2013-02-21 14:50:00,
2013-02-21 08:51:00,57.7,40.2,29.82,WNW,292,6.7,8.7,52,0.00,,---,0.00,VWS V14.01,2013-02-21 14:51:00,
2013-02-21 08:52:00,58.2,40.7,29.82,WNW,292,5.4,9.4,52,0.00,,---,0.00,VWS V14.01,2013-02-21 14:52:00,
2013-02-21 08:53:00,60.2,39.3,29.79,NW,315,17.7,17.7,46,0.00,,---,0.00,VWS V14.01,2013-02-21 14:53:00,
2013-02-21 08:54:00,58.7,40.7,29.82,WNW,292,13.4,13.4,51,0.00,,---,0.00,VWS V14.01,2013-02-21 14:54:00,
2013-02-21 08:55:00,58.9,40.8,29.82,NW,315,6.5,13.4,51,0.00,,---,0.00,VWS V14.01,2013-02-21 14:55:00,
2013-02-21 08:56:00,59.1,40.5,29.82,NNW,338,7.6,8.1,50,0.00,,---,0.00,VWS V14.01,2013-02-21 14:56:00,
2013-02-21 08:57:00,59.3,40.7,29.82,NW,315,4.9,13.0,50,0.00,,---,0.00,VWS V14.01,2013-02-21 14:57:00,
2013-02-21 08:58:00,60.5,39.1,29.79,NW,315,14.8,14.8,45,0.00,,---,0.00,VWS V14.01,2013-02-21 14:58:00,
2013-02-21 08:59:00,59.5,40.3,29.82,WNW,292,12.1,12.3,49,0.00,,---,0.00,VWS V14.01,2013-02-21 14:59:00,
2013-02-21 09:00:00,59.8,40.1,29.82,WNW,292,15.4,15.4,48,0.00,,---,0.00,VWS V14.01,2013-02-21 15:00:00,
2013-02-21 09:01:00,59.8,40.1,29.79,West,270,17.5,17.5,48,0.00,,---,0.00,VWS V14.01,2013-02-21 15:01:00,
2013-02-21 09:02:00,60.2,39.9,29.79,NW,315,12.5,17.5,47,0.00,,---,0.00,VWS V14.01,2013-02-21 15:02:00,
2013-02-21 09:03:00,60.5,37.9,29.79,WNW,292,17.7,17.7,43,0.00,,---,0.00,VWS V14.01,2013-02-21 15:03:00,
2013-02-21 09:04:00,60.2,39.9,29.79,West,270,5.6,12.8,47,0.00,,---,0.00,VWS V14.01,2013-02-21 15:04:00,
2013-02-21 09:05:00,60.2,39.3,29.79,West,270,14.1,17.7,46,0.00,,---,0.00,VWS V14.01,2013-02-21 15:05:00,
2013-02-21 09:06:00,60.2,39.9,29.79,NW,315,13.0,22.2,47,0.00,,---,0.00,VWS V14.01,2013-02-21 15:06:00,
2013-02-21 09:07:00,60.2,38.8,29.79,East,90,19.7,19.7,45,0.00,,---,0.00,VWS V14.01,2013-02-21 15:07:00,
2013-02-21 09:08:00,60.0,38.0,29.82,West,270,4.0,8.1,44,0.00,,---,0.00,VWS V14.01,2013-02-21 15:08:00,
2013-02-21 09:09:00,60.5,39.1,29.79,West,270,4.9,7.8,45,0.00,,---,0.00,VWS V14.01,2013-02-21 15:09:00,
2013-02-21 09:10:00,60.5,39.1,29.79,WSW,248,17.5,17.5,45,0.00,,---,0.00,VWS V14.01,2013-02-21 15:10:00,
2013-02-21 09:11:00,60.3,38.3,29.79,NNW,338,17.5,17.5,44,0.00,,---,0.00,VWS V14.01,2013-02-21 15:11:00,
2013-02-21 09:12:00,60.5,37.9,29.79,WNW,292,10.1,17.7,43,0.00,,---,0.00,VWS V14.01,2013-02-21 15:12:00,
2013-02-21 09:13:00,60.5,36.7,29.82,NW,315,5.4,10.7,41,0.00,,---,0.00,VWS V14.01,2013-02-21 15:13:00,
2013-02-21 09:14:00,60.5,37.9,29.79,WNW,292,13.0,13.0,43,0.00,,---,0.00,VWS V14.01,2013-02-21 15:14:00,
2013-02-21 09:15:00,60.5,37.9,29.79,WNW,292,5.4,17.7,43,0.00,,---,0.00,VWS V14.01,2013-02-21 15:15:00,
2013-02-21 09:16:00,60.0,38.0,29.82,WNW,292,6.5,10.1,44,0.00,,---,0.00,VWS V14.01,2013-02-21 15:16:00,
2013-02-21 09:17:00,60.0,38.0,29.82,NW,315,10.1,17.2,44,0.00,,---,0.00,VWS V14.01,2013-02-21 15:17:00,
2013-02-21 09:18:00,60.2,35.8,29.82,NW,315,12.1,15.2,40,0.00,,---,0.00,VWS V14.01,2013-02-21 15:18:00,
2013-02-21 09:19:00,60.0,38.0,29.82,NW,315,8.1,19.2,44,0.00,,---,0.00,VWS V14.01,2013-02-21 15:19:00,
2013-02-21 09:20:00,60.0,38.0,29.82,WNW,292,23.3,23.3,44,0.00,,---,0.00,VWS V14.01,2013-02-21 15:20:00,
2013-02-21 09:21:00,60.3,37.8,29.82,WNW,292,8.5,23.3,43,0.00,,---,0.00,VWS V14.01,2013-02-21 15:21:00,
2013-02-21 09:22:00,60.5,37.3,29.82,NW,315,17.2,17.2,42,0.00,,---,0.00,VWS V14.01,2013-02-21 15:22:00,
2013-02-21 09:23:00,61.0,36.6,29.82,West,270,10.3,12.1,40,0.00,,---,0.00,VWS V14.01,2013-02-21 15:23:00,
2013-02-21 09:24:00,60.5,36.7,29.82,WNW,292,10.7,22.6,41,0.00,,---,0.00,VWS V14.01,2013-02-21 15:24:00,
2013-02-21 09:25:00,60.5,37.3,29.82,WNW,292,21.9,21.9,42,0.00,,---,0.00,VWS V14.01,2013-02-21 15:25:00,
2013-02-21 09:26:00,60.3,36.6,29.82,NW,315,5.6,21.9,41,0.00,,---,0.00,VWS V14.01,2013-02-21 15:26:00,
2013-02-21 09:27:00,60.2,37.0,29.82,West,270,15.4,15.4,42,0.00,,---,0.00,VWS V14.01,2013-02-21 15:27:00,
2013-02-21 09:28:00,61.8,36.6,29.82,West,270,7.4,10.1,39,0.00,,---,0.00,VWS V14.01,2013-02-21 15:28:00,
2013-02-21 09:29:00,60.3,36.6,29.82,NW,315,15.2,17.0,41,0.00,,---,0.00,VWS V14.01,2013-02-21 15:29:00,
2013-02-21 09:30:00,60.3,35.9,29.82,West,270,6.5,15.2,40,0.00,,---,0.00,VWS V14.01,2013-02-21 15:30:00,
2013-02-21 09:31:00,60.5,36.7,29.82,West,270,9.8,15.4,41,0.00,,---,0.00,VWS V14.01,2013-02-21 15:31:00,
2013-02-21 09:32:00,60.5,36.7,29.82,WNW,292,13.0,18.6,41,0.00,,---,0.00,VWS V14.01,2013-02-21 15:32:00,
2013-02-21 09:33:00,61.6,35.1,29.82,WNW,292,9.6,14.8,37,0.00,,---,0.00,VWS V14.01,2013-02-21 15:33:00,
2013-02-21 09:34:00,60.7,36.2,29.82,WNW,292,6.0,17.0,40,0.00,,---,0.00,VWS V14.01,2013-02-21 15:34:00,
2013-02-21 09:35:00,61.0,36.6,29.82,WNW,292,10.3,12.1,40,0.00,,---,0.00,VWS V14.01,2013-02-21 15:35:00,
2013-02-21 09:36:00,61.0,36.6,29.82,North,0,5.4,10.5,40,0.00,,---,0.00,VWS V14.01,2013-02-21 15:36:00,
2013-02-21 09:37:00,61.4,36.9,29.82,NNW,338,7.2,10.3,40,0.00,,---,0.00,VWS V14.01,2013-02-21 15:37:00,
2013-02-21 09:38:00,61.9,34.7,29.82,WNW,292,9.8,15.4,36,0.00,,---,0.00,VWS V14.01,2013-02-21 15:38:00,
2013-02-21 09:39:00,61.8,36.6,29.82,WNW,292,10.1,11.0,39,0.00,,---,0.00,VWS V14.01,2013-02-21 15:39:00,
2013-02-21 09:40:00,61.9,36.1,29.82,WNW,292,10.7,12.5,38,0.00,,---,0.00,VWS V14.01,2013-02-21 15:40:00,
2013-02-21 09:41:00,61.8,35.9,29.82,West,270,13.2,21.9,38,0.00,,---,0.00,VWS V14.01,2013-02-21 15:41:00,
2013-02-21 09:42:00,61.4,35.6,29.82,NNW,338,10.5,16.6,38,0.00,,---,0.00,VWS V14.01,2013-02-21 15:42:00,
2013-02-21 09:43:00,62.1,34.9,29.82,NW,315,15.2,19.5,36,0.00,,---,0.00,VWS V14.01,2013-02-21 15:43:00,
2013-02-21 09:44:00,61.4,34.9,29.82,WSW,248,14.8,14.8,37,0.00,,---,0.00,VWS V14.01,2013-02-21 15:44:00,
2013-02-21 09:45:00,61.6,35.1,29.82,West,270,13.2,14.8,37,0.00,,---,0.00,VWS V14.01,2013-02-21 15:45:00,
2013-02-21 09:46:00,61.8,35.2,29.82,NW,315,8.1,15.2,37,0.00,,---,0.00,VWS V14.01,2013-02-21 15:46:00,
2013-02-21 09:47:00,61.8,35.2,29.82,WNW,292,12.8,19.7,37,0.00,,---,0.00,VWS V14.01,2013-02-21 15:47:00,
2013-02-21 09:48:00,62.3,34.3,29.82,NW,315,15.2,23.3,35,0.00,,---,0.00,VWS V14.01,2013-02-21 15:48:00,
2013-02-21 09:49:00,61.9,34.7,29.82,NW,315,8.5,17.5,36,0.00,,---,0.00,VWS V14.01,2013-02-21 15:49:00,
2013-02-21 09:50:00,61.9,34.7,29.82,WNW,292,10.7,15.4,36,0.00,,---,0.00,VWS V14.01,2013-02-21 15:50:00,
2013-02-21 09:51:00,61.9,35.4,29.82,NW,315,7.2,17.7,37,0.00,,---,0.00,VWS V14.01,2013-02-21 15:51:00,
2013-02-21 09:52:00,62.3,35.0,29.82,NW,315,6.0,11.0,36,0.00,,---,0.00,VWS V14.01,2013-02-21 15:52:00,
2013-02-21 09:53:00,62.3,33.6,29.82,West,270,12.5,17.0,34,0.00,,---,0.00,VWS V14.01,2013-02-21 15:53:00,
2013-02-21 09:54:00,62.1,34.9,29.82,NW,315,6.7,25.3,36,0.00,,---,0.00,VWS V14.01,2013-02-21 15:54:00,
2013-02-21 09:55:00,62.1,34.2,29.82,NW,315,17.0,19.5,35,0.00,,---,0.00,VWS V14.01,2013-02-21 15:55:00,
2013-02-21 09:56:00,62.1,34.2,29.82,WNW,292,19.5,19.5,35,0.00,,---,0.00,VWS V14.01,2013-02-21 15:56:00,
2013-02-21 09:57:00,62.1,34.2,29.82,WSW,248,10.3,21.9,35,0.00,,---,0.00,VWS V14.01,2013-02-21 15:57:00,
2013-02-21 09:58:00,62.6,33.9,29.82,SW,225,14.3,14.3,34,0.00,,---,0.00,VWS V14.01,2013-02-21 15:58:00,
2013-02-21 09:59:00,62.3,34.3,29.82,West,270,8.7,19.5,35,0.00,,---,0.00,VWS V14.01,2013-02-21 15:59:00,
2013-02-21 10:00:00,62.3,34.3,29.82,West,270,15.4,23.3,35,0.00,,---,0.00,VWS V14.01,2013-02-21 16:00:00,
2013-02-21 10:01:00,62.3,33.6,29.82,NW,315,11.9,15.4,34,0.00,,---,0.00,VWS V14.01,2013-02-21 16:01:00,
2013-02-21 10:02:00,62.1,33.4,29.82,WNW,292,19.7,25.1,34,0.00,,---,0.00,VWS V14.01,2013-02-21 16:02:00,
2013-02-21 10:03:00,63.0,34.2,29.82,West,270,13.2,23.0,34,0.00,,---,0.00,VWS V14.01,2013-02-21 16:03:00,
2013-02-21 10:04:00,61.9,33.3,29.82,WSW,248,13.0,21.9,34,0.00,,---,0.00,VWS V14.01,2013-02-21 16:04:00,
2013-02-21 10:05:00,62.3,33.6,29.82,WSW,248,19.5,19.5,34,0.00,,---,0.00,VWS V14.01,2013-02-21 16:05:00,
2013-02-21 10:06:00,62.3,33.6,29.82,NW,315,14.3,19.5,34,0.00,,---,0.00,VWS V14.01,2013-02-21 16:06:00,
2013-02-21 10:07:00,62.3,33.6,29.82,NW,315,23.0,23.0,34,0.00,,---,0.00,VWS V14.01,2013-02-21 16:07:00,
2013-02-21 10:08:00,62.5,33.0,29.82,NNE,22,8.1,23.3,33,0.00,,---,0.00,VWS V14.01,2013-02-21 16:08:00,
2013-02-21 10:09:00,62.6,33.9,29.82,West,270,6.3,14.8,34,0.00,,---,0.00,VWS V14.01,2013-02-21 16:09:00,
2013-02-21 10:10:00,62.6,33.9,29.82,WSW,248,8.1,14.3,34,0.00,,---,0.00,VWS V14.01,2013-02-21 16:10:00,
2013-02-21 10:11:00,63.0,34.2,29.82,WSW,248,9.8,12.5,34,0.00,,---,0.00,VWS V14.01,2013-02-21 16:11:00,
2013-02-21 10:12:00,63.0,34.2,29.82,West,270,22.8,22.8,34,0.00,,---,0.00,VWS V14.01,2013-02-21 16:12:00,
2013-02-21 10:13:00,63.3,33.8,29.82,NW,315,11.0,12.3,33,0.00,,---,0.00,VWS V14.01,2013-02-21 16:13:00,
2013-02-21 10:14:00,63.0,34.2,29.82,WNW,292,23.0,23.0,34,0.00,,---,0.00,VWS V14.01,2013-02-21 16:14:00,
2013-02-21 10:15:00,63.0,34.2,29.82,NW,315,13.4,23.0,34,0.00,,---,0.00,VWS V14.01,2013-02-21 16:15:00,
2013-02-21 10:16:00,62.6,33.2,29.82,West,270,17.7,31.1,33,0.00,,---,0.00,VWS V14.01,2013-02-21 16:16:00,
2013-02-21 10:17:00,62.6,33.2,29.82,WNW,292,11.9,17.7,33,0.00,,---,0.00,VWS V14.01,2013-02-21 16:17:00,
2013-02-21 10:18:00,63.5,33.9,29.82,NW,315,27.7,27.7,33,0.00,,---,0.00,VWS V14.01,2013-02-21 16:18:00,
2013-02-21 10:19:00,62.8,33.3,29.82,West,270,22.4,22.4,33,0.00,,---,0.00,VWS V14.01,2013-02-21 16:19:00,
2013-02-21 10:20:00,62.5,33.0,29.82,NNE,22,8.1,23.3,33,0.00,,---,0.00,VWS V14.01,2013-02-21 16:20:00,
2013-02-21 10:21:00,62.6,33.2,29.82,West,270,10.1,26.4,33,0.00,,---,0.00,VWS V14.01,2013-02-21 16:21:00,
2013-02-21 10:22:00,62.8,33.3,29.82,WNW,292,10.1,10.7,33,0.00,,---,0.00,VWS V14.01,2013-02-21 16:22:00,
2013-02-21 10:23:00,63.5,33.2,29.82,West,270,7.8,23.3,32,0.00,,---,0.00,VWS V14.01,2013-02-21 16:23:00,
2013-02-21 10:24:00,63.2,33.6,29.82,West,270,8.1,17.5,33,0.00,,---,0.00,VWS V14.01,2013-02-21 16:24:00,
2013-02-21 10:25:00,63.3,33.8,29.82,WNW,292,10.7,12.3,33,0.00,,---,0.00,VWS V14.01,2013-02-21 16:25:00,
2013-02-21 10:26:00,63.5,33.9,29.82,North,0,8.1,11.0,33,0.00,,---,0.00,VWS V14.01,2013-02-21 16:26:00,
2013-02-21 10:27:00,63.9,34.2,29.82,West,270,6.3,8.1,33,0.00,,---,0.00,VWS V14.01,2013-02-21 16:27:00,
2013-02-21 10:28:00,63.9,32.7,29.82,WNW,292,19.9,19.9,31,0.00,,---,0.00,VWS V14.01,2013-02-21 16:28:00,
2013-02-21 10:29:00,63.7,34.1,29.82,WNW,292,12.8,14.8,33,0.00,,---,0.00,VWS V14.01,2013-02-21 16:29:00,
2013-02-21 10:30:00,63.5,33.9,29.82,WNW,292,13.0,27.7,33,0.00,,---,0.00,VWS V14.01,2013-02-21 16:30:00,
2013-02-21 10:31:00,63.7,34.1,29.82,NW,315,7.6,17.2,33,0.00,,---,0.00,VWS V14.01,2013-02-21 16:31:00,
2013-02-21 10:32:00,63.3,33.0,29.82,NW,315,17.2,22.4,32,0.00,,---,0.00,VWS V14.01,2013-02-21 16:32:00,
2013-02-21 10:33:00,64.8,33.5,29.82,WNW,292,9.2,13.2,31,0.00,,---,0.00,VWS V14.01,2013-02-21 16:33:00,
2013-02-21 10:34:00,63.3,33.0,29.82,West,270,17.0,23.3,32,0.00,,---,0.00,VWS V14.01,2013-02-21 16:34:00,
2013-02-21 10:35:00,63.5,33.2,29.82,West,270,13.2,23.3,32,0.00,,---,0.00,VWS V14.01,2013-02-21 16:35:00,
2013-02-21 10:36:00,63.5,32.4,29.82,WNW,292,12.3,21.3,31,0.00,,---,0.00,VWS V14.01,2013-02-21 16:36:00,
2013-02-21 10:37:00,63.7,32.5,29.82,NW,315,10.5,16.1,31,0.00,,---,0.00,VWS V14.01,2013-02-21 16:37:00,
2013-02-21 10:38:00,64.9,32.8,29.85,WNW,292,6.3,15.4,30,0.00,,---,0.00,VWS V14.01,2013-02-21 16:38:00,
2013-02-21 10:39:00,63.9,32.7,29.82,NW,315,13.9,23.3,31,0.00,,---,0.00,VWS V14.01,2013-02-21 16:39:00,
2013-02-21 10:40:00,63.9,32.7,29.82,NW,315,19.9,19.9,31,0.00,,---,0.00,VWS V14.01,2013-02-21 16:40:00,
2013-02-21 10:41:00,64.1,32.8,29.82,West,270,8.5,19.9,31,0.00,,---,0.00,VWS V14.01,2013-02-21 16:41:00,
2013-02-21 10:42:00,64.2,32.2,29.82,NW,315,13.0,14.5,30,0.00,,---,0.00,VWS V14.01,2013-02-21 16:42:00,
2013-02-21 10:43:00,64.6,29.9,29.85,NW,315,17.2,17.2,27,0.00,,---,0.00,VWS V14.01,2013-02-21 16:43:00,
2013-02-21 10:44:00,64.8,33.5,29.82,WNW,292,6.9,18.1,31,0.00,,---,0.00,VWS V14.01,2013-02-21 16:44:00,
2013-02-21 10:45:00,64.8,33.5,29.82,WNW,292,9.2,13.2,31,0.00,,---,0.00,VWS V14.01,2013-02-21 16:45:00,
2013-02-21 10:46:00,64.9,33.6,29.85,West,270,9.8,12.8,31,0.00,,---,0.00,VWS V14.01,2013-02-21 16:46:00,
2013-02-21 10:47:00,65.1,33.0,29.85,WNW,292,9.6,13.0,30,0.00,,---,0.00,VWS V14.01,2013-02-21 16:47:00,
2013-02-21 10:48:00,64.4,29.7,29.85,NW,315,17.5,27.1,27,0.00,,---,0.00,VWS V14.01,2013-02-21 16:48:00,
2013-02-21 10:49:00,64.9,32.0,29.85,NW,315,5.8,15.2,29,0.00,,---,0.00,VWS V14.01,2013-02-21 16:49:00,
2013-02-21 10:50:00,64.9,32.8,29.85,WNW,292,6.3,15.4,30,0.00,,---,0.00,VWS V14.01,2013-02-21 16:50:00,
2013-02-21 10:51:00,65.1,32.1,29.85,NW,315,13.0,13.0,29,0.00,,---,0.00,VWS V14.01,2013-02-21 16:51:00,
2013-02-21 10:52:00,65.1,32.1,29.85,WNW,292,23.0,23.0,29,0.00,,---,0.00,VWS V14.01,2013-02-21 16:52:00,
2013-02-21 10:53:00,64.2,28.7,29.85,NW,315,12.5,23.5,26,0.00,,---,0.00,VWS V14.01,2013-02-21 16:53:00,
2013-02-21 10:54:00,64.6,30.8,29.85,NW,315,6.0,19.7,28,0.00,,---,0.00,VWS V14.01,2013-02-21 16:54:00,
2013-02-21 10:55:00,64.6,29.9,29.85,NW,315,17.2,17.2,27,0.00,,---,0.00,VWS V14.01,2013-02-21 16:55:00,
2013-02-21 10:56:00,64.4,30.6,29.85,NW,315,7.8,23.3,28,0.00,,---,0.00,VWS V14.01,2013-02-21 16:56:00,
2013-02-21 10:57:00,64.8,30.9,29.85,NNW,338,12.3,12.5,28,0.00,,---,0.00,VWS V14.01,2013-02-21 16:57:00,
2013-02-21 10:58:00,64.6,29.0,29.85,North,0,8.5,19.9,26,0.00,,---,0.00,VWS V14.01,2013-02-21 16:58:00,
2013-02-21 10:59:00,64.6,29.9,29.85,WNW,292,27.1,27.1,27,0.00,,---,0.00,VWS V14.01,2013-02-21 16:59:00,
2013-02-21 11:00:00,64.4,29.7,29.85,NW,315,15.7,27.1,27,0.00,,---,0.00,VWS V14.01,2013-02-21 17:00:00,
2013-02-21 11:01:00,64.4,28.8,29.85,West,270,13.2,15.7,26,0.00,,---,0.00,VWS V14.01,2013-02-21 17:01:00,
2013-02-21 11:02:00,64.6,29.9,29.85,NW,315,9.0,15.4,27,0.00,,---,0.00,VWS V14.01,2013-02-21 17:02:00,
2013-02-21 11:03:00,64.4,27.9,29.85,West,270,8.5,21.9,25,0.00,,---,0.00,VWS V14.01,2013-02-21 17:03:00,
2013-02-21 11:04:00,64.4,28.8,29.85,NNW,338,19.5,24.6,26,0.00,,---,0.00,VWS V14.01,2013-02-21 17:04:00,
2013-02-21 11:05:00,64.2,28.7,29.85,NW,315,11.0,23.5,26,0.00,,---,0.00,VWS V14.01,2013-02-21 17:05:00,
2013-02-21 11:06:00,64.4,28.8,29.85,NW,315,14.8,19.9,26,0.00,,---,0.00,VWS V14.01,2013-02-21 17:06:00,
2013-02-21 11:07:00,64.1,27.5,29.85,NNW,338,13.4,27.5,25,0.00,,---,0.00,VWS V14.01,2013-02-21 17:07:00,
2013-02-21 11:08:00,65.5,27.8,29.85,West,270,19.9,23.7,24,0.00,,---,0.00,VWS V14.01,2013-02-21 17:08:00,
2013-02-21 11:09:00,64.2,28.7,29.85,NW,315,8.1,14.8,26,0.00,,---,0.00,VWS V14.01,2013-02-21 17:09:00,
2013-02-21 11:10:00,64.6,29.0,29.85,NW,315,14.1,19.9,26,0.00,,---,0.00,VWS V14.01,2013-02-21 17:10:00,
2013-02-21 11:11:00,64.6,28.0,29.85,NNW,338,16.8,16.8,25,0.00,,---,0.00,VWS V14.01,2013-02-21 17:11:00,
2013-02-21 11:12:00,64.6,28.0,29.85,WSW,248,13.2,17.7,25,0.00,,---,0.00,VWS V14.01,2013-02-21 17:12:00,
2013-02-21 11:13:00,65.8,27.0,29.85,West,270,10.5,10.5,23,0.00,,---,0.00,VWS V14.01,2013-02-21 17:13:00,
2013-02-21 11:14:00,64.8,28.2,29.85,WNW,292,21.9,21.9,25,0.00,,---,0.00,VWS V14.01,2013-02-21 17:14:00,
2013-02-21 11:15:00,64.4,27.9,29.85,West,270,8.5,21.9,25,0.00,,---,0.00,VWS V14.01,2013-02-21 17:15:00,
2013-02-21 11:16:00,64.9,28.3,29.85,West,270,10.7,15.2,25,0.00,,---,0.00,VWS V14.01,2013-02-21 17:16:00,
2013-02-21 11:17:00,65.3,28.6,29.85,WSW,248,9.4,13.9,25,0.00,,---,0.00,VWS V14.01,2013-02-21 17:17:00,
2013-02-21 11:18:00,66.4,29.5,29.85,West,270,16.1,16.1,25,0.00,,---,0.00,VWS V14.01,2013-02-21 17:18:00,
2013-02-21 11:19:00,65.1,27.5,29.85,NW,315,23.7,23.7,24,0.00,,---,0.00,VWS V14.01,2013-02-21 17:19:00,
2013-02-21 11:20:00,65.5,27.8,29.85,West,270,19.9,23.7,24,0.00,,---,0.00,VWS V14.01,2013-02-21 17:20:00,
2013-02-21 11:21:00,65.3,28.6,29.85,WNW,292,10.5,19.9,25,0.00,,---,0.00,VWS V14.01,2013-02-21 17:21:00,
2013-02-21 11:22:00,65.3,28.6,29.85,NW,315,6.5,10.5,25,0.00,,---,0.00,VWS V14.01,2013-02-21 17:22:00,
2013-02-21 11:23:00,66.4,27.5,29.82,NW,315,17.7,17.7,23,0.00,,---,0.00,VWS V14.01,2013-02-21 17:23:00,
2013-02-21 11:24:00,65.8,28.1,29.85,WSW,248,12.8,17.7,24,0.00,,---,0.00,VWS V14.01,2013-02-21 17:24:00,
2013-02-21 11:25:00,65.8,27.0,29.85,West,270,10.5,15.7,23,0.00,,---,0.00,VWS V14.01,2013-02-21 17:25:00,
2013-02-21 11:26:00,65.7,26.9,29.85,West,270,10.1,15.2,23,0.00,,---,0.00,VWS V14.01,2013-02-21 17:26:00,
2013-02-21 11:27:00,65.8,27.0,29.85,WNW,292,10.3,13.0,23,0.00,,---,0.00,VWS V14.01,2013-02-21 17:27:00,
2013-02-21 11:28:00,67.4,28.4,29.82,West,270,11.0,11.0,23,0.00,,---,0.00,VWS V14.01,2013-02-21 17:28:00,
2013-02-21 11:29:00,66.0,28.2,29.85,NW,315,8.5,13.0,24,0.00,,---,0.00,VWS V14.01,2013-02-21 17:29:00,
2013-02-21 11:30:00,66.4,29.5,29.85,West,270,13.9,13.9,25,0.00,,---,0.00,VWS V14.01,2013-02-21 17:30:00,
2013-02-21 11:31:00,66.2,27.3,29.82,WNW,292,14.8,17.7,23,0.00,,---,0.00,VWS V14.01,2013-02-21 17:31:00,
2013-02-21 11:32:00,66.2,27.3,29.82,WNW,292,12.5,15.9,23,0.00,,---,0.00,VWS V14.01,2013-02-21 17:32:00,
2013-02-21 11:33:00,67.2,28.2,29.82,West,270,5.4,5.4,23,0.00,,---,0.00,VWS V14.01,2013-02-21 17:33:00,
2013-02-21 11:34:00,66.4,27.5,29.82,WSW,248,7.6,12.3,23,0.00,,---,0.00,VWS V14.01,2013-02-21 17:34:00,
2013-02-21 11:35:00,66.4,27.5,29.82,NW,315,17.7,17.7,23,0.00,,---,0.00,VWS V14.01,2013-02-21 17:35:00,
2013-02-21 11:36:00,66.4,27.5,29.82,NW,315,10.1,17.7,23,0.00,,---,0.00,VWS V14.01,2013-02-21 17:36:00,
2013-02-21 11:37:00,66.4,27.5,29.82,West,270,8.5,12.3,23,0.00,,---,0.00,VWS V14.01,2013-02-21 17:37:00,
2013-02-21 11:38:00,66.5,20.4,29.82,WSW,248,15.9,15.9,17,0.00,,---,0.00,VWS V14.01,2013-02-21 17:38:00,
2013-02-21 11:39:00,67.1,29.1,29.82,SW,225,3.4,10.5,24,0.00,,---,0.00,VWS V14.01,2013-02-21 17:39:00,
2013-02-21 11:40:00,67.4,28.4,29.82,WSW,248,8.1,8.1,23,0.00,,---,0.00,VWS V14.01,2013-02-21 17:40:00,
2013-02-21 11:41:00,67.4,28.4,29.82,WNW,292,8.7,11.0,23,0.00,,---,0.00,VWS V14.01,2013-02-21 17:41:00,
2013-02-21 11:42:00,67.4,28.4,29.82,WNW,292,13.2,13.2,23,0.00,,---,0.00,VWS V14.01,2013-02-21 17:42:00,
2013-02-21 11:43:00,67.1,28.1,29.82,West,270,9.0,9.0,23,0.00,,---,0.00,VWS V14.01,2013-02-21 17:43:00,
2013-02-21 11:44:00,67.2,28.2,29.82,NNW,338,6.3,12.5,23,0.00,,---,0.00,VWS V14.01,2013-02-21 17:44:00,
2013-02-21 11:45:00,67.2,28.2,29.82,West,270,5.4,14.8,23,0.00,,---,0.00,VWS V14.01,2013-02-21 17:45:00,
2013-02-21 11:46:00,67.1,28.1,29.82,NW,315,15.4,15.4,23,0.00,,---,0.00,VWS V14.01,2013-02-21 17:46:00,
2013-02-21 11:47:00,66.4,26.4,29.82,NW,315,14.3,23.5,22,0.00,,---,0.00,VWS V14.01,2013-02-21 17:47:00,
2013-02-21 11:48:00,67.4,23.8,29.82,WNW,292,5.4,6.0,19,0.00,,---,0.00,VWS V14.01,2013-02-21 17:48:00,
2013-02-21 11:49:00,66.7,26.7,29.82,West,270,7.6,14.8,22,0.00,,---,0.00,VWS V14.01,2013-02-21 17:49:00,
2013-02-21 11:50:00,66.5,20.4,29.82,WSW,248,15.9,17.5,17,0.00,,---,0.00,VWS V14.01,2013-02-21 17:50:00,
2013-02-21 11:51:00,66.7,24.4,29.82,WSW,248,10.7,15.9,20,0.00,,---,0.00,VWS V14.01,2013-02-21 17:51:00,
2013-02-21 11:52:00,66.7,26.7,29.82,NW,315,12.5,13.2,22,0.00,,---,0.00,VWS V14.01,2013-02-21 17:52:00,
2013-02-21 11:53:00,67.4,21.1,29.82,NNW,338,10.5,10.5,17,0.00,,---,0.00,VWS V14.01,2013-02-21 17:53:00,
2013-02-21 11:54:00,66.7,24.4,29.82,West,270,13.9,16.1,20,0.00,,---,0.00,VWS V14.01,2013-02-21 17:54:00,
2013-02-21 11:55:00,67.1,28.1,29.82,NNW,338,3.1,13.9,23,0.00,,---,0.00,VWS V14.01,2013-02-21 17:55:00,
2013-02-21 11:56:00,67.1,28.1,29.82,WSW,248,5.6,12.8,23,0.00,,---,0.00,VWS V14.01,2013-02-21 17:56:00,
2013-02-21 11:57:00,67.4,27.3,29.82,West,270,8.7,8.7,22,0.00,,---,0.00,VWS V14.01,2013-02-21 17:57:00,
2013-02-21 11:58:00,68.3,28.0,29.82,WNW,292,7.6,7.6,22,0.00,,---,0.00,VWS V14.01,2013-02-21 17:58:00,
2013-02-21 11:59:00,67.2,23.6,29.82,WNW,292,12.5,14.5,19,0.00,,---,0.00,VWS V14.01,2013-02-21 17:59:00,
2013-02-21 12:00:00,67.2,21.0,29.82,WSW,248,6.0,12.5,17,0.00,,---,0.00,VWS V14.01,2013-02-21 18:00:00,
2013-02-21 12:01:00,67.4,23.8,29.82,NW,315,12.3,19.7,19,0.00,,---,0.00,VWS V14.01,2013-02-21 18:01:00,
2013-02-21 12:02:00,67.6,27.4,29.82,West,270,8.1,12.3,22,0.00,,---,0.00,VWS V14.01,2013-02-21 18:02:00,
2013-02-21 12:03:00,68.1,17.2,29.82,WSW,248,13.2,16.8,14,0.00,,---,0.00,VWS V14.01,2013-02-21 18:03:00,
2013-02-21 12:04:00,67.4,23.8,29.82,WSW,248,9.6,13.0,19,0.00,,---,0.00,VWS V14.01,2013-02-21 18:04:00,
2013-02-21 12:05:00,67.4,21.1,29.82,NW,315,6.5,11.0,17,0.00,,---,0.00,VWS V14.01,2013-02-21 18:05:00,
2013-02-21 12:06:00,67.4,21.1,29.82,West,270,9.2,16.6,17,0.00,,---,0.00,VWS V14.01,2013-02-21 18:06:00,
2013-02-21 12:07:00,67.6,27.4,29.82,West,270,9.4,10.3,22,0.00,,---,0.00,VWS V14.01,2013-02-21 18:07:00,
2013-02-21 12:08:00,68.3,21.9,29.82,WNW,292,13.2,13.2,17,0.00,,---,0.00,VWS V14.01,2013-02-21 18:08:00,
2013-02-21 12:09:00,68.1,27.9,29.82,WNW,292,6.3,12.3,22,0.00,,---,0.00,VWS V14.01,2013-02-21 18:09:00,
2013-02-21 12:10:00,68.3,28.0,29.82,WNW,292,7.6,8.5,22,0.00,,---,0.00,VWS V14.01,2013-02-21 18:10:00,
2013-02-21 12:11:00,68.5,28.2,29.82,WNW,292,10.3,10.3,22,0.00,,---,0.00,VWS V14.01,2013-02-21 18:11:00,
2013-02-21 12:12:00,68.7,28.3,29.82,WNW,292,7.2,10.3,22,0.00,,---,0.00,VWS V14.01,2013-02-21 18:12:00,
2013-02-21 12:13:00,68.5,17.5,29.82,SW,225,3.6,7.2,14,0.00,,---,0.00,VWS V14.01,2013-02-21 18:13:00,
2013-02-21 12:14:00,68.3,24.5,29.82,West,270,7.6,11.9,19,0.00,,---,0.00,VWS V14.01,2013-02-21 18:14:00,
2013-02-21 12:15:00,68.3,24.5,29.82,West,270,16.8,16.8,19,0.00,,---,0.00,VWS V14.01,2013-02-21 18:15:00,
2013-02-21 12:16:00,68.1,17.2,29.82,WSW,248,10.3,16.8,14,0.00,,---,0.00,VWS V14.01,2013-02-21 18:16:00,
2013-02-21 12:17:00,68.1,7.2,29.82,West,270,6.5,10.3,9,0.00,,---,0.00,VWS V14.01,2013-02-21 18:17:00,
2013-02-21 12:18:00,68.7,-9.5,29.82,NW,315,10.5,10.7,4,0.00,,---,0.00,VWS V14.01,2013-02-21 18:18:00,
2013-02-21 12:19:00,67.8,1.5,29.82,NNW,338,8.1,14.5,7,0.00,,---,0.00,VWS V14.01,2013-02-21 18:19:00,
2013-02-21 12:20:00,68.3,21.9,29.82,WNW,292,13.2,13.2,17,0.00,,---,0.00,VWS V14.01,2013-02-21 18:20:00,
2013-02-21 12:21:00,68.3,21.9,29.82,WNW,292,11.2,13.2,17,0.00,,---,0.00,VWS V14.01,2013-02-21 18:21:00,
2013-02-21 12:22:00,68.3,21.9,29.82,West,270,8.7,12.3,17,0.00,,---,0.00,VWS V14.01,2013-02-21 18:22:00,
2013-02-21 12:23:00,68.0,-10.0,29.82,West,270,8.1,8.1,4,0.00,,---,0.00,VWS V14.01,2013-02-21 18:23:00,
2013-02-21 12:24:00,68.1,1.7,29.82,SW,225,7.8,17.0,7,0.00,,---,0.00,VWS V14.01,2013-02-21 18:24:00,
2013-02-21 12:25:00,68.5,17.5,29.82,SSW,202,7.2,7.8,14,0.00,,---,0.00,VWS V14.01,2013-02-21 18:25:00,
2013-02-21 12:26:00,68.3,1.9,29.82,WSW,248,6.3,19.7,7,0.00,,---,0.00,VWS V14.01,2013-02-21 18:26:00,
2013-02-21 12:27:00,68.1,-9.9,29.82,NNW,338,5.6,13.6,4,0.00,,---,0.00,VWS V14.01,2013-02-21 18:27:00,
2013-02-21 12:28:00,68.3,1.9,29.82,WNW,292,25.1,25.1,7,0.00,,---,0.00,VWS V14.01,2013-02-21 18:28:00,
2013-02-21 12:29:00,68.8,17.7,29.82,West,270,10.1,10.1,14,0.00,,---,0.00,VWS V14.01,2013-02-21 18:29:00,
2013-02-21 12:30:00,68.7,-9.5,29.82,West,270,10.7,10.7,4,0.00,,---,0.00,VWS V14.01,2013-02-21 18:30:00,
2013-02-21 12:31:00,68.7,-9.5,29.82,WNW,292,8.7,17.0,4,0.00,,---,0.00,VWS V14.01,2013-02-21 18:31:00,
2013-02-21 12:32:00,68.1,-15.6,29.82,West,270,13.2,15.4,3,0.00,,---,0.00,VWS V14.01,2013-02-21 18:32:00,
2013-02-21 12:33:00,69.0,7.9,29.82,West,270,3.4,4.3,9,0.00,,---,0.00,VWS V14.01,2013-02-21 18:33:00,
2013-02-21 12:34:00,68.0,1.6,29.82,WNW,292,15.4,15.4,7,0.00,,---,0.00,VWS V14.01,2013-02-21 18:34:00,
2013-02-21 12:35:00,68.0,-10.0,29.82,WNW,292,6.3,15.4,4,0.00,,---,0.00,VWS V14.01,2013-02-21 18:35:00,
2013-02-21 12:36:00,68.1,-9.9,29.82,WNW,292,6.0,8.1,4,0.00,,---,0.00,VWS V14.01,2013-02-21 18:36:00,
2013-02-21 12:37:00,68.1,1.7,29.82,WNW,292,13.9,13.9,7,0.00,,---,0.00,VWS V14.01,2013-02-21 18:37:00,
2013-02-21 12:38:00,68.1,-9.9,29.82,West,270,17.9,19.7,4,0.00,,---,0.00,VWS V14.01,2013-02-21 18:38:00,
2013-02-21 12:39:00,69.4,-0.6,29.82,WSW,248,12.8,12.8,6,0.00,,---,0.00,VWS V14.01,2013-02-21 18:39:00,
2013-02-21 12:40:00,68.3,1.9,29.82,NW,315,5.4,15.7,7,0.00,,---,0.00,VWS V14.01,2013-02-21 18:40:00,
2013-02-21 12:41:00,68.1,-9.9,29.82,WNW,292,12.3,25.1,4,0.00,,---,0.00,VWS V14.01,2013-02-21 18:41:00,
2013-02-21 12:42:00,68.3,1.9,29.82,WNW,292,8.7,12.3,7,0.00,,---,0.00,VWS V14.01,2013-02-21 18:42:00,
2013-02-21 12:43:00,68.5,-9.7,29.82,WSW,248,6.3,8.7,4,0.00,,---,0.00,VWS V14.01,2013-02-21 18:43:00,
2013-02-21 12:44:00,69.9,-0.2,29.82,NW,315,7.8,11.0,6,0.00,,---,0.00,VWS V14.01,2013-02-21 18:44:00,
2013-02-21 12:45:00,68.8,2.3,29.82,WNW,292,4.3,11.0,7,0.00,,---,0.00,VWS V14.01,2013-02-21 18:45:00,
2013-02-21 12:46:00,69.0,7.9,29.82,West,270,20.1,20.1,9,0.00,,---,0.00,VWS V14.01,2013-02-21 18:46:00,
2013-02-21 12:47:00,69.2,-0.8,29.82,WNW,292,4.9,20.1,6,0.00,,---,0.00,VWS V14.01,2013-02-21 18:47:00,
2013-02-21 12:48:00,69.0,7.9,29.82,NE,45,7.4,11.0,9,0.00,,---,0.00,VWS V14.01,2013-02-21 18:48:00,
2013-02-21 12:49:00,68.7,-15.3,29.82,WNW,292,16.1,20.6,3,0.00,,---,0.00,VWS V14.01,2013-02-21 18:49:00,
2013-02-21 12:50:00,69.4,-0.6,29.82,WSW,248,5.6,13.9,6,0.00,,---,0.00,VWS V14.01,2013-02-21 18:50:00,
2013-02-21 12:51:00,69.4,-9.1,29.82,WNW,292,10.3,12.8,4,0.00,,---,0.00,VWS V14.01,2013-02-21 18:51:00,
2013-02-21 12:52:00,69.4,-9.1,29.82,WNW,292,7.8,17.0,4,0.00,,---,0.00,VWS V14.01,2013-02-21 18:52:00,
2013-02-21 12:53:00,69.4,-9.1,29.82,SW,225,5.8,8.7,4,0.00,,---,0.00,VWS V14.01,2013-02-21 18:53:00,
2013-02-21 12:54:00,70.1,-0.1,29.82,East,90,5.6,8.5,6,0.00,,---,0.00,VWS V14.01,2013-02-21 18:54:00,
2013-02-21 12:55:00,69.9,-0.2,29.82,WSW,248,6.0,6.0,6,0.00,,---,0.00,VWS V14.01,2013-02-21 18:55:00,
2013-02-21 12:56:00,69.9,-14.4,29.82,WNW,292,11.9,11.9,3,0.00,,---,0.00,VWS V14.01,2013-02-21 18:56:00,
2013-02-21 12:57:00,70.1,-0.1,29.82,West,270,2.0,11.9,6,0.00,,---,0.00,VWS V14.01,2013-02-21 18:57:00,
2013-02-21 12:58:00,69.6,-14.7,29.82,West,270,10.7,15.7,3,0.00,,---,0.00,VWS V14.01,2013-02-21 18:58:00,
2013-02-21 12:59:00,69.4,-14.8,29.82,SW,225,2.7,7.4,3,0.00,,---,0.00,VWS V14.01,2013-02-21 18:59:00,
2013-02-21 13:00:00,69.2,-14.9,29.82,West,270,20.6,20.6,3,0.00,,---,0.00,VWS V14.01,2013-02-21 19:00:00,
2013-02-21 13:01:00,68.7,-15.3,29.82,NW,315,7.8,20.6,3,0.00,,---,0.00,VWS V14.01,2013-02-21 19:01:00,
2013-02-21 13:02:00,69.2,-0.8,29.82,NW,315,6.3,12.1,6,0.00,,---,0.00,VWS V14.01,2013-02-21 19:02:00,
2013-02-21 13:03:00,69.6,-0.5,29.82,West,270,4.3,8.7,6,0.00,,---,0.00,VWS V14.01,2013-02-21 19:03:00,
2013-02-21 13:04:00,70.6,-14.0,29.82,WSW,248,4.9,12.8,3,0.00,,---,0.00,VWS V14.01,2013-02-21 19:04:00,
2013-02-21 13:05:00,70.1,-0.1,29.82,NNW,338,8.5,8.5,6,0.00,,---,0.00,VWS V14.01,2013-02-21 19:05:00,
2013-02-21 13:06:00,70.3,13.3,29.82,WSW,248,11.9,11.9,11,0.00,,---,0.00,VWS V14.01,2013-02-21 19:06:00,
2013-02-21 13:07:00,70.1,-14.3,29.82,WSW,248,4.9,12.5,3,0.00,,---,0.00,VWS V14.01,2013-02-21 19:07:00,
2013-02-21 13:08:00,70.1,-14.3,29.82,SW,225,10.1,13.0,3,0.00,,---,0.00,VWS V14.01,2013-02-21 19:08:00,
2013-02-21 13:09:00,71.2,-21.5,29.79,WNW,292,3.8,7.4,2,0.00,,---,0.00,VWS V14.01,2013-02-21 19:09:00,
2013-02-21 13:10:00,69.4,-14.8,29.82,WNW,292,7.4,17.7,3,0.00,,---,0.00,VWS V14.01,2013-02-21 19:10:00,
2013-02-21 13:11:00,70.3,8.8,29.82,SW,225,2.5,7.4,9,0.00,,---,0.00,VWS V14.01,2013-02-21 19:11:00,
2013-02-21 13:12:00,70.3,8.8,29.82,NW,315,6.0,8.1,9,0.00,,---,0.00,VWS V14.01,2013-02-21 19:12:00,
2013-02-21 13:13:00,70.3,-14.2,29.82,WSW,248,7.8,13.2,3,0.00,,---,0.00,VWS V14.01,2013-02-21 19:13:00,
2013-02-21 13:14:00,70.6,-14.0,29.79,WNW,292,7.8,10.1,3,0.00,,---,0.00,VWS V14.01,2013-02-21 19:14:00,
2013-02-21 13:15:00,70.6,-14.0,29.82,West,270,12.8,13.4,3,0.00,,---,0.00,VWS V14.01,2013-02-21 19:15:00,
2013-02-21 13:16:00,70.6,-14.0,29.82,West,270,11.0,12.8,3,0.00,,---,0.00,VWS V14.01,2013-02-21 19:16:00,
2013-02-21 13:17:00,70.6,-14.0,29.79,WNW,292,6.0,11.0,3,0.00,,---,0.00,VWS V14.01,2013-02-21 19:17:00,
2013-02-21 13:18:00,70.8,-21.7,29.79,WSW,248,7.4,12.1,2,0.00,,---,0.00,VWS V14.01,2013-02-21 19:18:00,
2013-02-21 13:19:00,71.0,-21.6,29.79,WNW,292,7.6,10.7,2,0.00,,---,0.00,VWS V14.01,2013-02-21 19:19:00,
2013-02-21 13:20:00,71.2,0.6,29.79,NW,315,6.0,9.8,6,0.00,,---,0.00,VWS V14.01,2013-02-21 19:20:00,
2013-02-21 13:21:00,71.2,-21.5,29.79,West,270,10.3,10.7,2,0.00,,---,0.00,VWS V14.01,2013-02-21 19:21:00,
2013-02-21 13:22:00,71.3,-21.4,29.79,West,270,9.8,14.3,2,0.00,,---,0.00,VWS V14.01,2013-02-21 19:22:00,
2013-02-21 13:23:00,71.0,-21.6,29.79,NNW,338,14.1,14.1,2,0.00,,---,0.00,VWS V14.01,2013-02-21 19:23:00,
2013-02-21 13:24:00,71.3,-21.4,29.79,West,270,6.3,12.5,2,0.00,,---,0.00,VWS V14.01,2013-02-21 19:24:00,
2013-02-21 13:25:00,70.6,-14.0,29.79,WNW,292,8.5,12.8,3,0.00,,---,0.00,VWS V14.01,2013-02-21 19:25:00,
2013-02-21 13:26:00,70.4,-14.1,29.79,West,270,6.3,10.1,3,0.00,,---,0.00,VWS V14.01,2013-02-21 19:26:00,
2013-02-21 13:27:00,70.8,-21.7,29.79,West,270,4.0,6.3,2,0.00,,---,0.00,VWS V14.01,2013-02-21 19:27:00,
2013-02-21 13:28:00,71.0,-21.6,29.79,West,270,6.5,13.0,2,0.00,,---,0.00,VWS V14.01,2013-02-21 19:28:00,
2013-02-21 13:29:00,71.0,-21.6,29.79,West,270,5.6,9.6,2,0.00,,---,0.00,VWS V14.01,2013-02-21 19:29:00,
2013-02-21 13:30:00,71.0,-21.6,29.79,West,270,8.1,9.4,2,0.00,,---,0.00,VWS V14.01,2013-02-21 19:30:00,
2013-02-21 13:31:00,71.0,-21.6,29.79,WSW,248,7.8,10.7,2,0.00,,---,0.00,VWS V14.01,2013-02-21 19:31:00,
2013-02-21 13:32:00,71.2,-21.5,29.79,SW,225,5.4,9.8,2,0.00,,---,0.00,VWS V14.01,2013-02-21 19:32:00,
2013-02-21 13:33:00,71.2,-21.5,29.79,SSW,202,17.0,17.0,2,0.00,,---,0.00,VWS V14.01,2013-02-21 19:33:00,
2013-02-21 13:34:00,71.5,-21.3,29.79,WSW,248,7.4,10.3,2,0.00,,---,0.00,VWS V14.01,2013-02-21 19:34:00,
2013-02-21 13:35:00,71.3,-21.4,29.79,WNW,292,3.8,12.1,2,0.00,,---,0.00,VWS V14.01,2013-02-21 19:35:00,
2013-02-21 13:36:00,71.3,-21.4,29.79,West,270,14.5,14.5,2,0.00,,---,0.00,VWS V14.01,2013-02-21 19:36:00,
2013-02-21 13:37:00,71.2,-21.5,29.79,WSW,248,6.3,14.5,2,0.00,,---,0.00,VWS V14.01,2013-02-21 19:37:00,
2013-02-21 13:38:00,71.3,-21.4,29.79,NNW,338,7.8,8.5,2,0.00,,---,0.00,VWS V14.01,2013-02-21 19:38:00,
2013-02-21 13:39:00,71.3,-21.4,29.76,South,180,8.7,14.8,2,0.00,,---,0.00,VWS V14.01,2013-02-21 19:39:00,
2013-02-21 13:40:00,70.6,-14.0,29.79,West,270,8.5,22.4,3,0.00,,---,0.00,VWS V14.01,2013-02-21 19:40:00,
2013-02-21 13:41:00,71.2,-21.5,29.79,NNW,338,9.8,9.8,2,0.00,,---,0.00,VWS V14.01,2013-02-21 19:41:00,
2013-02-21 13:42:00,71.3,-21.4,29.79,SW,225,7.6,11.4,2,0.00,,---,0.00,VWS V14.01,2013-02-21 19:42:00,
2013-02-21 13:43:00,71.5,-21.3,29.79,WSW,248,10.1,10.1,2,0.00,,---,0.00,VWS V14.01,2013-02-21 19:43:00,
2013-02-21 13:44:00,72.0,-20.9,29.76,West,270,4.0,4.0,2,0.00,,---,0.00,VWS V14.01,2013-02-21 19:44:00,
2013-02-21 13:45:00,71.5,-21.3,29.79,WNW,292,4.9,11.9,2,0.00,,---,0.00,VWS V14.01,2013-02-21 19:45:00,
2013-02-21 13:46:00,71.5,-21.3,29.79,WSW,248,7.4,10.3,2,0.00,,---,0.00,VWS V14.01,2013-02-21 19:46:00,
2013-02-21 13:47:00,71.5,-21.3,29.76,SW,225,6.5,12.1,2,0.00,,---,0.00,VWS V14.01,2013-02-21 19:47:00,
2013-02-21 13:48:00,71.5,-21.3,29.76,SW,225,7.8,8.5,2,0.00,,---,0.00,VWS V14.01,2013-02-21 19:48:00,
2013-02-21 13:49:00,72.2,-20.8,29.76,WSW,248,7.8,8.7,2,0.00,,---,0.00,VWS V14.01,2013-02-21 19:49:00,
2013-02-21 13:50:00,71.3,-21.4,29.76,West,270,14.8,14.8,2,0.00,,---,0.00,VWS V14.01,2013-02-21 19:50:00,
2013-02-21 13:51:00,71.3,-21.4,29.76,South,180,8.7,14.8,2,0.00,,---,0.00,VWS V14.01,2013-02-21 19:51:00,
2013-02-21 13:52:00,71.3,-21.4,29.76,West,270,4.0,10.1,2,0.00,,---,0.00,VWS V14.01,2013-02-21 19:52:00,
2013-02-21 13:53:00,71.7,-21.1,29.76,West,270,8.5,9.6,2,0.00,,---,0.00,VWS V14.01,2013-02-21 19:53:00,
2013-02-21 13:54:00,72.4,-20.7,29.74,WSW,248,6.3,10.3,2,0.00,,---,0.00,VWS V14.01,2013-02-21 19:54:00,
2013-02-21 13:55:00,71.9,-21.0,29.76,WSW,248,2.5,8.7,2,0.00,,---,0.00,VWS V14.01,2013-02-21 19:55:00,
2013-02-21 13:56:00,72.2,-20.8,29.76,WSW,248,7.8,7.8,2,0.00,,---,0.00,VWS V14.01,2013-02-21 19:56:00,
2013-02-21 13:57:00,72.4,-20.7,29.76,WSW,248,3.6,7.8,2,0.00,,---,0.00,VWS V14.01,2013-02-21 19:57:00,
2013-02-21 13:58:00,72.4,-20.7,29.76,WNW,292,4.3,6.0,2,0.00,,---,0.00,VWS V14.01,2013-02-21 19:58:00,
2013-02-21 13:59:00,72.8,-20.5,29.74,WNW,292,8.1,12.5,2,0.00,,---,0.00,VWS V14.01,2013-02-21 19:59:00,
2013-02-21 14:00:00,72.0,-20.9,29.76,West,270,8.1,13.0,2,0.00,,---,0.00,VWS V14.01,2013-02-21 20:00:00,
2013-02-21 14:01:00,72.2,-20.8,29.76,WSW,248,7.8,8.7,2,0.00,,---,0.00,VWS V14.01,2013-02-21 20:01:00,
2013-02-21 14:02:00,72.2,-20.8,29.74,NW,315,5.8,10.7,2,0.00,,---,0.00,VWS V14.01,2013-02-21 20:02:00,
2013-02-21 14:03:00,72.2,-20.8,29.74,West,270,7.8,10.1,2,0.00,,---,0.00,VWS V14.01,2013-02-21 20:03:00,
2013-02-21 14:04:00,71.9,-21.0,29.74,WSW,248,10.7,12.5,2,0.00,,---,0.00,VWS V14.01,2013-02-21 20:04:00,
2013-02-21 14:05:00,72.0,-20.9,29.74,WSW,248,8.5,10.7,2,0.00,,---,0.00,VWS V14.01,2013-02-21 20:05:00,
2013-02-21 14:06:00,72.4,-20.7,29.74,WSW,248,6.3,10.3,2,0.00,,---,0.00,VWS V14.01,2013-02-21 20:06:00,
2013-02-21 14:07:00,72.4,-20.7,29.74,West,270,10.3,10.3,2,0.00,,---,0.00,VWS V14.01,2013-02-21 20:07:00,
2013-02-21 14:08:00,72.4,-20.7,29.74,West,270,6.5,12.5,2,0.00,,---,0.00,VWS V14.01,2013-02-21 20:08:00,
2013-02-21 14:09:00,72.6,-20.6,29.76,WSW,248,3.6,12.1,2,0.00,,---,0.00,VWS V14.01,2013-02-21 20:09:00,
2013-02-21 14:10:00,72.6,-20.6,29.74,West,270,6.5,6.5,2,0.00,,---,0.00,VWS V14.01,2013-02-21 20:10:00,
2013-02-21 14:11:00,72.8,-20.5,29.74,WNW,292,8.1,12.5,2,0.00,,---,0.00,VWS V14.01,2013-02-21 20:11:00,
2013-02-21 14:12:00,72.6,-20.6,29.74,NW,315,6.3,14.8,2,0.00,,---,0.00,VWS V14.01,2013-02-21 20:12:00,
2013-02-21 14:13:00,72.4,-20.7,29.74,West,270,9.8,15.2,2,0.00,,---,0.00,VWS V14.01,2013-02-21 20:13:00,
2013-02-21 14:14:00,72.4,-20.7,29.76,NW,315,15.2,22.8,2,0.00,,---,0.00,VWS V14.01,2013-02-21 20:14:00,
2013-02-21 14:15:00,72.0,-20.9,29.74,WNW,292,8.7,12.5,2,0.00,,---,0.00,VWS V14.01,2013-02-21 20:15:00,
2013-02-21 14:16:00,71.9,-21.0,29.74,WSW,248,10.7,12.5,2,0.00,,---,0.00,VWS V14.01,2013-02-21 20:16:00,
2013-02-21 14:17:00,71.9,-21.0,29.76,WSW,248,7.4,10.7,2,0.00,,---,0.00,VWS V14.01,2013-02-21 20:17:00,
2013-02-21 14:18:00,72.0,-20.9,29.76,West,270,10.7,13.0,2,0.00,,---,0.00,VWS V14.01,2013-02-21 20:18:00,
2013-02-21 14:19:00,72.4,-20.7,29.76,WNW,292,7.4,14.8,2,0.00,,---,0.00,VWS V14.01,2013-02-21 20:19:00,
2013-02-21 14:20:00,72.6,-20.6,29.76,West,270,6.0,10.7,2,0.00,,---,0.00,VWS V14.01,2013-02-21 20:20:00,
2013-02-21 14:21:00,72.6,-20.6,29.76,WSW,248,3.6,12.1,2,0.00,,---,0.00,VWS V14.01,2013-02-21 20:21:00,
2013-02-21 14:22:00,72.8,-20.5,29.76,WSW,248,8.1,8.5,2,0.00,,---,0.00,VWS V14.01,2013-02-21 20:22:00,
2013-02-21 14:23:00,72.8,-20.5,29.76,WNW,292,5.8,9.6,2,0.00,,---,0.00,VWS V14.01,2013-02-21 20:23:00,
2013-02-21 14:24:00,72.2,-20.8,29.76,WNW,292,6.3,19.7,2,0.00,,---,0.00,VWS V14.01,2013-02-21 20:24:00,
2013-02-21 14:25:00,72.8,-20.5,29.76,WNW,292,4.0,10.5,2,0.00,,---,0.00,VWS V14.01,2013-02-21 20:25:00,
2013-02-21 14:26:00,72.4,-20.7,29.76,NW,315,15.2,22.8,2,0.00,,---,0.00,VWS V14.01,2013-02-21 20:26:00,
2013-02-21 14:27:00,72.2,-20.8,29.76,WNW,292,11.0,15.2,2,0.00,,---,0.00,VWS V14.01,2013-02-21 20:27:00,
2013-02-21 14:28:00,72.2,-20.8,29.76,West,270,6.0,12.3,2,0.00,,---,0.00,VWS V14.01,2013-02-21 20:28:00,
2013-02-21 14:29:00,72.8,-20.5,29.76,WNW,292,7.8,10.1,2,0.00,,---,0.00,VWS V14.01,2013-02-21 20:29:00,
2013-02-21 14:30:00,72.2,-20.8,29.76,WSW,248,14.8,15.2,2,0.00,,---,0.00,VWS V14.01,2013-02-21 20:30:00,
2013-02-21 14:31:00,72.4,-20.7,29.76,WNW,292,7.4,14.8,2,0.00,,---,0.00,VWS V14.01,2013-02-21 20:31:00,
2013-02-21 14:32:00,72.4,-20.7,29.76,NW,315,14.3,17.9,2,0.00,,---,0.00,VWS V14.01,2013-02-21 20:32:00,
2013-02-21 14:33:00,72.2,-20.8,29.76,NW,315,7.4,14.3,2,0.00,,---,0.00,VWS V14.01,2013-02-21 20:33:00,
2013-02-21 14:34:00,73.6,-19.9,29.76,WNW,292,6.3,9.4,2,0.00,,---,0.00,VWS V14.01,2013-02-21 20:34:00,
2013-02-21 14:35:00,72.4,-20.7,29.76,NW,315,8.1,22.2,2,0.00,,---,0.00,VWS V14.01,2013-02-21 20:35:00,
2013-02-21 14:36:00,72.2,-20.8,29.76,WNW,292,6.3,19.7,2,0.00,,---,0.00,VWS V14.01,2013-02-21 20:36:00,
2013-02-21 14:37:00,72.0,-20.9,29.76,NW,315,12.8,15.7,2,0.00,,---,0.00,VWS V14.01,2013-02-21 20:37:00,
2013-02-21 14:38:00,72.2,-20.8,29.76,NE,45,4.0,12.8,2,0.00,,---,0.00,VWS V14.01,2013-02-21 20:38:00,
2013-02-21 14:39:00,73.3,-20.1,29.76,NW,315,5.4,12.5,2,0.00,,---,0.00,VWS V14.01,2013-02-21 20:39:00,
2013-02-21 14:40:00,72.6,-20.6,29.76,WNW,292,7.6,7.6,2,0.00,,---,0.00,VWS V14.01,2013-02-21 20:40:00,
2013-02-21 14:41:00,72.8,-20.5,29.76,WNW,292,7.8,10.1,2,0.00,,---,0.00,VWS V14.01,2013-02-21 20:41:00,
2013-02-21 14:42:00,72.6,-20.6,29.76,WNW,292,15.2,15.9,2,0.00,,---,0.00,VWS V14.01,2013-02-21 20:42:00,
2013-02-21 14:43:00,72.8,-20.5,29.76,WNW,292,10.5,15.2,2,0.00,,---,0.00,VWS V14.01,2013-02-21 20:43:00,
2013-02-21 14:44:00,73.5,-20.0,29.76,West,270,8.1,12.5,2,0.00,,---,0.00,VWS V14.01,2013-02-21 20:44:00,
2013-02-21 14:45:00,73.3,-20.1,29.76,WNW,292,2.0,5.6,2,0.00,,---,0.00,VWS V14.01,2013-02-21 20:45:00,
2013-02-21 14:46:00,73.6,-19.9,29.76,WNW,292,6.3,9.4,2,0.00,,---,0.00,VWS V14.01,2013-02-21 20:46:00,
2013-02-21 14:47:00,73.6,-19.9,29.76,West,270,10.1,10.5,2,0.00,,---,0.00,VWS V14.01,2013-02-21 20:47:00,
2013-02-21 14:48:00,73.3,-20.1,29.76,WSW,248,8.7,19.5,2,0.00,,---,0.00,VWS V14.01,2013-02-21 20:48:00,
2013-02-21 14:49:00,74.0,-19.7,29.76,NW,315,6.5,9.8,2,0.00,,---,0.00,VWS V14.01,2013-02-21 20:49:00,
2013-02-21 14:50:00,72.9,-20.4,29.76,WSW,248,12.5,19.5,2,0.00,,---,0.00,VWS V14.01,2013-02-21 20:50:00,
2013-02-21 14:51:00,73.3,-20.1,29.76,NW,315,5.4,12.5,2,0.00,,---,0.00,VWS V14.01,2013-02-21 20:51:00,
2013-02-21 14:52:00,72.9,-20.4,29.76,West,270,12.8,15.4,2,0.00,,---,0.00,VWS V14.01,2013-02-21 20:52:00,
2013-02-21 14:53:00,72.9,-20.4,29.76,North,0,4.9,12.8,2,0.00,,---,0.00,VWS V14.01,2013-02-21 20:53:00,
2013-02-21 14:54:00,74.0,-19.7,29.76,WNW,292,11.0,16.3,2,0.00,,---,0.00,VWS V14.01,2013-02-21 20:54:00,
2013-02-21 14:55:00,72.9,-20.4,29.76,WSW,248,12.3,12.3,2,0.00,,---,0.00,VWS V14.01,2013-02-21 20:55:00,
2013-02-21 14:56:00,73.5,-20.0,29.76,West,270,8.1,12.5,2,0.00,,---,0.00,VWS V14.01,2013-02-21 20:56:00,
2013-02-21 14:57:00,73.5,-20.0,29.76,West,270,13.9,13.9,2,0.00,,---,0.00,VWS V14.01,2013-02-21 20:57:00,
2013-02-21 14:58:00,73.5,-20.0,29.76,NNW,338,6.9,13.9,2,0.00,,---,0.00,VWS V14.01,2013-02-21 20:58:00,
2013-02-21 14:59:00,73.5,-20.0,29.76,WNW,292,5.6,15.4,2,0.00,,---,0.00,VWS V14.01,2013-02-21 20:59:00,
2013-02-21 15:00:00,73.8,-19.8,29.76,SW,225,9.8,10.7,2,0.00,,---,0.00,VWS V14.01,2013-02-21 21:00:00,
2013-02-21 15:01:00,74.0,-19.7,29.76,NW,315,6.5,9.8,2,0.00,,---,0.00,VWS V14.01,2013-02-21 21:01:00,
2013-02-21 15:02:00,74.0,-19.7,29.76,West,270,6.3,12.8,2,0.00,,---,0.00,VWS V14.01,2013-02-21 21:02:00,
2013-02-21 15:03:00,74.2,-19.5,29.76,WSW,248,5.6,6.3,2,0.00,,---,0.00,VWS V14.01,2013-02-21 21:03:00,
2013-02-21 15:04:00,74.0,-19.7,29.76,West,270,10.1,14.8,2,0.00,,---,0.00,VWS V14.01,2013-02-21 21:04:00,
2013-02-21 15:05:00,74.3,-19.4,29.76,West,270,6.3,13.2,2,0.00,,---,0.00,VWS V14.01,2013-02-21 21:05:00,
2013-02-21 15:06:00,74.0,-19.7,29.76,WNW,292,11.0,16.3,2,0.00,,---,0.00,VWS V14.01,2013-02-21 21:06:00,
2013-02-21 15:07:00,74.0,-19.7,29.76,West,270,19.2,21.0,2,0.00,,---,0.00,VWS V14.01,2013-02-21 21:07:00,
2013-02-21 15:08:00,73.8,-19.8,29.76,NW,315,8.7,19.2,2,0.00,,---,0.00,VWS V14.01,2013-02-21 21:08:00,
2013-02-21 15:09:00,75.2,-18.9,29.74,West,270,2.5,7.8,2,0.00,,---,0.00,VWS V14.01,2013-02-21 21:09:00,
2013-02-21 15:10:00,73.5,-20.0,29.76,West,270,15.4,15.4,2,0.00,,---,0.00,VWS V14.01,2013-02-21 21:10:00,
2013-02-21 15:11:00,73.5,-20.0,29.76,WNW,292,5.6,15.4,2,0.00,,---,0.00,VWS V14.01,2013-02-21 21:11:00,
2013-02-21 15:12:00,73.6,-19.9,29.76,WSW,248,10.3,10.7,2,0.00,,---,0.00,VWS V14.01,2013-02-21 21:12:00,
2013-02-21 15:13:00,73.6,-19.9,29.76,WNW,292,6.5,10.3,2,0.00,,---,0.00,VWS V14.01,2013-02-21 21:13:00,
2013-02-21 15:14:00,75.8,-18.5,29.74,SW,225,7.4,12.8,2,0.00,,---,0.00,VWS V14.01,2013-02-21 21:14:00,
2013-02-21 15:15:00,74.0,-19.7,29.76,West,270,8.7,10.3,2,0.00,,---,0.00,VWS V14.01,2013-02-21 21:15:00,
2013-02-21 15:16:00,74.0,-19.7,29.76,West,270,10.1,14.8,2,0.00,,---,0.00,VWS V14.01,2013-02-21 21:16:00,
2013-02-21 15:17:00,74.2,-19.5,29.74,West,270,10.3,12.5,2,0.00,,---,0.00,VWS V14.01,2013-02-21 21:17:00,
2013-02-21 15:18:00,74.2,-19.5,29.74,NNW,338,4.3,12.3,2,0.00,,---,0.00,VWS V14.01,2013-02-21 21:18:00,
2013-02-21 15:19:00,74.9,-19.1,29.74,South,180,4.7,6.3,2,0.00,,---,0.00,VWS V14.01,2013-02-21 21:19:00,
2013-02-21 15:20:00,75.1,-19.0,29.74,WNW,292,7.8,8.7,2,0.00,,---,0.00,VWS V14.01,2013-02-21 21:20:00,
2013-02-21 15:21:00,75.2,-18.9,29.74,West,270,2.5,7.8,2,0.00,,---,0.00,VWS V14.01,2013-02-21 21:21:00,
2013-02-21 15:22:00,75.6,-18.6,29.74,WSW,248,3.1,7.6,2,0.00,,---,0.00,VWS V14.01,2013-02-21 21:22:00,
2013-02-21 15:23:00,75.8,-18.5,29.74,NNW,338,4.3,7.6,2,0.00,,---,0.00,VWS V14.01,2013-02-21 21:23:00,
2013-02-21 15:24:00,75.8,-18.5,29.74,WNW,292,4.3,4.3,2,0.00,,---,0.00,VWS V14.01,2013-02-21 21:24:00,
2013-02-21 15:25:00,75.9,-18.4,29.74,NW,315,4.0,8.1,2,0.00,,---,0.00,VWS V14.01,2013-02-21 21:25:00,
2013-02-21 15:26:00,75.8,-18.5,29.74,SW,225,7.4,12.8,2,0.00,,---,0.00,VWS V14.01,2013-02-21 21:26:00,
2013-02-21 15:27:00,75.4,-18.7,29.74,West,270,8.1,14.5,2,0.00,,---,0.00,VWS V14.01,2013-02-21 21:27:00,
2013-02-21 15:28:00,75.2,-18.9,29.74,West,270,11.4,13.2,2,0.00,,---,0.00,VWS V14.01,2013-02-21 21:28:00,
2013-02-21 15:29:00,75.6,-18.6,29.74,NW,315,10.5,17.2,2,0.00,,---,0.00,VWS V14.01,2013-02-21 21:29:00,
2013-02-21 15:30:00,74.7,-19.2,29.74,WNW,292,5.6,13.0,2,0.00,,---,0.00,VWS V14.01,2013-02-21 21:30:00,
2013-02-21 15:31:00,74.9,-19.1,29.74,South,180,4.7,6.3,2,0.00,,---,0.00,VWS V14.01,2013-02-21 21:31:00,
2013-02-21 15:32:00,75.1,-19.0,29.74,NW,315,13.4,13.4,2,0.00,,---,0.00,VWS V14.01,2013-02-21 21:32:00,
2013-02-21 15:33:00,75.1,-19.0,29.74,SW,225,4.0,13.4,2,0.00,,---,0.00,VWS V14.01,2013-02-21 21:33:00,
2013-02-21 15:34:00,75.4,-18.7,29.74,WNW,292,5.4,7.8,2,0.00,,---,0.00,VWS V14.01,2013-02-21 21:34:00,
2013-02-21 15:35:00,75.6,-18.6,29.74,NW,315,3.8,10.3,2,0.00,,---,0.00,VWS V14.01,2013-02-21 21:35:00,
2013-02-21 15:36:00,75.8,-18.5,29.74,WNW,292,4.3,4.3,2,0.00,,---,0.00,VWS V14.01,2013-02-21 21:36:00,
2013-02-21 15:37:00,75.4,-18.7,29.74,West,270,6.5,17.2,2,0.00,,---,0.00,VWS V14.01,2013-02-21 21:37:00,
2013-02-21 15:38:00,75.6,-18.6,29.74,West,270,5.6,9.6,2,0.00,,---,0.00,VWS V14.01,2013-02-21 21:38:00,
2013-02-21 15:39:00,75.9,-18.4,29.74,WSW,248,6.3,12.1,2,0.00,,---,0.00,VWS V14.01,2013-02-21 21:39:00,
2013-02-21 15:40:00,75.6,-18.6,29.74,WNW,292,15.2,15.2,2,0.00,,---,0.00,VWS V14.01,2013-02-21 21:40:00,
2013-02-21 15:41:00,75.6,-18.6,29.74,NW,315,10.5,17.2,2,0.00,,---,0.00,VWS V14.01,2013-02-21 21:41:00,
2013-02-21 15:42:00,74.9,-19.1,29.74,WSW,248,12.5,15.4,2,0.00,,---,0.00,VWS V14.01,2013-02-21 21:42:00,
2013-02-21 15:43:00,74.9,-19.1,29.74,NW,315,5.8,12.5,2,0.00,,---,0.00,VWS V14.01,2013-02-21 21:43:00,
2013-02-21 15:44:00,75.6,-18.6,29.74,NNW,338,8.1,11.0,2,0.00,,---,0.00,VWS V14.01,2013-02-21 21:44:00,
2013-02-21 15:45:00,75.2,-18.9,29.74,WNW,292,6.0,6.0,2,0.00,,---,0.00,VWS V14.01,2013-02-21 21:45:00,
2013-02-21 15:46:00,75.4,-18.7,29.74,WNW,292,5.4,7.8,2,0.00,,---,0.00,VWS V14.01,2013-02-21 21:46:00,
2013-02-21 15:47:00,75.6,-18.6,29.74,West,270,16.3,16.3,2,0.00,,---,0.00,VWS V14.01,2013-02-21 21:47:00,
2013-02-21 15:48:00,75.6,-18.6,29.74,WNW,292,4.0,16.3,2,0.00,,---,0.00,VWS V14.01,2013-02-21 21:48:00,
2013-02-21 15:49:00,75.1,-19.0,29.74,NW,315,7.8,12.5,2,0.00,,---,0.00,VWS V14.01,2013-02-21 21:49:00,
2013-02-21 15:50:00,75.8,-18.5,29.74,West,270,12.1,13.6,2,0.00,,---,0.00,VWS V14.01,2013-02-21 21:50:00,
2013-02-21 15:51:00,75.9,-18.4,29.74,WSW,248,6.3,12.1,2,0.00,,---,0.00,VWS V14.01,2013-02-21 21:51:00,
2013-02-21 15:52:00,75.8,-18.5,29.74,WNW,292,10.5,10.5,2,0.00,,---,0.00,VWS V14.01,2013-02-21 21:52:00,
2013-02-21 15:53:00,75.9,-18.4,29.74,NW,315,5.4,10.5,2,0.00,,---,0.00,VWS V14.01,2013-02-21 21:53:00,
2013-02-21 15:54:00,75.6,-18.6,29.76,SW,225,5.6,7.6,2,0.00,,---,0.00,VWS V14.01,2013-02-21 21:54:00,
2013-02-21 15:55:00,75.9,-18.4,29.74,NW,315,10.1,16.1,2,0.00,,---,0.00,VWS V14.01,2013-02-21 21:55:00,
2013-02-21 15:56:00,75.6,-18.6,29.74,NNW,338,8.1,11.0,2,0.00,,---,0.00,VWS V14.01,2013-02-21 21:56:00,
2013-02-21 15:57:00,75.2,-18.9,29.74,NW,315,12.1,12.8,2,0.00,,---,0.00,VWS V14.01,2013-02-21 21:57:00,
2013-02-21 15:58:00,75.1,-19.0,29.74,WNW,292,10.5,13.0,2,0.00,,---,0.00,VWS V14.01,2013-02-21 21:58:00,
2013-02-21 15:59:00,75.4,-18.7,29.76,WSW,248,13.0,13.0,2,0.00,,---,0.00,VWS V14.01,2013-02-21 21:59:00,
2013-02-21 16:00:00,74.9,-19.1,29.74,WNW,292,8.5,9.6,2,0.00,,---,0.00,VWS V14.01,2013-02-21 22:00:00,
2013-02-21 16:01:00,75.1,-19.0,29.74,NW,315,7.8,12.5,2,0.00,,---,0.00,VWS V14.01,2013-02-21 22:01:00,
2013-02-21 16:02:00,75.1,-19.0,29.76,WNW,292,4.3,8.5,2,0.00,,---,0.00,VWS V14.01,2013-02-21 22:02:00,
2013-02-21 16:03:00,75.1,-19.0,29.76,West,270,10.1,10.1,2,0.00,,---,0.00,VWS V14.01,2013-02-21 22:03:00,
2013-02-21 16:04:00,75.2,-18.9,29.76,West,270,15.4,15.4,2,0.00,,---,0.00,VWS V14.01,2013-02-21 22:04:00,
2013-02-21 16:05:00,75.6,-18.6,29.76,West,270,4.0,8.7,2,0.00,,---,0.00,VWS V14.01,2013-02-21 22:05:00,
2013-02-21 16:06:00,75.6,-18.6,29.76,SW,225,5.6,7.6,2,0.00,,---,0.00,VWS V14.01,2013-02-21 22:06:00,
2013-02-21 16:07:00,75.6,-18.6,29.76,SW,225,12.8,12.8,2,0.00,,---,0.00,VWS V14.01,2013-02-21 22:07:00,
2013-02-21 16:08:00,75.8,-18.5,29.76,West,270,7.6,12.8,2,0.00,,---,0.00,VWS V14.01,2013-02-21 22:08:00,
2013-02-21 16:09:00,74.0,-19.7,29.76,WNW,292,12.3,14.3,2,0.00,,---,0.00,VWS V14.01,2013-02-21 22:09:00,
2013-02-21 16:10:00,75.4,-18.7,29.76,West,270,10.1,12.3,2,0.00,,---,0.00,VWS V14.01,2013-02-21 22:10:00,
2013-02-21 16:11:00,75.4,-18.7,29.76,WSW,248,13.0,13.0,2,0.00,,---,0.00,VWS V14.01,2013-02-21 22:11:00,
2013-02-21 16:12:00,75.1,-19.0,29.76,WNW,292,12.3,14.1,2,0.00,,---,0.00,VWS V14.01,2013-02-21 22:12:00,
2013-02-21 16:13:00,75.1,-19.0,29.76,NNE,22,4.0,12.3,2,0.00,,---,0.00,VWS V14.01,2013-02-21 22:13:00,
2013-02-21 16:14:00,74.0,-19.7,29.76,West,270,6.0,18.1,2,0.00,,---,0.00,VWS V14.01,2013-02-21 22:14:00,
2013-02-21 16:15:00,75.4,-18.7,29.76,WSW,248,7.6,13.0,2,0.00,,---,0.00,VWS V14.01,2013-02-21 22:15:00,
2013-02-21 16:16:00,75.2,-18.9,29.76,West,270,15.4,15.4,2,0.00,,---,0.00,VWS V14.01,2013-02-21 22:16:00,
2013-02-21 16:17:00,74.5,-19.3,29.76,NW,315,8.1,17.0,2,0.00,,---,0.00,VWS V14.01,2013-02-21 22:17:00,
2013-02-21 16:18:00,74.5,-19.3,29.76,West,270,13.2,13.2,2,0.00,,---,0.00,VWS V14.01,2013-02-21 22:18:00,
2013-02-21 16:19:00,73.8,-19.8,29.76,WNW,292,12.3,12.3,2,0.00,,---,0.00,VWS V14.01,2013-02-21 22:19:00,
2013-02-21 16:20:00,74.0,-19.7,29.76,NNW,338,10.7,17.2,2,0.00,,---,0.00,VWS V14.01,2013-02-21 22:20:00,
2013-02-21 16:21:00,74.0,-19.7,29.76,WNW,292,12.3,14.3,2,0.00,,---,0.00,VWS V14.01,2013-02-21 22:21:00,
2013-02-21 16:22:00,74.0,-19.7,29.76,NW,315,11.4,13.2,2,0.00,,---,0.00,VWS V14.01,2013-02-21 22:22:00,
2013-02-21 16:23:00,73.5,-20.0,29.76,WNW,292,15.4,15.4,2,0.00,,---,0.00,VWS V14.01,2013-02-21 22:23:00,
2013-02-21 16:24:00,74.7,-19.2,29.76,WSW,248,4.3,6.3,2,0.00,,---,0.00,VWS V14.01,2013-02-21 22:24:00,
2013-02-21 16:25:00,73.8,-19.8,29.76,WNW,292,18.1,18.1,2,0.00,,---,0.00,VWS V14.01,2013-02-21 22:25:00,
2013-02-21 16:26:00,74.0,-19.7,29.76,West,270,6.0,18.1,2,0.00,,---,0.00,VWS V14.01,2013-02-21 22:26:00,
2013-02-21 16:27:00,73.8,-19.8,29.76,WNW,292,9.0,9.6,2,0.00,,---,0.00,VWS V14.01,2013-02-21 22:27:00,
2013-02-21 16:28:00,73.6,-19.9,29.76,NNW,338,19.7,19.7,2,0.00,,---,0.00,VWS V14.01,2013-02-21 22:28:00,
2013-02-21 16:29:00,74.3,-19.4,29.76,NW,315,10.3,12.1,2,0.00,,---,0.00,VWS V14.01,2013-02-21 22:29:00,
2013-02-21 16:30:00,74.0,-19.7,29.76,NW,315,11.2,11.2,2,0.00,,---,0.00,VWS V14.01,2013-02-21 22:30:00,
2013-02-21 16:31:00,73.8,-19.8,29.76,WNW,292,12.3,12.3,2,0.00,,---,0.00,VWS V14.01,2013-02-21 22:31:00,
2013-02-21 16:32:00,74.0,-19.7,29.76,NW,315,11.0,12.3,2,0.00,,---,0.00,VWS V14.01,2013-02-21 22:32:00,
2013-02-21 16:33:00,74.0,-19.7,29.76,NW,315,7.2,11.0,2,0.00,,---,0.00,VWS V14.01,2013-02-21 22:33:00,
2013-02-21 16:34:00,73.6,-19.9,29.76,WNW,292,15.9,15.9,2,0.00,,---,0.00,VWS V14.01,2013-02-21 22:34:00,
2013-02-21 16:35:00,74.7,-19.2,29.76,NW,315,5.6,5.6,2,0.00,,---,0.00,VWS V14.01,2013-02-21 22:35:00,
2013-02-21 16:36:00,74.7,-19.2,29.76,WSW,248,4.3,6.3,2,0.00,,---,0.00,VWS V14.01,2013-02-21 22:36:00,
2013-02-21 16:37:00,74.9,-19.1,29.76,West,270,6.0,8.7,2,0.00,,---,0.00,VWS V14.01,2013-02-21 22:37:00,
2013-02-21 16:38:00,74.9,-19.1,29.76,WSW,248,6.5,15.2,2,0.00,,---,0.00,VWS V14.01,2013-02-21 22:38:00,
2013-02-21 16:39:00,73.8,-19.8,29.76,WNW,292,15.9,15.9,2,0.00,,---,0.00,VWS V14.01,2013-02-21 22:39:00,
2013-02-21 16:40:00,74.5,-19.3,29.76,NW,315,7.6,17.5,2,0.00,,---,0.00,VWS V14.01,2013-02-21 22:40:00,
2013-02-21 16:41:00,74.3,-19.4,29.76,NW,315,10.3,12.1,2,0.00,,---,0.00,VWS V14.01,2013-02-21 22:41:00,
2013-02-21 16:42:00,74.0,-19.7,29.76,WNW,292,15.9,15.9,2,0.00,,---,0.00,VWS V14.01,2013-02-21 22:42:00,
2013-02-21 16:43:00,74.0,-19.7,29.76,WNW,292,15.9,15.9,2,0.00,,---,0.00,VWS V14.01,2013-02-21 22:43:00,
2013-02-21 16:44:00,73.5,-20.0,29.76,WNW,292,15.9,15.9,2,0.00,,---,0.00,VWS V14.01,2013-02-21 22:44:00,
2013-02-21 16:45:00,73.8,-19.8,29.76,WNW,292,15.9,15.9,2,0.00,,---,0.00,VWS V14.01,2013-02-21 22:45:00,
2013-02-21 16:46:00,73.6,-19.9,29.76,WNW,292,15.9,15.9,2,0.00,,---,0.00,VWS V14.01,2013-02-21 22:46:00,
2013-02-21 16:47:00,73.8,-19.8,29.76,WNW,292,15.9,15.9,2,0.00,,---,0.00,VWS V14.01,2013-02-21 22:47:00,
2013-02-21 16:48:00,73.8,-19.8,29.76,WNW,292,15.9,15.9,2,0.00,,---,0.00,VWS V14.01,2013-02-21 22:48:00,
2013-02-21 16:49:00,73.5,-20.0,29.79,WNW,292,15.9,15.9,2,0.00,,---,0.00,VWS V14.01,2013-02-21 22:49:00,
2013-02-21 16:50:00,73.6,-19.9,29.76,WNW,292,15.9,15.9,2,0.00,,---,0.00,VWS V14.01,2013-02-21 22:50:00,
2013-02-21 16:51:00,73.8,-19.8,29.76,WNW,292,15.9,15.9,2,0.00,,---,0.00,VWS V14.01,2013-02-21 22:51:00,
2013-02-21 16:52:00,74.0,-19.7,29.76,WNW,292,15.9,15.9,2,0.00,,---,0.00,VWS V14.01,2013-02-21 22:52:00,
2013-02-21 16:53:00,73.8,-19.8,29.76,WNW,292,15.9,15.9,2,0.00,,---,0.00,VWS V14.01,2013-02-21 22:53:00,
2013-02-21 16:54:00,72.9,-20.4,29.79,WNW,292,15.9,15.9,2,0.00,,---,0.00,VWS V14.01,2013-02-21 22:54:00,
2013-02-21 16:55:00,73.8,-19.8,29.76,WNW,292,15.9,15.9,2,0.00,,---,0.00,VWS V14.01,2013-02-21 22:55:00,
2013-02-21 16:56:00,73.5,-20.0,29.76,WNW,292,15.9,15.9,2,0.00,,---,0.00,VWS V14.01,2013-02-21 22:56:00,
2013-02-21 16:57:00,73.5,-20.0,29.76,WNW,292,15.9,15.9,2,0.00,,---,0.00,VWS V14.01,2013-02-21 22:57:00,
2013-02-21 16:58:00,73.5,-20.0,29.76,WNW,292,15.9,15.9,2,0.00,,---,0.00,VWS V14.01,2013-02-21 22:58:00,
2013-02-21 16:59:00,72.9,-20.4,29.79,WNW,292,15.9,15.9,2,0.00,,---,0.00,VWS V14.01,2013-02-21 22:59:00,
2013-02-21 17:00:00,73.3,-20.1,29.76,WNW,292,15.9,15.9,2,0.00,,---,0.00,VWS V14.01,2013-02-21 23:00:00,
2013-02-21 17:01:00,73.5,-20.0,29.76,WNW,292,15.9,15.9,2,0.00,,---,0.00,VWS V14.01,2013-02-21 23:01:00,
2013-02-21 17:02:00,73.6,-19.9,29.79,WNW,292,15.9,15.9,2,0.00,,---,0.00,VWS V14.01,2013-02-21 23:02:00,
2013-02-21 17:03:00,73.6,-19.9,29.79,WNW,292,15.9,15.9,2,0.00,,---,0.00,VWS V14.01,2013-02-21 23:03:00,
2013-02-21 17:04:00,73.5,-20.0,29.74,WNW,292,15.9,15.9,2,0.00,,---,0.00,VWS V14.01,2013-02-21 23:04:00,
2013-02-21 17:05:00,72.9,-20.4,29.79,WNW,292,15.9,15.9,2,0.00,,---,0.00,VWS V14.01,2013-02-21 23:05:00,
2013-02-21 17:06:00,72.9,-20.4,29.79,WNW,292,15.9,15.9,2,0.00,,---,0.00,VWS V14.01,2013-02-21 23:06:00,
2013-02-21 17:07:00,72.9,-20.4,29.79,WNW,292,15.9,15.9,2,0.00,,---,0.00,VWS V14.01,2013-02-21 23:07:00,
2013-02-21 17:08:00,72.9,-20.4,29.79,WNW,292,15.9,15.9,2,0.00,,---,0.00,VWS V14.01,2013-02-21 23:08:00,
2013-02-21 17:09:00,73.1,-20.2,29.74,WNW,292,15.9,15.9,2,0.00,,---,0.00,VWS V14.01,2013-02-21 23:09:00,
2013-02-21 17:10:00,72.9,-20.4,29.79,WNW,292,15.9,15.9,2,0.00,,---,0.00,VWS V14.01,2013-02-21 23:10:00,
2013-02-21 17:11:00,72.9,-20.4,29.79,WNW,292,15.9,15.9,2,0.00,,---,0.00,VWS V14.01,2013-02-21 23:11:00,
2013-02-21 17:12:00,72.9,-20.4,29.79,WNW,292,15.9,15.9,2,0.00,,---,0.00,VWS V14.01,2013-02-21 23:12:00,
2013-02-21 17:13:00,73.3,-20.1,29.79,WNW,292,15.9,15.9,2,0.00,,---,0.00,VWS V14.01,2013-02-21 23:13:00,
2013-02-21 17:14:00,72.6,-20.6,29.74,WSW,248,7.4,7.4,2,0.00,,---,0.00,VWS V14.01,2013-02-21 23:14:00,
2013-02-21 17:15:00,73.5,-20.0,29.79,WNW,292,15.9,15.9,2,0.00,,---,0.00,VWS V14.01,2013-02-21 23:15:00,
2013-02-21 17:16:00,73.5,-20.0,29.79,WNW,292,15.9,15.9,2,0.00,,---,0.00,VWS V14.01,2013-02-21 23:16:00,
2013-02-21 17:17:00,73.3,-20.1,29.74,WNW,292,15.9,15.9,2,0.00,,---,0.00,VWS V14.01,2013-02-21 23:17:00,
2013-02-21 17:18:00,73.5,-20.0,29.74,WNW,292,15.9,15.9,2,0.00,,---,0.00,VWS V14.01,2013-02-21 23:18:00,
2013-02-21 17:19:00,72.2,-20.8,29.76,West,270,11.9,11.9,2,0.00,,---,0.00,VWS V14.01,2013-02-21 23:19:00,
2013-02-21 17:20:00,73.3,-20.1,29.74,WNW,292,15.9,15.9,2,0.00,,---,0.00,VWS V14.01,2013-02-21 23:20:00,
2013-02-21 17:21:00,73.1,-20.2,29.74,WNW,292,15.9,15.9,2,0.00,,---,0.00,VWS V14.01,2013-02-21 23:21:00,
2013-02-21 17:22:00,72.9,-20.4,29.74,WNW,292,15.9,15.9,2,0.00,,---,0.00,VWS V14.01,2013-02-21 23:22:00,
2013-02-21 17:23:00,72.9,-20.4,29.74,WNW,292,15.9,15.9,2,0.00,,---,0.00,VWS V14.01,2013-02-21 23:23:00,
2013-02-21 17:24:00,71.7,-21.1,29.76,West,270,4.0,4.0,2,0.00,,---,0.00,VWS V14.01,2013-02-21 23:24:00,
2013-02-21 17:25:00,72.9,-20.4,29.74,West,270,11.2,15.9,2,0.00,,---,0.00,VWS V14.01,2013-02-21 23:25:00,
2013-02-21 17:26:00,72.8,-20.5,29.74,West,270,5.8,12.8,2,0.00,,---,0.00,VWS V14.01,2013-02-21 23:26:00,
2013-02-21 17:27:00,72.6,-20.6,29.74,WNW,292,3.4,11.0,2,0.00,,---,0.00,VWS V14.01,2013-02-21 23:27:00,
2013-02-21 17:28:00,72.6,-20.6,29.74,NW,315,6.5,7.6,2,0.00,,---,0.00,VWS V14.01,2013-02-21 23:28:00,
2013-02-21 17:29:00,71.2,-21.5,29.76,NW,315,9.4,9.4,2,0.00,,---,0.00,VWS V14.01,2013-02-21 23:29:00,
2013-02-21 17:30:00,72.2,-20.8,29.74,WNW,292,6.3,9.2,2,0.00,,---,0.00,VWS V14.01,2013-02-21 23:30:00,
2013-02-21 17:31:00,72.2,-20.8,29.74,WNW,292,4.0,10.7,2,0.00,,---,0.00,VWS V14.01,2013-02-21 23:31:00,
2013-02-21 17:32:00,72.0,-20.9,29.76,NW,315,6.5,11.9,2,0.00,,---,0.00,VWS V14.01,2013-02-21 23:32:00,
2013-02-21 17:33:00,72.0,-20.9,29.76,WNW,292,4.9,9.0,2,0.00,,---,0.00,VWS V14.01,2013-02-21 23:33:00,
2013-02-21 17:34:00,70.8,-21.7,29.76,WSW,248,5.6,7.2,2,0.00,,---,0.00,VWS V14.01,2013-02-21 23:34:00,
2013-02-21 17:35:00,71.9,-21.0,29.76,WSW,248,11.0,11.0,2,0.00,,---,0.00,VWS V14.01,2013-02-21 23:35:00,
2013-02-21 17:36:00,71.7,-21.1,29.76,West,270,4.0,11.0,2,0.00,,---,0.00,VWS V14.01,2013-02-21 23:36:00,
2013-02-21 17:37:00,71.7,-21.1,29.76,WNW,292,4.9,5.8,2,0.00,,---,0.00,VWS V14.01,2013-02-21 23:37:00,
2013-02-21 17:38:00,71.7,-21.1,29.76,NW,315,4.9,7.6,2,0.00,,---,0.00,VWS V14.01,2013-02-21 23:38:00,
2013-02-21 17:39:00,71.5,-21.3,29.76,WNW,292,4.7,13.0,2,0.00,,---,0.00,VWS V14.01,2013-02-21 23:39:00,
2013-02-21 17:40:00,70.6,-14.0,29.76,NNE,22,3.8,3.8,3,0.00,,---,0.00,VWS V14.01,2013-02-21 23:40:00,
2013-02-21 17:41:00,71.3,-21.4,29.76,NW,315,8.5,10.5,2,0.00,,---,0.00,VWS V14.01,2013-02-21 23:41:00,
2013-02-21 17:42:00,71.2,-21.5,29.76,WSW,248,8.5,9.4,2,0.00,,---,0.00,VWS V14.01,2013-02-21 23:42:00,
2013-02-21 17:43:00,71.0,-21.6,29.76,NW,315,4.9,8.5,2,0.00,,---,0.00,VWS V14.01,2013-02-21 23:43:00,
2013-02-21 17:45:00,69.7,-14.6,29.76,NNE,22,3.8,3.8,3,0.00,,---,0.00,VWS V14.01,2013-02-21 23:45:00,
2013-02-21 17:46:00,70.8,-21.7,29.76,West,270,7.2,7.4,2,0.00,,---,0.00,VWS V14.01,2013-02-21 23:46:00,
2013-02-21 17:47:00,70.6,-14.0,29.76,NW,315,7.2,8.1,3,0.00,,---,0.00,VWS V14.01,2013-02-21 23:47:00,
2013-02-21 17:48:00,70.8,-21.7,29.76,NNE,22,3.8,7.2,2,0.00,,---,0.00,VWS V14.01,2013-02-21 23:48:00,
2013-02-21 17:49:00,70.6,-14.0,29.76,NNE,22,3.8,3.8,3,0.00,,---,0.00,VWS V14.01,2013-02-21 23:49:00,
2013-02-21 17:50:00,69.2,-14.9,29.79,NNE,22,3.8,3.8,3,0.00,,---,0.00,VWS V14.01,2013-02-21 23:50:00,
2013-02-21 17:51:00,70.6,-14.0,29.76,NNE,22,3.8,3.8,3,0.00,,---,0.00,VWS V14.01,2013-02-21 23:51:00,
2013-02-21 17:52:00,70.6,-14.0,29.76,NNE,22,3.8,3.8,3,0.00,,---,0.00,VWS V14.01,2013-02-21 23:52:00,
2013-02-21 17:53:00,70.4,-14.1,29.76,NNE,22,3.8,3.8,3,0.00,,---,0.00,VWS V14.01,2013-02-21 23:53:00,
2013-02-21 17:54:00,70.1,-14.3,29.76,NNE,22,3.8,3.8,3,0.00,,---,0.00,VWS V14.01,2013-02-21 23:54:00,
2013-02-21 17:55:00,69.4,-14.8,29.79,NNE,22,3.8,3.8,3,0.00,,---,0.00,VWS V14.01,2013-02-21 23:55:00,
2013-02-21 17:56:00,69.9,-14.4,29.76,NNE,22,3.8,3.8,3,0.00,,---,0.00,VWS V14.01,2013-02-21 23:56:00,
2013-02-21 17:57:00,69.7,-14.6,29.76,NNE,22,3.8,3.8,3,0.00,,---,0.00,VWS V14.01,2013-02-21 23:57:00,
2013-02-21 17:58:00,69.6,-14.7,29.76,NNE,22,3.8,3.8,3,0.00,,---,0.00,VWS V14.01,2013-02-21 23:58:00,
2013-02-21 17:59:00,69.4,-14.8,29.76,NNE,22,3.8,3.8,3,0.00,,---,0.00,VWS V14.01,2013-02-21 23:59:00,
2013-02-21 18:00:00,69.0,-15.0,29.79,NNE,22,3.8,3.8,3,0.00,,---,0.00,VWS V14.01,2013-02-22 00:00:00,
2013-02-21 18:01:00,69.2,-14.9,29.76,NNE,22,3.8,3.8,3,0.00,,---,0.00,VWS V14.01,2013-02-22 00:01:00,
2013-02-21 18:02:00,69.2,-14.9,29.79,NNE,22,3.8,3.8,3,0.00,,---,0.00,VWS V14.01,2013-02-22 00:02:00,
2013-02-21 18:03:00,69.2,-14.9,29.79,NNE,22,3.8,3.8,3,0.00,,---,0.00,VWS V14.01,2013-02-22 00:03:00,
2013-02-21 18:04:00,69.2,-14.9,29.79,NNE,22,3.8,3.8,3,0.00,,---,0.00,VWS V14.01,2013-02-22 00:04:00,
2013-02-21 18:05:00,68.5,-15.4,29.79,NNE,22,3.8,3.8,3,0.00,,---,0.00,VWS V14.01,2013-02-22 00:05:00,
2013-02-21 18:07:00,69.2,-14.9,29.79,NNE,22,3.8,3.8,3,0.00,,---,0.00,VWS V14.01,2013-02-22 00:07:00,
2013-02-21 18:08:00,69.0,-15.0,29.79,NNE,22,3.8,3.8,3,0.00,,---,0.00,VWS V14.01,2013-02-22 00:08:00,
2013-02-21 18:09:00,69.0,-15.0,29.79,NNE,22,3.8,3.8,3,0.00,,---,0.00,VWS V14.01,2013-02-22 00:09:00,
2013-02-21 18:10:00,68.0,-15.8,29.79,NNW,338,4.7,4.7,3,0.00,,---,0.00,VWS V14.01,2013-02-22 00:10:00,
2013-02-21 18:11:00,69.0,-15.0,29.79,NNE,22,3.8,3.8,3,0.00,,---,0.00,VWS V14.01,2013-02-22 00:11:00,
2013-02-21 18:12:00,69.0,-15.0,29.79,NNE,22,3.8,3.8,3,0.00,,---,0.00,VWS V14.01,2013-02-22 00:12:00,
2013-02-21 18:13:00,68.8,-15.2,29.79,NNE,22,3.8,3.8,3,0.00,,---,0.00,VWS V14.01,2013-02-22 00:13:00,
2013-02-21 18:14:00,68.7,-15.3,29.79,NNE,22,3.8,3.8,3,0.00,,---,0.00,VWS V14.01,2013-02-22 00:14:00,
2013-02-21 18:15:00,67.4,-16.1,29.79,West,270,6.0,6.0,3,0.00,,---,0.00,VWS V14.01,2013-02-22 00:15:00,
2013-02-21 18:16:00,68.5,-15.4,29.79,NNE,22,3.8,3.8,3,0.00,,---,0.00,VWS V14.01,2013-02-22 00:16:00,
2013-02-21 18:17:00,68.5,-15.4,29.79,NNE,22,3.8,3.8,3,0.00,,---,0.00,VWS V14.01,2013-02-22 00:17:00,
2013-02-21 18:18:00,68.3,-15.5,29.79,West,270,4.3,4.3,3,0.00,,---,0.00,VWS V14.01,2013-02-22 00:18:00,
2013-02-21 18:19:00,68.3,-15.5,29.79,NW,315,3.1,4.3,3,0.00,,---,0.00,VWS V14.01,2013-02-22 00:19:00,
2013-02-21 18:20:00,66.7,-10.9,29.82,West,270,6.0,6.0,4,0.00,,---,0.00,VWS V14.01,2013-02-22 00:20:00,
2013-02-21 18:21:00,68.0,-15.8,29.79,West,270,3.8,5.8,3,0.00,,---,0.00,VWS V14.01,2013-02-22 00:21:00,
2013-02-21 18:22:00,68.0,-15.8,29.79,WNW,292,4.9,4.9,3,0.00,,---,0.00,VWS V14.01,2013-02-22 00:22:00,
2013-02-21 18:23:00,67.8,-15.9,29.79,NW,315,3.8,4.9,3,0.00,,---,0.00,VWS V14.01,2013-02-22 00:23:00,
2013-02-21 18:24:00,67.6,-16.0,29.79,NNW,338,5.6,5.6,3,0.00,,---,0.00,VWS V14.01,2013-02-22 00:24:00,
2013-02-21 18:25:00,66.4,-11.1,29.82,West,270,6.0,6.0,4,0.00,,---,0.00,VWS V14.01,2013-02-22 00:25:00,
2013-02-21 18:26:00,67.4,-16.1,29.79,West,270,6.0,6.0,3,0.00,,---,0.00,VWS V14.01,2013-02-22 00:26:00,
2013-02-21 18:27:00,67.4,-16.1,29.79,West,270,6.0,6.0,3,0.00,,---,0.00,VWS V14.01,2013-02-22 00:27:00,
2013-02-21 18:28:00,67.1,-10.6,29.79,West,270,6.0,6.0,4,0.00,,---,0.00,VWS V14.01,2013-02-22 00:28:00,
2013-02-21 18:29:00,67.1,-10.6,29.79,West,270,6.0,6.0,4,0.00,,---,0.00,VWS V14.01,2013-02-22 00:29:00,
2013-02-21 18:30:00,65.7,-11.6,29.82,West,270,6.0,6.0,4,0.00,,---,0.00,VWS V14.01,2013-02-22 00:30:00,
2013-02-21 18:31:00,66.9,-10.8,29.79,West,270,6.0,6.0,4,0.00,,---,0.00,VWS V14.01,2013-02-22 00:31:00,
2013-02-21 18:32:00,66.7,-10.9,29.82,West,270,6.0,6.0,4,0.00,,---,0.00,VWS V14.01,2013-02-22 00:32:00,
2013-02-21 18:33:00,66.5,-11.0,29.82,West,270,6.0,6.0,4,0.00,,---,0.00,VWS V14.01,2013-02-22 00:33:00,
2013-02-21 18:34:00,66.5,-11.0,29.82,West,270,6.0,6.0,4,0.00,,---,0.00,VWS V14.01,2013-02-22 00:34:00,
2013-02-21 18:35:00,65.1,-12.0,29.82,West,270,6.0,6.0,4,0.00,,---,0.00,VWS V14.01,2013-02-22 00:35:00,
2013-02-21 18:36:00,66.4,-11.1,29.82,West,270,6.0,6.0,4,0.00,,---,0.00,VWS V14.01,2013-02-22 00:36:00,
2013-02-21 18:37:00,66.2,-11.3,29.82,West,270,6.0,6.0,4,0.00,,---,0.00,VWS V14.01,2013-02-22 00:37:00,
2013-02-21 18:38:00,66.0,-11.4,29.82,West,270,6.0,6.0,4,0.00,,---,0.00,VWS V14.01,2013-02-22 00:38:00,
2013-02-21 18:39:00,66.0,-11.4,29.82,West,270,6.0,6.0,4,0.00,,---,0.00,VWS V14.01,2013-02-22 00:39:00,
2013-02-21 18:40:00,64.8,-12.3,29.82,West,270,6.0,6.0,4,0.00,,---,0.00,VWS V14.01,2013-02-22 00:40:00,
2013-02-21 18:42:00,65.7,-11.6,29.82,West,270,6.0,6.0,4,0.00,,---,0.00,VWS V14.01,2013-02-22 00:42:00,
2013-02-21 18:44:00,65.3,-11.9,29.82,West,270,6.0,6.0,4,0.00,,---,0.00,VWS V14.01,2013-02-22 00:44:00,
2013-02-21 18:45:00,64.6,-12.4,29.82,West,270,6.0,6.0,4,0.00,,---,0.00,VWS V14.01,2013-02-22 00:45:00,
2013-02-21 18:46:00,65.1,-12.0,29.82,West,270,6.0,6.0,4,0.00,,---,0.00,VWS V14.01,2013-02-22 00:46:00,
2013-02-21 18:47:00,65.1,-12.0,29.82,West,270,6.0,6.0,4,0.00,,---,0.00,VWS V14.01,2013-02-22 00:47:00,
2013-02-21 18:48:00,64.9,-12.1,29.82,West,270,6.0,6.0,4,0.00,,---,0.00,VWS V14.01,2013-02-22 00:48:00,
2013-02-21 18:49:00,64.9,-12.1,29.82,West,270,6.0,6.0,4,0.00,,---,0.00,VWS V14.01,2013-02-22 00:49:00,
2013-02-21 18:50:00,64.2,-12.6,29.85,West,270,6.0,6.0,4,0.00,,---,0.00,VWS V14.01,2013-02-22 00:50:00,
2013-02-21 18:52:00,64.8,-12.3,29.82,West,270,6.0,6.0,4,0.00,,---,0.00,VWS V14.01,2013-02-22 00:52:00,
2013-02-21 18:53:00,64.8,-12.3,29.82,West,270,6.0,6.0,4,0.00,,---,0.00,VWS V14.01,2013-02-22 00:53:00,
2013-02-21 18:54:00,64.8,-12.3,29.82,West,270,6.0,6.0,4,0.00,,---,0.00,VWS V14.01,2013-02-22 00:54:00,
2013-02-21 18:55:00,63.7,-13.0,29.85,NNW,338,2.9,2.9,4,0.00,,---,0.00,VWS V14.01,2013-02-22 00:55:00,
2013-02-21 18:56:00,64.6,-12.4,29.82,West,270,6.0,6.0,4,0.00,,---,0.00,VWS V14.01,2013-02-22 00:56:00,
2013-02-21 18:57:00,64.6,-12.4,29.82,West,270,6.0,6.0,4,0.00,,---,0.00,VWS V14.01,2013-02-22 00:57:00,
2013-02-21 18:58:00,64.4,-12.5,29.82,West,270,6.0,6.0,4,0.00,,---,0.00,VWS V14.01,2013-02-22 00:58:00,
2013-02-21 18:59:00,64.4,-12.5,29.82,West,270,6.0,6.0,4,0.00,,---,0.00,VWS V14.01,2013-02-22 00:59:00,
2013-02-21 19:00:00,63.5,-13.1,29.85,NNW,338,4.7,4.7,4,0.00,,---,0.00,VWS V14.01,2013-02-22 01:00:00,
2013-02-21 19:01:00,64.2,-12.6,29.82,West,270,6.0,6.0,4,0.00,,---,0.00,VWS V14.01,2013-02-22 01:01:00,
2013-02-21 19:02:00,64.2,-12.6,29.85,West,270,6.0,6.0,4,0.00,,---,0.00,VWS V14.01,2013-02-22 01:02:00,
2013-02-21 19:03:00,64.1,-12.8,29.85,West,270,6.0,6.0,4,0.00,,---,0.00,VWS V14.01,2013-02-22 01:03:00,
2013-02-21 19:04:00,64.1,-12.8,29.85,West,270,6.0,6.0,4,0.00,,---,0.00,VWS V14.01,2013-02-22 01:04:00,
2013-02-21 19:05:00,63.3,-13.2,29.82,NNW,338,4.7,5.6,4,0.00,,---,0.00,VWS V14.01,2013-02-22 01:05:00,
2013-02-21 19:06:00,63.7,-13.0,29.85,NW,315,2.5,6.0,4,0.00,,---,0.00,VWS V14.01,2013-02-22 01:06:00,
2013-02-21 19:07:00,63.7,-13.0,29.85,NW,315,3.1,3.1,4,0.00,,---,0.00,VWS V14.01,2013-02-22 01:07:00,
2013-02-21 19:08:00,63.5,-13.1,29.85,NNW,338,4.7,5.4,4,0.00,,---,0.00,VWS V14.01,2013-02-22 01:08:00,
2013-02-21 19:09:00,63.5,-13.1,29.85,NW,315,3.1,4.7,4,0.00,,---,0.00,VWS V14.01,2013-02-22 01:09:00,
2013-02-21 19:10:00,63.0,-13.5,29.82,NW,315,3.1,5.4,4,0.00,,---,0.00,VWS V14.01,2013-02-22 01:10:00,
2013-02-21 19:11:00,63.5,-13.1,29.85,NNW,338,3.8,8.7,4,0.00,,---,0.00,VWS V14.01,2013-02-22 01:11:00,
2013-02-21 19:12:00,63.5,-13.1,29.85,NNW,338,3.4,4.7,4,0.00,,---,0.00,VWS V14.01,2013-02-22 01:12:00,
2013-02-21 19:13:00,63.5,-13.1,29.85,NNW,338,3.6,7.2,4,0.00,,---,0.00,VWS V14.01,2013-02-22 01:13:00,
2013-02-21 19:14:00,63.3,-13.2,29.85,NNW,338,3.6,7.2,4,0.00,,---,0.00,VWS V14.01,2013-02-22 01:14:00,
2013-02-21 19:15:00,62.5,-13.9,29.82,NNW,338,2.0,3.1,4,0.00,,---,0.00,VWS V14.01,2013-02-22 01:15:00,
2013-02-21 19:16:00,63.3,-13.2,29.85,NW,315,4.3,4.7,4,0.00,,---,0.00,VWS V14.01,2013-02-22 01:16:00,
2013-02-21 19:17:00,63.3,-13.2,29.82,NNW,338,4.7,5.6,4,0.00,,---,0.00,VWS V14.01,2013-02-22 01:17:00,
2013-02-21 19:18:00,63.3,-13.2,29.82,NW,315,5.4,5.4,4,0.00,,---,0.00,VWS V14.01,2013-02-22 01:18:00,
2013-02-21 19:19:00,63.2,-13.4,29.82,NNW,338,3.6,5.4,4,0.00,,---,0.00,VWS V14.01,2013-02-22 01:19:00,
2013-02-21 19:20:00,61.0,-10.4,29.82,NNW,338,2.0,2.0,5,0.00,,---,0.00,VWS V14.01,2013-02-22 01:20:00,
2013-02-21 19:21:00,63.0,-13.5,29.82,NNW,338,3.8,4.0,4,0.00,,---,0.00,VWS V14.01,2013-02-22 01:21:00,
2013-02-21 19:22:00,63.0,-13.5,29.82,NNW,338,2.5,5.4,4,0.00,,---,0.00,VWS V14.01,2013-02-22 01:22:00,
2013-02-21 19:23:00,62.8,-13.6,29.82,North,0,3.4,4.3,4,0.00,,---,0.00,VWS V14.01,2013-02-22 01:23:00,
2013-02-21 19:24:00,62.8,-13.6,29.82,NNW,338,3.1,3.8,4,0.00,,---,0.00,VWS V14.01,2013-02-22 01:24:00,
2013-02-21 19:25:00,60.0,-11.2,29.82,NNW,338,2.0,2.0,5,0.00,,---,0.00,VWS V14.01,2013-02-22 01:25:00,
2013-02-21 19:26:00,62.5,-13.9,29.82,North,0,3.1,3.8,4,0.00,,---,0.00,VWS V14.01,2013-02-22 01:26:00,
2013-02-21 19:27:00,62.5,-13.9,29.82,NNW,338,2.0,3.1,4,0.00,,---,0.00,VWS V14.01,2013-02-22 01:27:00,
2013-02-21 19:28:00,62.3,-14.0,29.82,NNW,338,2.0,2.0,4,0.00,,---,0.00,VWS V14.01,2013-02-22 01:28:00,
2013-02-21 19:29:00,61.8,-9.9,29.82,NNW,338,2.0,2.0,5,0.00,,---,0.00,VWS V14.01,2013-02-22 01:29:00,
2013-02-21 19:30:00,59.5,-11.6,29.82,West,270,0.0,2.0,5,0.00,,---,0.00,VWS V14.01,2013-02-22 01:30:00,
2013-02-21 19:31:00,61.4,-10.1,29.82,NNW,338,2.0,2.0,5,0.00,,---,0.00,VWS V14.01,2013-02-22 01:31:00,
2013-02-21 19:32:00,61.0,-10.4,29.82,NNW,338,2.0,2.0,5,0.00,,---,0.00,VWS V14.01,2013-02-22 01:32:00,
2013-02-21 19:33:00,60.9,-10.5,29.82,NNW,338,2.0,2.0,5,0.00,,---,0.00,VWS V14.01,2013-02-22 01:33:00,
2013-02-21 19:34:00,60.5,-10.8,29.82,NNW,338,2.0,2.0,5,0.00,,---,0.00,VWS V14.01,2013-02-22 01:34:00,
2013-02-21 19:35:00,58.4,-12.3,29.82,NE,45,0.0,0.0,5,0.00,,---,0.00,VWS V14.01,2013-02-22 01:35:00,
2013-02-21 19:36:00,60.3,-10.9,29.82,NNW,338,2.0,2.0,5,0.00,,---,0.00,VWS V14.01,2013-02-22 01:36:00,
2013-02-21 19:37:00,60.0,-11.2,29.82,NNW,338,2.0,2.0,5,0.00,,---,0.00,VWS V14.01,2013-02-22 01:37:00,
2013-02-21 19:38:00,60.0,-11.2,29.82,NNW,338,2.0,2.0,5,0.00,,---,0.00,VWS V14.01,2013-02-22 01:38:00,
2013-02-21 19:39:00,59.8,-11.3,29.82,NNW,338,2.0,2.0,5,0.00,,---,0.00,VWS V14.01,2013-02-22 01:39:00,
2013-02-21 19:40:00,57.3,-9.4,29.82,NE,45,0.0,0.0,6,0.00,,---,0.00,VWS V14.01,2013-02-22 01:40:00,
2013-02-21 19:41:00,59.6,-11.4,29.82,NNW,338,2.0,2.0,5,0.00,,---,0.00,VWS V14.01,2013-02-22 01:41:00,
2013-02-21 19:42:00,59.5,-11.6,29.82,West,270,0.0,2.0,5,0.00,,---,0.00,VWS V14.01,2013-02-22 01:42:00,
2013-02-21 19:43:00,59.3,-11.7,29.82,West,270,0.0,0.0,5,0.00,,---,0.00,VWS V14.01,2013-02-22 01:43:00,
2013-02-21 19:44:00,58.9,-11.9,29.82,NNE,22,0.0,0.0,5,0.00,,---,0.00,VWS V14.01,2013-02-22 01:44:00,
2013-02-21 19:45:00,56.4,-10.1,29.82,NE,45,0.0,0.0,6,0.00,,---,0.00,VWS V14.01,2013-02-22 01:45:00,
2013-02-21 19:46:00,58.6,-12.2,29.82,NE,45,0.0,0.9,5,0.00,,---,0.00,VWS V14.01,2013-02-22 01:46:00,
2013-02-21 19:47:00,58.4,-12.3,29.82,NE,45,0.0,0.0,5,0.00,,---,0.00,VWS V14.01,2013-02-22 01:47:00,
2013-02-21 19:48:00,58.2,-8.8,29.82,NE,45,0.0,0.0,6,0.00,,---,0.00,VWS V14.01,2013-02-22 01:48:00,
2013-02-21 19:49:00,58.0,-8.9,29.82,NE,45,0.0,0.0,6,0.00,,---,0.00,VWS V14.01,2013-02-22 01:49:00,
2013-02-21 19:50:00,56.1,-10.3,29.82,NE,45,2.0,2.2,6,0.00,,---,0.00,VWS V14.01,2013-02-22 01:50:00,
2013-02-21 19:51:00,57.7,-9.1,29.82,NE,45,0.0,0.0,6,0.00,,---,0.00,VWS V14.01,2013-02-22 01:51:00,
2013-02-21 19:52:00,57.3,-9.4,29.82,NE,45,0.0,0.0,6,0.00,,---,0.00,VWS V14.01,2013-02-22 01:52:00,
2013-02-21 19:53:00,57.0,-9.7,29.82,NE,45,0.0,0.0,6,0.00,,---,0.00,VWS V14.01,2013-02-22 01:53:00,
2013-02-21 19:54:00,57.0,-9.7,29.82,NE,45,0.0,0.0,6,0.00,,---,0.00,VWS V14.01,2013-02-22 01:54:00,
2013-02-21 19:55:00,56.3,-10.2,29.82,North,0,2.0,2.5,6,0.00,,---,0.00,VWS V14.01,2013-02-22 01:55:00,
2013-02-21 19:56:00,56.6,-9.9,29.82,NE,45,0.0,0.0,6,0.00,,---,0.00,VWS V14.01,2013-02-22 01:56:00,
2013-02-21 19:57:00,56.4,-10.1,29.82,NE,45,0.0,0.0,6,0.00,,---,0.00,VWS V14.01,2013-02-22 01:57:00,
2013-02-21 19:58:00,56.4,-10.1,29.82,NE,45,0.0,0.0,6,0.00,,---,0.00,VWS V14.01,2013-02-22 01:58:00,
2013-02-21 19:59:00,56.4,-10.1,29.82,NE,45,0.0,0.0,6,0.00,,---,0.00,VWS V14.01,2013-02-22 01:59:00,
2013-02-21 20:00:00,55.9,-10.4,29.82,NE,45,0.0,0.0,6,0.00,,---,0.00,VWS V14.01,2013-02-22 02:00:00,
2013-02-21 20:01:00,56.3,-10.2,29.82,NE,45,2.2,2.2,6,0.00,,---,0.00,VWS V14.01,2013-02-22 02:01:00,
2013-02-21 20:02:00,56.1,-10.3,29.82,NE,45,2.0,2.2,6,0.00,,---,0.00,VWS V14.01,2013-02-22 02:02:00,
2013-02-21 20:03:00,56.1,-10.3,29.82,NNW,338,2.5,2.5,6,0.00,,---,0.00,VWS V14.01,2013-02-22 02:03:00,
2013-02-21 20:04:00,56.1,-10.3,29.82,North,0,2.2,2.5,6,0.00,,---,0.00,VWS V14.01,2013-02-22 02:04:00,
2013-02-21 20:05:00,55.0,-11.1,29.85,NE,45,0.0,0.0,6,0.00,,---,0.00,VWS V14.01,2013-02-22 02:05:00,
2013-02-21 20:06:00,56.3,-10.2,29.82,North,0,2.5,2.5,6,0.00,,---,0.00,VWS V14.01,2013-02-22 02:06:00,
2013-02-21 20:07:00,56.3,-10.2,29.82,North,0,2.0,2.5,6,0.00,,---,0.00,VWS V14.01,2013-02-22 02:07:00,
2013-02-21 20:08:00,56.3,-10.2,29.82,North,0,1.6,2.2,6,0.00,,---,0.00,VWS V14.01,2013-02-22 02:08:00,
2013-02-21 20:09:00,56.3,-10.2,29.82,North,0,2.0,2.2,6,0.00,,---,0.00,VWS V14.01,2013-02-22 02:09:00,
2013-02-21 20:10:00,54.1,-11.7,29.85,NE,45,0.0,0.0,6,0.00,,---,0.00,VWS V14.01,2013-02-22 02:10:00,
2013-02-21 20:11:00,56.1,-10.3,29.82,NE,45,0.0,2.0,6,0.00,,---,0.00,VWS V14.01,2013-02-22 02:11:00,
2013-02-21 20:12:00,55.9,-10.4,29.82,NE,45,0.0,0.0,6,0.00,,---,0.00,VWS V14.01,2013-02-22 02:12:00,
2013-02-21 20:13:00,55.7,-10.6,29.82,NE,45,0.0,0.0,6,0.00,,---,0.00,VWS V14.01,2013-02-22 02:13:00,
2013-02-21 20:14:00,55.5,-10.7,29.82,NE,45,0.0,0.0,6,0.00,,---,0.00,VWS V14.01,2013-02-22 02:14:00,
2013-02-21 20:15:00,53.8,-12.0,29.85,NE,45,0.0,0.0,6,0.00,,---,0.00,VWS V14.01,2013-02-22 02:15:00,
2013-02-21 20:16:00,55.2,-11.0,29.82,NE,45,0.0,0.0,6,0.00,,---,0.00,VWS V14.01,2013-02-22 02:16:00,
2013-02-21 20:17:00,55.0,-11.1,29.85,NE,45,0.0,0.0,6,0.00,,---,0.00,VWS V14.01,2013-02-22 02:17:00,
2013-02-21 20:18:00,54.8,-11.2,29.85,NE,45,0.0,0.0,6,0.00,,---,0.00,VWS V14.01,2013-02-22 02:18:00,
2013-02-21 20:19:00,54.7,-11.4,29.85,NE,45,0.0,0.0,6,0.00,,---,0.00,VWS V14.01,2013-02-22 02:19:00,
2013-02-21 20:20:00,53.4,-12.3,29.85,NE,45,0.0,0.0,6,0.00,,---,0.00,VWS V14.01,2013-02-22 02:20:00,
2013-02-21 20:21:00,54.5,-11.5,29.85,NE,45,0.0,0.0,6,0.00,,---,0.00,VWS V14.01,2013-02-22 02:21:00,
2013-02-21 20:23:00,54.1,-11.7,29.85,NE,45,0.0,0.0,6,0.00,,---,0.00,VWS V14.01,2013-02-22 02:23:00,
2013-02-21 20:24:00,54.0,-11.9,29.85,NE,45,0.0,0.0,6,0.00,,---,0.00,VWS V14.01,2013-02-22 02:24:00,
2013-02-21 20:25:00,53.2,-12.4,29.85,NNE,22,0.0,0.0,6,0.00,,---,0.00,VWS V14.01,2013-02-22 02:25:00,
2013-02-21 20:26:00,54.0,-11.9,29.85,NE,45,0.0,0.0,6,0.00,,---,0.00,VWS V14.01,2013-02-22 02:26:00,
2013-02-21 20:27:00,53.8,-12.0,29.85,NE,45,0.0,0.0,6,0.00,,---,0.00,VWS V14.01,2013-02-22 02:27:00,
2013-02-21 20:28:00,53.8,-12.0,29.85,NE,45,0.0,0.0,6,0.00,,---,0.00,VWS V14.01,2013-02-22 02:28:00,
2013-02-21 20:29:00,53.6,-12.1,29.85,NE,45,0.0,0.0,6,0.00,,---,0.00,VWS V14.01,2013-02-22 02:29:00,
2013-02-21 20:30:00,52.7,-9.7,29.85,NE,45,0.0,0.0,7,0.00,,---,0.00,VWS V14.01,2013-02-22 02:30:00,
2013-02-21 20:31:00,53.4,-12.3,29.85,NE,45,0.0,0.0,6,0.00,,---,0.00,VWS V14.01,2013-02-22 02:31:00,
2013-02-21 20:32:00,53.4,-12.3,29.85,NE,45,0.0,0.0,6,0.00,,---,0.00,VWS V14.01,2013-02-22 02:32:00,
2013-02-21 20:33:00,53.2,-12.4,29.85,NNE,22,0.0,0.0,6,0.00,,---,0.00,VWS V14.01,2013-02-22 02:33:00,
2013-02-21 20:34:00,53.2,-12.4,29.85,NNE,22,0.0,0.0,6,0.00,,---,0.00,VWS V14.01,2013-02-22 02:34:00,
2013-02-21 20:35:00,52.4,-9.9,29.85,NE,45,0.0,0.0,7,0.00,,---,0.00,VWS V14.01,2013-02-22 02:35:00,
2013-02-21 20:36:00,53.2,-12.4,29.85,NNE,22,0.0,0.0,6,0.00,,---,0.00,VWS V14.01,2013-02-22 02:36:00,
2013-02-21 20:37:00,53.2,-12.4,29.85,NNE,22,0.0,0.0,6,0.00,,---,0.00,VWS V14.01,2013-02-22 02:37:00,
2013-02-21 20:38:00,53.1,-12.5,29.85,NNE,22,0.0,0.0,6,0.00,,---,0.00,VWS V14.01,2013-02-22 02:38:00,
2013-02-21 20:39:00,53.1,-12.5,29.85,NNE,22,0.0,0.0,6,0.00,,---,0.00,VWS V14.01,2013-02-22 02:39:00,
2013-02-21 20:40:00,52.2,-10.1,29.85,NE,45,0.0,0.0,7,0.00,,---,0.00,VWS V14.01,2013-02-22 02:40:00,
2013-02-21 20:42:00,52.7,-9.7,29.85,NE,45,0.0,0.0,7,0.00,,---,0.00,VWS V14.01,2013-02-22 02:42:00,
2013-02-21 20:43:00,52.7,-9.7,29.85,NE,45,0.0,0.0,7,0.00,,---,0.00,VWS V14.01,2013-02-22 02:43:00,
2013-02-21 20:44:00,52.5,-9.8,29.85,NE,45,0.0,0.0,7,0.00,,---,0.00,VWS V14.01,2013-02-22 02:44:00,
2013-02-21 20:45:00,52.0,-10.2,29.85,SE,135,0.0,0.0,7,0.00,,---,0.00,VWS V14.01,2013-02-22 02:45:00,
2013-02-21 20:46:00,52.4,-9.9,29.85,NE,45,0.0,0.0,7,0.00,,---,0.00,VWS V14.01,2013-02-22 02:46:00,
2013-02-21 20:47:00,52.4,-9.9,29.85,NE,45,0.0,0.0,7,0.00,,---,0.00,VWS V14.01,2013-02-22 02:47:00,
2013-02-21 20:48:00,52.4,-9.9,29.85,NE,45,0.0,0.0,7,0.00,,---,0.00,VWS V14.01,2013-02-22 02:48:00,
2013-02-21 20:49:00,52.4,-9.9,29.85,NE,45,0.0,0.0,7,0.00,,---,0.00,VWS V14.01,2013-02-22 02:49:00,
2013-02-21 20:50:00,52.0,-10.2,29.88,NW,315,2.0,3.6,7,0.00,,---,0.00,VWS V14.01,2013-02-22 02:50:00,
2013-02-21 20:51:00,52.2,-10.1,29.85,NE,45,0.0,0.0,7,0.00,,---,0.00,VWS V14.01,2013-02-22 02:51:00,
2013-02-21 20:52:00,52.2,-10.1,29.85,NE,45,0.0,0.0,7,0.00,,---,0.00,VWS V14.01,2013-02-22 02:52:00,
2013-02-21 20:53:00,52.2,-10.1,29.85,ESE,112,0.0,0.0,7,0.00,,---,0.00,VWS V14.01,2013-02-22 02:53:00,
2013-02-21 20:54:00,52.0,-10.2,29.85,SE,135,0.0,0.0,7,0.00,,---,0.00,VWS V14.01,2013-02-22 02:54:00,
2013-02-21 20:55:00,52.2,-10.1,29.88,West,270,2.7,2.9,7,0.00,,---,0.00,VWS V14.01,2013-02-22 02:55:00,
2013-02-21 20:56:00,52.0,-10.2,29.85,SE,135,0.0,0.0,7,0.00,,---,0.00,VWS V14.01,2013-02-22 02:56:00,
2013-02-21 20:57:00,52.0,-10.2,29.85,SE,135,0.0,0.0,7,0.00,,---,0.00,VWS V14.01,2013-02-22 02:57:00,
2013-02-21 20:58:00,51.8,-10.4,29.85,SE,135,0.0,0.0,7,0.00,,---,0.00,VWS V14.01,2013-02-22 02:58:00,
2013-02-21 20:59:00,51.8,-10.4,29.85,NW,315,2.2,2.2,7,0.00,,---,0.00,VWS V14.01,2013-02-22 02:59:00,
2013-02-21 21:00:00,52.0,-7.5,29.88,WNW,292,1.1,2.0,8,0.00,,---,0.00,VWS V14.01,2013-02-22 03:00:00,
2013-02-21 21:01:00,52.0,-10.2,29.85,NNW,338,3.6,3.6,7,0.00,,---,0.00,VWS V14.01,2013-02-22 03:01:00,
2013-02-21 21:02:00,52.0,-10.2,29.88,NW,315,2.0,3.6,7,0.00,,---,0.00,VWS V14.01,2013-02-22 03:02:00,
2013-02-21 21:03:00,52.2,-10.1,29.88,NW,315,2.7,2.9,7,0.00,,---,0.00,VWS V14.01,2013-02-22 03:03:00,
2013-02-21 21:04:00,52.2,-10.1,29.88,NW,315,2.5,3.1,7,0.00,,---,0.00,VWS V14.01,2013-02-22 03:04:00,
2013-02-21 21:05:00,51.5,2.3,29.88,NNW,338,1.6,1.6,13,0.00,,---,0.00,VWS V14.01,2013-02-22 03:05:00,
2013-02-21 21:06:00,52.2,-10.1,29.88,NW,315,2.9,2.9,7,0.00,,---,0.00,VWS V14.01,2013-02-22 03:06:00,
2013-02-21 21:07:00,52.2,-10.1,29.88,West,270,2.7,2.9,7,0.00,,---,0.00,VWS V14.01,2013-02-22 03:07:00,
2013-02-21 21:08:00,52.2,-10.1,29.88,WNW,292,2.0,2.7,7,0.00,,---,0.00,VWS V14.01,2013-02-22 03:08:00,
2013-02-21 21:09:00,52.2,-10.1,29.88,WNW,292,2.7,2.7,7,0.00,,---,0.00,VWS V14.01,2013-02-22 03:09:00,
2013-02-21 21:10:00,50.9,6.3,29.88,NNW,338,0.0,0.0,16,0.00,,---,0.00,VWS V14.01,2013-02-22 03:10:00,
2013-02-21 21:11:00,52.2,-7.4,29.88,WNW,292,2.0,2.2,8,0.00,,---,0.00,VWS V14.01,2013-02-22 03:11:00,
2013-02-21 21:12:00,52.0,-7.5,29.88,WNW,292,1.1,2.0,8,0.00,,---,0.00,VWS V14.01,2013-02-22 03:12:00,
2013-02-21 21:13:00,52.0,-7.5,29.88,West,270,1.6,2.0,8,0.00,,---,0.00,VWS V14.01,2013-02-22 03:13:00,
2013-02-21 21:14:00,51.8,-7.6,29.88,West,270,1.6,1.6,8,0.00,,---,0.00,VWS V14.01,2013-02-22 03:14:00,
2013-02-21 21:15:00,50.2,8.4,29.88,NNW,338,0.0,0.0,18,0.00,,---,0.00,VWS V14.01,2013-02-22 03:15:00,
2013-02-21 21:16:00,51.7,2.4,29.88,WNW,292,1.1,2.0,13,0.00,,---,0.00,VWS V14.01,2013-02-22 03:16:00,
2013-02-21 21:17:00,51.5,2.3,29.88,NNW,338,1.6,1.6,13,0.00,,---,0.00,VWS V14.01,2013-02-22 03:17:00,
2013-02-21 21:18:00,51.5,2.3,29.88,North,0,0.9,1.6,13,0.00,,---,0.00,VWS V14.01,2013-02-22 03:18:00,
2013-02-21 21:19:00,51.3,2.1,29.88,NNE,22,0.0,0.9,13,0.00,,---,0.00,VWS V14.01,2013-02-22 03:19:00,
2013-02-21 21:20:00,50.0,8.2,29.88,NNW,338,1.6,2.0,18,0.00,,---,0.00,VWS V14.01,2013-02-22 03:20:00,
2013-02-21 21:21:00,51.1,2.0,29.88,NNW,338,0.0,0.0,13,0.00,,---,0.00,VWS V14.01,2013-02-22 03:21:00,
2013-02-21 21:22:00,50.9,6.3,29.88,NNW,338,0.0,0.0,16,0.00,,---,0.00,VWS V14.01,2013-02-22 03:22:00,
2013-02-21 21:23:00,50.8,6.2,29.88,NNW,338,0.0,0.0,16,0.00,,---,0.00,VWS V14.01,2013-02-22 03:23:00,
2013-02-21 21:24:00,50.6,6.1,29.88,NNW,338,0.0,0.0,16,0.00,,---,0.00,VWS V14.01,2013-02-22 03:24:00,
2013-02-21 21:25:00,50.2,11.8,29.88,West,270,0.0,2.0,21,0.00,,---,0.00,VWS V14.01,2013-02-22 03:25:00,
2013-02-21 21:26:00,50.4,5.9,29.88,NNW,338,0.0,0.0,16,0.00,,---,0.00,VWS V14.01,2013-02-22 03:26:00,
2013-02-21 21:27:00,50.2,8.4,29.88,NNW,338,0.0,0.0,18,0.00,,---,0.00,VWS V14.01,2013-02-22 03:27:00,
2013-02-21 21:28:00,50.2,8.4,29.88,NNW,338,0.0,0.0,18,0.00,,---,0.00,VWS V14.01,2013-02-22 03:28:00,
2013-02-21 21:29:00,50.0,8.2,29.88,NNW,338,0.0,0.0,18,0.00,,---,0.00,VWS V14.01,2013-02-22 03:29:00,
2013-02-21 21:30:00,50.2,16.7,29.88,West,270,0.0,0.0,26,0.00,,---,0.00,VWS V14.01,2013-02-22 03:30:00,
2013-02-21 21:31:00,50.0,8.2,29.88,NNW,338,0.0,0.0,18,0.00,,---,0.00,VWS V14.01,2013-02-22 03:31:00,
2013-02-21 21:32:00,50.0,8.2,29.88,NNW,338,1.6,2.0,18,0.00,,---,0.00,VWS V14.01,2013-02-22 03:32:00,
2013-02-21 21:33:00,50.0,8.2,29.88,NW,315,2.2,2.2,18,0.00,,---,0.00,VWS V14.01,2013-02-22 03:33:00,
2013-02-21 21:34:00,50.0,8.2,29.88,NW,315,2.0,2.2,18,0.00,,---,0.00,VWS V14.01,2013-02-22 03:34:00,
2013-02-21 21:35:00,50.0,17.4,29.88,West,270,0.0,0.0,27,0.00,,---,0.00,VWS V14.01,2013-02-22 03:35:00,
2013-02-21 21:36:00,50.2,11.8,29.88,NW,315,1.3,2.0,21,0.00,,---,0.00,VWS V14.01,2013-02-22 03:36:00,
2013-02-21 21:37:00,50.2,11.8,29.88,West,270,0.0,2.0,21,0.00,,---,0.00,VWS V14.01,2013-02-22 03:37:00,
2013-02-21 21:38:00,50.6,14.2,29.88,West,270,0.0,0.0,23,0.00,,---,0.00,VWS V14.01,2013-02-22 03:38:00,
2013-02-21 21:39:00,50.4,16.8,29.88,West,270,0.0,0.0,26,0.00,,---,0.00,VWS V14.01,2013-02-22 03:39:00,
2013-02-21 21:40:00,49.7,18.8,29.88,West,270,0.0,0.0,29,0.00,,---,0.00,VWS V14.01,2013-02-22 03:40:00,
2013-02-21 21:41:00,50.4,16.8,29.88,West,270,0.0,0.0,26,0.00,,---,0.00,VWS V14.01,2013-02-22 03:41:00,
2013-02-21 21:42:00,50.2,16.7,29.88,West,270,0.0,0.0,26,0.00,,---,0.00,VWS V14.01,2013-02-22 03:42:00,
2013-02-21 21:43:00,50.2,16.7,29.88,West,270,0.0,0.0,26,0.00,,---,0.00,VWS V14.01,2013-02-22 03:43:00,
2013-02-21 21:44:00,50.2,16.7,29.88,West,270,0.0,0.0,26,0.00,,---,0.00,VWS V14.01,2013-02-22 03:44:00,
2013-02-21 21:45:00,49.0,18.9,29.88,West,270,0.0,0.0,30,0.00,,---,0.00,VWS V14.01,2013-02-22 03:45:00,
2013-02-21 21:46:00,50.0,17.4,29.88,West,270,0.0,0.0,27,0.00,,---,0.00,VWS V14.01,2013-02-22 03:46:00,
2013-02-21 21:47:00,50.0,17.4,29.88,West,270,0.0,0.0,27,0.00,,---,0.00,VWS V14.01,2013-02-22 03:47:00,
2013-02-21 21:48:00,50.0,17.4,29.88,West,270,0.0,0.0,27,0.00,,---,0.00,VWS V14.01,2013-02-22 03:48:00,
2013-02-21 21:49:00,50.0,18.2,29.88,West,270,0.0,0.0,28,0.00,,---,0.00,VWS V14.01,2013-02-22 03:49:00,
2013-02-21 21:50:00,48.5,20.0,29.88,West,270,0.0,0.0,32,0.00,,---,0.00,VWS V14.01,2013-02-22 03:50:00,
2013-02-21 21:51:00,49.9,18.9,29.88,West,270,0.0,0.0,29,0.00,,---,0.00,VWS V14.01,2013-02-22 03:51:00,
2013-02-21 21:52:00,49.7,18.8,29.88,West,270,0.0,0.0,29,0.00,,---,0.00,VWS V14.01,2013-02-22 03:52:00,
2013-02-21 21:53:00,49.3,19.2,29.88,West,270,0.0,0.0,30,0.00,,---,0.00,VWS V14.01,2013-02-22 03:53:00,
2013-02-21 21:54:00,49.3,19.2,29.88,West,270,0.0,0.0,30,0.00,,---,0.00,VWS V14.01,2013-02-22 03:54:00,
2013-02-21 21:55:00,47.9,19.5,29.88,West,270,0.0,0.0,32,0.00,,---,0.00,VWS V14.01,2013-02-22 03:55:00,
2013-02-21 21:56:00,49.0,18.9,29.88,West,270,0.0,0.0,30,0.00,,---,0.00,VWS V14.01,2013-02-22 03:56:00,
2013-02-21 21:57:00,49.0,18.9,29.88,West,270,0.0,0.0,30,0.00,,---,0.00,VWS V14.01,2013-02-22 03:57:00,
2013-02-21 21:58:00,48.8,18.8,29.88,West,270,0.0,0.0,30,0.00,,---,0.00,VWS V14.01,2013-02-22 03:58:00,
2013-02-21 21:59:00,48.6,18.6,29.88,West,270,0.0,0.0,30,0.00,,---,0.00,VWS V14.01,2013-02-22 03:59:00,
2013-02-21 22:00:00,47.9,19.5,29.88,North,0,0.0,0.0,32,0.00,,---,0.00,VWS V14.01,2013-02-22 04:00:00,
2013-02-21 22:02:00,48.5,20.0,29.88,West,270,0.0,0.0,32,0.00,,---,0.00,VWS V14.01,2013-02-22 04:02:00,
2013-02-21 22:03:00,48.3,19.8,29.88,West,270,0.0,0.0,32,0.00,,---,0.00,VWS V14.01,2013-02-22 04:03:00,
2013-02-21 22:04:00,48.3,19.8,29.88,West,270,0.0,0.0,32,0.00,,---,0.00,VWS V14.01,2013-02-22 04:04:00,
2013-02-21 22:05:00,48.1,19.7,29.85,North,0,0.0,0.0,32,0.00,,---,0.00,VWS V14.01,2013-02-22 04:05:00,
2013-02-21 22:06:00,48.1,19.7,29.88,West,270,0.0,0.0,32,0.00,,---,0.00,VWS V14.01,2013-02-22 04:06:00,
2013-02-21 22:07:00,47.9,19.5,29.88,West,270,0.0,0.0,32,0.00,,---,0.00,VWS V14.01,2013-02-22 04:07:00,
2013-02-21 22:08:00,47.9,19.5,29.88,North,0,1.6,2.2,32,0.00,,---,0.00,VWS V14.01,2013-02-22 04:08:00,
2013-02-21 22:09:00,47.9,19.5,29.88,North,0,0.0,1.6,32,0.00,,---,0.00,VWS V14.01,2013-02-22 04:09:00,
2013-02-21 22:10:00,48.1,19.7,29.85,NNW,338,0.0,0.0,32,0.00,,---,0.00,VWS V14.01,2013-02-22 04:10:00,
2013-02-21 22:11:00,47.9,19.5,29.88,North,0,0.0,1.3,32,0.00,,---,0.00,VWS V14.01,2013-02-22 04:11:00,
2013-02-21 22:12:00,47.9,19.5,29.88,North,0,0.0,0.0,32,0.00,,---,0.00,VWS V14.01,2013-02-22 04:12:00,
2013-02-21 22:13:00,47.9,19.5,29.88,North,0,0.0,0.0,32,0.00,,---,0.00,VWS V14.01,2013-02-22 04:13:00,
2013-02-21 22:14:00,47.9,19.5,29.88,North,0,0.0,0.0,32,0.00,,---,0.00,VWS V14.01,2013-02-22 04:14:00,
2013-02-21 22:15:00,47.4,19.8,29.85,East,90,0.0,0.0,33,0.00,,---,0.00,VWS V14.01,2013-02-22 04:15:00,
2013-02-21 22:16:00,48.1,19.7,29.88,North,0,0.0,0.0,32,0.00,,---,0.00,VWS V14.01,2013-02-22 04:16:00,
2013-02-21 22:17:00,48.1,19.7,29.85,North,0,0.0,0.0,32,0.00,,---,0.00,VWS V14.01,2013-02-22 04:17:00,
2013-02-21 22:18:00,48.1,19.7,29.85,NNW,338,0.0,0.0,32,0.00,,---,0.00,VWS V14.01,2013-02-22 04:18:00,
2013-02-21 22:19:00,48.1,19.7,29.85,NNW,338,0.0,0.0,32,0.00,,---,0.00,VWS V14.01,2013-02-22 04:19:00,
2013-02-21 22:20:00,47.6,23.2,29.88,SE,135,1.6,3.8,38,0.00,,---,0.00,VWS V14.01,2013-02-22 04:20:00,
2013-02-21 22:21:00,48.1,19.7,29.85,NNW,338,0.0,0.0,32,0.00,,---,0.00,VWS V14.01,2013-02-22 04:21:00,
2013-02-21 22:22:00,48.1,19.7,29.85,NNW,338,0.0,0.0,32,0.00,,---,0.00,VWS V14.01,2013-02-22 04:22:00,
2013-02-21 22:24:00,47.9,20.2,29.85,NNW,338,0.0,0.0,33,0.00,,---,0.00,VWS V14.01,2013-02-22 04:24:00,
2013-02-21 22:25:00,47.4,23.1,29.88,ESE,112,2.2,2.2,38,0.00,,---,0.00,VWS V14.01,2013-02-22 04:25:00,
2013-02-21 22:26:00,47.6,19.9,29.85,East,90,0.0,0.0,33,0.00,,---,0.00,VWS V14.01,2013-02-22 04:26:00,
2013-02-21 22:27:00,47.4,19.8,29.85,East,90,0.0,0.0,33,0.00,,---,0.00,VWS V14.01,2013-02-22 04:27:00,
2013-02-21 22:28:00,47.4,19.8,29.85,SSE,158,2.7,2.7,33,0.00,,---,0.00,VWS V14.01,2013-02-22 04:28:00,
2013-02-21 22:29:00,47.4,19.8,29.85,SE,135,2.9,2.9,33,0.00,,---,0.00,VWS V14.01,2013-02-22 04:29:00,
2013-02-21 22:30:00,46.9,23.2,29.88,ESE,112,0.0,0.0,39,0.00,,---,0.00,VWS V14.01,2013-02-22 04:30:00,
2013-02-21 22:31:00,47.6,22.6,29.85,SE,135,2.7,3.4,37,0.00,,---,0.00,VWS V14.01,2013-02-22 04:31:00,
2013-02-21 22:32:00,47.6,23.2,29.88,SE,135,1.6,3.8,38,0.00,,---,0.00,VWS V14.01,2013-02-22 04:32:00,
2013-02-21 22:33:00,47.6,23.2,29.88,SE,135,0.0,1.6,38,0.00,,---,0.00,VWS V14.01,2013-02-22 04:33:00,
2013-02-21 22:34:00,47.4,23.1,29.88,East,90,1.3,2.0,38,0.00,,---,0.00,VWS V14.01,2013-02-22 04:34:00,
2013-02-21 22:35:00,46.3,22.8,29.88,ESE,112,0.0,0.0,39,0.00,,---,0.00,VWS V14.01,2013-02-22 04:35:00,
2013-02-21 22:37:00,47.4,23.1,29.88,ESE,112,2.2,2.2,38,0.00,,---,0.00,VWS V14.01,2013-02-22 04:37:00,
2013-02-21 22:38:00,47.2,23.5,29.88,ESE,112,0.0,2.2,39,0.00,,---,0.00,VWS V14.01,2013-02-22 04:38:00,
2013-02-21 22:39:00,47.2,23.5,29.88,ESE,112,0.0,0.0,39,0.00,,---,0.00,VWS V14.01,2013-02-22 04:39:00,
2013-02-21 22:40:00,46.0,21.8,29.88,ESE,112,0.0,0.0,38,0.00,,---,0.00,VWS V14.01,2013-02-22 04:40:00,
2013-02-21 22:43:00,46.9,23.2,29.88,ESE,112,0.0,0.0,39,0.00,,---,0.00,VWS V14.01,2013-02-22 04:43:00,
2013-02-21 22:44:00,46.9,23.2,29.88,ESE,112,0.0,0.0,39,0.00,,---,0.00,VWS V14.01,2013-02-22 04:44:00,
2013-02-21 22:45:00,46.2,22.0,29.88,ESE,112,0.0,2.0,38,0.00,,---,0.00,VWS V14.01,2013-02-22 04:45:00,
2013-02-21 22:47:00,46.3,22.8,29.88,ESE,112,0.0,0.0,39,0.00,,---,0.00,VWS V14.01,2013-02-22 04:47:00,
2013-02-21 22:48:00,46.3,22.8,29.88,ESE,112,0.0,0.0,39,0.00,,---,0.00,VWS V14.01,2013-02-22 04:48:00,
2013-02-21 22:49:00,46.2,22.6,29.88,ESE,112,0.0,0.0,39,0.00,,---,0.00,VWS V14.01,2013-02-22 04:49:00,
2013-02-21 22:50:00,46.9,22.6,29.88,ESE,112,2.5,2.7,38,0.00,,---,0.00,VWS V14.01,2013-02-22 04:50:00,
2013-02-21 22:51:00,46.2,22.0,29.88,ESE,112,0.0,0.0,38,0.00,,---,0.00,VWS V14.01,2013-02-22 04:51:00,
2013-02-21 22:52:00,46.0,21.8,29.88,ESE,112,0.0,0.0,38,0.00,,---,0.00,VWS V14.01,2013-02-22 04:52:00,
2013-02-21 22:53:00,46.0,22.4,29.88,ESE,112,0.0,0.0,39,0.00,,---,0.00,VWS V14.01,2013-02-22 04:53:00,
2013-02-21 22:55:00,47.0,22.8,29.88,ESE,112,2.2,2.5,38,0.00,,---,0.00,VWS V14.01,2013-02-22 04:55:00,
2013-02-21 22:56:00,46.0,21.8,29.88,ESE,112,1.3,2.2,38,0.00,,---,0.00,VWS V14.01,2013-02-22 04:56:00,
2013-02-21 22:57:00,46.2,22.0,29.88,ESE,112,0.0,2.0,38,0.00,,---,0.00,VWS V14.01,2013-02-22 04:57:00,
2013-02-21 22:58:00,46.2,22.0,29.88,ESE,112,1.6,2.2,38,0.00,,---,0.00,VWS V14.01,2013-02-22 04:58:00,
2013-02-21 22:59:00,46.5,22.3,29.88,SE,135,1.1,2.0,38,0.00,,---,0.00,VWS V14.01,2013-02-22 04:59:00,
2013-02-21 23:00:00,47.2,22.9,29.88,ESE,112,0.0,2.7,38,0.00,,---,0.00,VWS V14.01,2013-02-22 05:00:00,
2013-02-21 23:01:00,46.7,22.5,29.88,ESE,112,2.7,2.7,38,0.00,,---,0.00,VWS V14.01,2013-02-22 05:01:00,
2013-02-21 23:02:00,46.9,22.6,29.88,ESE,112,2.5,2.7,38,0.00,,---,0.00,VWS V14.01,2013-02-22 05:02:00,
2013-02-21 23:03:00,46.9,22.6,29.88,ESE,112,2.0,2.5,38,0.00,,---,0.00,VWS V14.01,2013-02-22 05:03:00,
2013-02-21 23:04:00,46.9,22.6,29.88,East,90,2.0,2.5,38,0.00,,---,0.00,VWS V14.01,2013-02-22 05:04:00,
2013-02-21 23:05:00,47.0,22.8,29.88,ESE,112,1.6,2.2,38,0.00,,---,0.00,VWS V14.01,2013-02-22 05:05:00,
2013-02-21 23:06:00,46.9,22.6,29.88,ESE,112,0.0,0.0,38,0.00,,---,0.00,VWS V14.01,2013-02-22 05:06:00,
2013-02-21 23:07:00,47.0,22.8,29.88,ESE,112,2.2,2.5,38,0.00,,---,0.00,VWS V14.01,2013-02-22 05:07:00,
2013-02-21 23:08:00,47.0,22.8,29.88,ESE,112,2.5,2.5,38,0.00,,---,0.00,VWS V14.01,2013-02-22 05:08:00,
2013-02-21 23:09:00,47.2,22.9,29.88,ESE,112,3.1,3.1,38,0.00,,---,0.00,VWS V14.01,2013-02-22 05:09:00,
2013-02-21 23:10:00,47.2,22.9,29.88,SE,135,2.2,3.1,38,0.00,,---,0.00,VWS V14.01,2013-02-22 05:10:00,
2013-02-21 23:11:00,46.7,22.5,29.88,ESE,112,0.0,0.0,38,0.00,,---,0.00,VWS V14.01,2013-02-22 05:11:00,
2013-02-21 23:12:00,47.2,22.9,29.88,ESE,112,1.1,2.7,38,0.00,,---,0.00,VWS V14.01,2013-02-22 05:12:00,
2013-02-21 23:13:00,47.2,22.9,29.88,ESE,112,0.0,1.1,38,0.00,,---,0.00,VWS V14.01,2013-02-22 05:13:00,
2013-02-21 23:14:00,47.2,22.9,29.88,ESE,112,0.0,0.0,38,0.00,,---,0.00,VWS V14.01,2013-02-22 05:14:00,
2013-02-21 23:15:00,47.0,22.8,29.88,ESE,112,0.0,0.0,38,0.00,,---,0.00,VWS V14.01,2013-02-22 05:15:00,
2013-02-21 23:16:00,46.3,22.1,29.88,ESE,112,0.0,0.0,38,0.00,,---,0.00,VWS V14.01,2013-02-22 05:16:00,
2013-02-21 23:17:00,46.9,22.6,29.88,ESE,112,0.0,0.0,38,0.00,,---,0.00,VWS V14.01,2013-02-22 05:17:00,
2013-02-21 23:18:00,46.9,22.6,29.88,ESE,112,0.0,0.0,38,0.00,,---,0.00,VWS V14.01,2013-02-22 05:18:00,
2013-02-21 23:19:00,46.9,22.6,29.88,ESE,112,0.0,0.0,38,0.00,,---,0.00,VWS V14.01,2013-02-22 05:19:00,
2013-02-21 23:20:00,46.9,22.6,29.88,ESE,112,0.0,0.0,38,0.00,,---,0.00,VWS V14.01,2013-02-22 05:20:00,
2013-02-21 23:21:00,46.5,21.7,29.88,NNW,338,2.7,2.7,37,0.00,,---,0.00,VWS V14.01,2013-02-22 05:21:00,
2013-02-21 23:22:00,46.9,22.6,29.88,ESE,112,0.0,0.0,38,0.00,,---,0.00,VWS V14.01,2013-02-22 05:22:00,
2013-02-21 23:23:00,46.7,22.5,29.88,ESE,112,0.0,0.0,38,0.00,,---,0.00,VWS V14.01,2013-02-22 05:23:00,
2013-02-21 23:24:00,46.7,22.5,29.88,ESE,112,0.0,0.0,38,0.00,,---,0.00,VWS V14.01,2013-02-22 05:24:00,
2013-02-21 23:25:00,46.5,22.3,29.88,ESE,112,0.0,0.0,38,0.00,,---,0.00,VWS V14.01,2013-02-22 05:25:00,
2013-02-21 23:26:00,47.2,22.9,29.88,NNW,338,2.5,3.1,38,0.00,,---,0.00,VWS V14.01,2013-02-22 05:26:00,
2013-02-21 23:27:00,46.5,22.3,29.88,ESE,112,0.0,0.0,38,0.00,,---,0.00,VWS V14.01,2013-02-22 05:27:00,
2013-02-21 23:28:00,46.3,22.1,29.88,ESE,112,0.0,0.0,38,0.00,,---,0.00,VWS V14.01,2013-02-22 05:28:00,
2013-02-21 23:29:00,46.3,22.1,29.88,ESE,112,0.0,0.0,38,0.00,,---,0.00,VWS V14.01,2013-02-22 05:29:00,
2013-02-21 23:30:00,46.3,21.5,29.88,North,0,1.1,1.1,37,0.00,,---,0.00,VWS V14.01,2013-02-22 05:30:00,
2013-02-21 23:31:00,47.8,23.4,29.88,North,0,2.0,2.9,38,0.00,,---,0.00,VWS V14.01,2013-02-22 05:31:00,
2013-02-21 23:32:00,46.5,21.7,29.88,North,0,2.7,2.7,37,0.00,,---,0.00,VWS V14.01,2013-02-22 05:32:00,
2013-02-21 23:33:00,46.7,21.8,29.88,NNW,338,2.9,2.9,37,0.00,,---,0.00,VWS V14.01,2013-02-22 05:33:00,
2013-02-21 23:34:00,46.7,21.8,29.88,NNW,338,2.9,2.9,37,0.00,,---,0.00,VWS V14.01,2013-02-22 05:34:00,
2013-02-21 23:35:00,47.0,22.8,29.88,NNW,338,2.7,3.8,38,0.00,,---,0.00,VWS V14.01,2013-02-22 05:35:00,
2013-02-21 23:36:00,47.4,23.1,29.88,NNW,338,3.4,3.4,38,0.00,,---,0.00,VWS V14.01,2013-02-22 05:36:00,
2013-02-21 23:37:00,47.2,22.9,29.88,NNW,338,3.1,3.1,38,0.00,,---,0.00,VWS V14.01,2013-02-22 05:37:00,
2013-02-21 23:38:00,47.2,22.9,29.88,North,0,3.6,3.6,38,0.00,,---,0.00,VWS V14.01,2013-02-22 05:38:00,
2013-02-21 23:39:00,47.6,23.2,29.88,North,0,3.8,3.8,38,0.00,,---,0.00,VWS V14.01,2013-02-22 05:39:00,
2013-02-21 23:40:00,47.8,23.4,29.88,North,0,3.8,4.3,38,0.00,,---,0.00,VWS V14.01,2013-02-22 05:40:00,
2013-02-21 23:41:00,47.9,22.9,29.88,NNE,22,4.3,4.3,37,0.00,,---,0.00,VWS V14.01,2013-02-22 05:41:00,
2013-02-21 23:42:00,47.9,23.6,29.88,North,0,2.9,3.6,38,0.00,,---,0.00,VWS V14.01,2013-02-22 05:42:00,
2013-02-21 23:43:00,47.8,23.4,29.88,North,0,2.0,2.9,38,0.00,,---,0.00,VWS V14.01,2013-02-22 05:43:00,
2013-02-21 23:44:00,47.8,23.4,29.88,North,0,1.6,2.0,38,0.00,,---,0.00,VWS V14.01,2013-02-22 05:44:00,
2013-02-21 23:45:00,47.6,23.2,29.88,NNW,338,2.5,2.5,38,0.00,,---,0.00,VWS V14.01,2013-02-22 05:45:00,
2013-02-21 23:46:00,47.8,22.8,29.88,NE,45,2.2,2.2,37,0.00,,---,0.00,VWS V14.01,2013-02-22 05:46:00,
2013-02-21 23:47:00,47.4,23.1,29.88,NNW,338,2.5,2.7,38,0.00,,---,0.00,VWS V14.01,2013-02-22 05:47:00,
2013-02-21 23:48:00,47.4,23.1,29.88,NNW,338,3.8,3.8,38,0.00,,---,0.00,VWS V14.01,2013-02-22 05:48:00,
2013-02-21 23:50:00,47.9,23.6,29.88,North,0,5.8,6.0,38,0.00,,---,0.00,VWS V14.01,2013-02-22 05:50:00,
2013-02-21 23:51:00,47.4,23.1,29.85,NE,45,0.0,0.0,38,0.00,,---,0.00,VWS V14.01,2013-02-22 05:51:00,
2013-02-21 23:52:00,48.1,23.7,29.88,North,0,3.8,5.8,38,0.00,,---,0.00,VWS V14.01,2013-02-22 05:52:00,
2013-02-21 23:53:00,47.9,22.9,29.88,NNE,22,3.6,4.3,37,0.00,,---,0.00,VWS V14.01,2013-02-22 05:53:00,
2013-02-21 23:54:00,47.9,22.9,29.88,NNE,22,3.1,3.8,37,0.00,,---,0.00,VWS V14.01,2013-02-22 05:54:00,
2013-02-21 23:55:00,47.9,22.9,29.88,NNE,22,2.5,3.4,37,0.00,,---,0.00,VWS V14.01,2013-02-22 05:55:00,
2013-02-21 23:56:00,46.7,22.5,29.85,SE,135,0.0,0.0,38,0.00,,---,0.00,VWS V14.01,2013-02-22 05:56:00,
2013-02-21 23:57:00,47.8,22.8,29.88,NNE,22,2.2,2.7,37,0.00,,---,0.00,VWS V14.01,2013-02-22 05:57:00,
2013-02-21 23:58:00,47.8,22.8,29.88,NE,45,1.6,2.2,37,0.00,,---,0.00,VWS V14.01,2013-02-22 05:58:00,
2013-02-21 23:59:00,47.6,23.2,29.88,NE,45,0.9,1.6,38,0.00,,---,0.00,VWS V14.01,2013-02-22 05:59:00,